<?xml version="1.0" encoding="UTF-8" standalone="no" ?><gpx xmlns="http://www.topografix.com/GPX/1/1" xmlns:gpxx="http://www.garmin.com/xmlschemas/GpxExtensions/v3" xmlns:wptx1="http://www.garmin.com/xmlschemas/WaypointExtension/v1" xmlns:gpxtpx="http://www.garmin.com/xmlschemas/TrackPointExtension/v1" creator="GuideVTT.com" version="1.1" xmlns:xsi="http://www.w3.org/2001/XMLSchema-instance" xsi:schemaLocation="http://www.topografix.com/GPX/1/1 http://www.topografix.com/GPX/1/1/gpx.xsd http://www.garmin.com/xmlschemas/GpxExtensions/v3 http://www8.garmin.com/xmlschemas/GpxExtensionsv3.xsd http://www.garmin.com/xmlschemas/WaypointExtension/v1 http://www8.garmin.com/xmlschemas/WaypointExtensionv1.xsd http://www.garmin.com/xmlschemas/TrackPointExtension/v1 http://www.garmin.com/xmlschemas/TrackPointExtensionv1.xsd">
<metadata><link href="http://www.garmin.com"><text>Garmin International</text></link><time>2013-06-22T15:13:50Z</time></metadata>
<trk><name>lefautpasmollir.gpx</name><extensions><gpxx:TrackExtension><gpxx:DisplayColor>Cyan</gpxx:DisplayColor></gpxx:TrackExtension></extensions><trkseg>
<trkpt lat="48.82016754" lon="1.95381403"><ele></ele><time>2014-6-30T10:27:7Z</time></trkpt>
<trkpt lat="48.82025528" lon="1.95327699"><ele></ele><time>2014-6-30T10:27:10Z</time></trkpt>
<trkpt lat="48.82035065" lon="1.95272005"><ele></ele><time>2014-6-30T10:27:13Z</time></trkpt>
<trkpt lat="48.82043839" lon="1.95217502"><ele></ele><time>2014-6-30T10:27:16Z</time></trkpt>
<trkpt lat="48.82052612" lon="1.95161903"><ele></ele><time>2014-6-30T10:27:19Z</time></trkpt>
<trkpt lat="48.82054520" lon="1.95142698"><ele></ele><time>2014-6-30T10:27:22Z</time></trkpt>
<trkpt lat="48.82049179" lon="1.95091903"><ele></ele><time>2014-6-30T10:27:25Z</time></trkpt>
<trkpt lat="48.82057571" lon="1.95040202"><ele></ele><time>2014-6-30T10:27:28Z</time></trkpt>
<trkpt lat="48.82052994" lon="1.95019102"><ele></ele><time>2014-6-30T10:27:31Z</time></trkpt>
<trkpt lat="48.82055283" lon="1.94954598"><ele></ele><time>2014-6-30T10:27:34Z</time></trkpt>
<trkpt lat="48.82066727" lon="1.94894004"><ele></ele><time>2014-6-30T10:27:37Z</time></trkpt>
<trkpt lat="48.82081985" lon="1.94844604"><ele></ele><time>2014-6-30T10:27:40Z</time></trkpt>
<trkpt lat="48.82088852" lon="1.94824505"><ele></ele><time>2014-6-30T10:27:43Z</time></trkpt>
<trkpt lat="48.82094955" lon="1.94822204"><ele></ele><time>2014-6-30T10:27:46Z</time></trkpt>
<trkpt lat="48.82094574" lon="1.94822598"><ele></ele><time>2014-6-30T10:27:49Z</time></trkpt>
<trkpt lat="48.82094574" lon="1.94822800"><ele></ele><time>2014-6-30T10:27:52Z</time></trkpt>
<trkpt lat="48.82094574" lon="1.94822800"><ele></ele><time>2014-6-30T10:27:55Z</time></trkpt>
<trkpt lat="48.82094955" lon="1.94822598"><ele></ele><time>2014-6-30T10:27:58Z</time></trkpt>
<trkpt lat="48.82096863" lon="1.94819295"><ele></ele><time>2014-6-30T10:28:1Z</time></trkpt>
<trkpt lat="48.82098007" lon="1.94801903"><ele></ele><time>2014-6-30T10:28:4Z</time></trkpt>
<trkpt lat="48.82101059" lon="1.94741595"><ele></ele><time>2014-6-30T10:28:7Z</time></trkpt>
<trkpt lat="48.82100677" lon="1.94711697"><ele></ele><time>2014-6-30T10:28:10Z</time></trkpt>
<trkpt lat="48.82111740" lon="1.94660902"><ele></ele><time>2014-6-30T10:28:13Z</time></trkpt>
<trkpt lat="48.82111740" lon="1.94648004"><ele></ele><time>2014-6-30T10:28:16Z</time></trkpt>
<trkpt lat="48.82109070" lon="1.94636703"><ele></ele><time>2014-6-30T10:28:19Z</time></trkpt>
<trkpt lat="48.82109451" lon="1.94633806"><ele></ele><time>2014-6-30T10:28:22Z</time></trkpt>
<trkpt lat="48.82108307" lon="1.94610500"><ele></ele><time>2014-6-30T10:28:25Z</time></trkpt>
<trkpt lat="48.82108688" lon="1.94602001"><ele></ele><time>2014-6-30T10:28:28Z</time></trkpt>
<trkpt lat="48.82110977" lon="1.94538605"><ele></ele><time>2014-6-30T10:28:31Z</time></trkpt>
<trkpt lat="48.82115936" lon="1.94480395"><ele></ele><time>2014-6-30T10:28:34Z</time></trkpt>
<trkpt lat="48.82118988" lon="1.94451702"><ele></ele><time>2014-6-30T10:28:37Z</time></trkpt>
<trkpt lat="48.82079697" lon="1.94442296"><ele></ele><time>2014-6-30T10:28:40Z</time></trkpt>
<trkpt lat="48.82068634" lon="1.94440806"><ele></ele><time>2014-6-30T10:28:43Z</time></trkpt>
<trkpt lat="48.82068253" lon="1.94442296"><ele></ele><time>2014-6-30T10:28:46Z</time></trkpt>
<trkpt lat="48.82068253" lon="1.94443905"><ele></ele><time>2014-6-30T10:28:49Z</time></trkpt>
<trkpt lat="48.82067871" lon="1.94443595"><ele></ele><time>2014-6-30T10:28:52Z</time></trkpt>
<trkpt lat="48.82065201" lon="1.94443095"><ele></ele><time>2014-6-30T10:28:55Z</time></trkpt>
<trkpt lat="48.82027817" lon="1.94437397"><ele></ele><time>2014-6-30T10:28:58Z</time></trkpt>
<trkpt lat="48.81991196" lon="1.94430006"><ele></ele><time>2014-6-30T10:29:1Z</time></trkpt>
<trkpt lat="48.81986237" lon="1.94410598"><ele></ele><time>2014-6-30T10:29:4Z</time></trkpt>
<trkpt lat="48.81987762" lon="1.94370699"><ele></ele><time>2014-6-30T10:29:7Z</time></trkpt>
<trkpt lat="48.81988525" lon="1.94347501"><ele></ele><time>2014-6-30T10:29:10Z</time></trkpt>
<trkpt lat="48.81989288" lon="1.94308400"><ele></ele><time>2014-6-30T10:29:13Z</time></trkpt>
<trkpt lat="48.81992340" lon="1.94268095"><ele></ele><time>2014-6-30T10:29:16Z</time></trkpt>
<trkpt lat="48.81994247" lon="1.94250500"><ele></ele><time>2014-6-30T10:29:19Z</time></trkpt>
<trkpt lat="48.81994247" lon="1.94193900"><ele></ele><time>2014-6-30T10:29:22Z</time></trkpt>
<trkpt lat="48.81993103" lon="1.94157302"><ele></ele><time>2014-6-30T10:29:25Z</time></trkpt>
<trkpt lat="48.81993484" lon="1.94132197"><ele></ele><time>2014-6-30T10:29:28Z</time></trkpt>
<trkpt lat="48.81994247" lon="1.94075203"><ele></ele><time>2014-6-30T10:29:31Z</time></trkpt>
<trkpt lat="48.81994247" lon="1.94018400"><ele></ele><time>2014-6-30T10:29:34Z</time></trkpt>
<trkpt lat="48.81991577" lon="1.93964505"><ele></ele><time>2014-6-30T10:29:37Z</time></trkpt>
<trkpt lat="48.81988525" lon="1.93906701"><ele></ele><time>2014-6-30T10:29:40Z</time></trkpt>
<trkpt lat="48.81989288" lon="1.93848705"><ele></ele><time>2014-6-30T10:29:43Z</time></trkpt>
<trkpt lat="48.81995010" lon="1.93790698"><ele></ele><time>2014-6-30T10:29:46Z</time></trkpt>
<trkpt lat="48.82003403" lon="1.93738306"><ele></ele><time>2014-6-30T10:29:49Z</time></trkpt>
<trkpt lat="48.82015228" lon="1.93682694"><ele></ele><time>2014-6-30T10:29:52Z</time></trkpt>
<trkpt lat="48.82026291" lon="1.93630397"><ele></ele><time>2014-6-30T10:29:55Z</time></trkpt>
<trkpt lat="48.82034683" lon="1.93577397"><ele></ele><time>2014-6-30T10:29:58Z</time></trkpt>
<trkpt lat="48.82037735" lon="1.93519700"><ele></ele><time>2014-6-30T10:30:1Z</time></trkpt>
<trkpt lat="48.82039642" lon="1.93507504"><ele></ele><time>2014-6-30T10:30:4Z</time></trkpt>
<trkpt lat="48.82039642" lon="1.93505502"><ele></ele><time>2014-6-30T10:30:7Z</time></trkpt>
<trkpt lat="48.82041168" lon="1.93473303"><ele></ele><time>2014-6-30T10:30:10Z</time></trkpt>
<trkpt lat="48.82047653" lon="1.93420100"><ele></ele><time>2014-6-30T10:30:13Z</time></trkpt>
<trkpt lat="48.82054138" lon="1.93365204"><ele></ele><time>2014-6-30T10:30:16Z</time></trkpt>
<trkpt lat="48.82061768" lon="1.93305004"><ele></ele><time>2014-6-30T10:30:19Z</time></trkpt>
<trkpt lat="48.82068253" lon="1.93250096"><ele></ele><time>2014-6-30T10:30:22Z</time></trkpt>
<trkpt lat="48.82074738" lon="1.93196201"><ele></ele><time>2014-6-30T10:30:25Z</time></trkpt>
<trkpt lat="48.82081985" lon="1.93135798"><ele></ele><time>2014-6-30T10:30:28Z</time></trkpt>
<trkpt lat="48.82093048" lon="1.93081403"><ele></ele><time>2014-6-30T10:30:31Z</time></trkpt>
<trkpt lat="48.82106018" lon="1.93028903"><ele></ele><time>2014-6-30T10:30:34Z</time></trkpt>
<trkpt lat="48.82119370" lon="1.92977202"><ele></ele><time>2014-6-30T10:30:37Z</time></trkpt>
<trkpt lat="48.82131195" lon="1.92926002"><ele></ele><time>2014-6-30T10:30:40Z</time></trkpt>
<trkpt lat="48.82140732" lon="1.92883396"><ele></ele><time>2014-6-30T10:30:43Z</time></trkpt>
<trkpt lat="48.82144547" lon="1.92817605"><ele></ele><time>2014-6-30T10:30:46Z</time></trkpt>
<trkpt lat="48.82141876" lon="1.92757702"><ele></ele><time>2014-6-30T10:30:49Z</time></trkpt>
<trkpt lat="48.82137680" lon="1.92697501"><ele></ele><time>2014-6-30T10:30:52Z</time></trkpt>
<trkpt lat="48.82137299" lon="1.92635405"><ele></ele><time>2014-6-30T10:30:55Z</time></trkpt>
<trkpt lat="48.82138824" lon="1.92578304"><ele></ele><time>2014-6-30T10:30:58Z</time></trkpt>
<trkpt lat="48.82137680" lon="1.92554104"><ele></ele><time>2014-6-30T10:31:1Z</time></trkpt>
<trkpt lat="48.82143402" lon="1.92515600"><ele></ele><time>2014-6-30T10:31:4Z</time></trkpt>
<trkpt lat="48.82149124" lon="1.92450500"><ele></ele><time>2014-6-30T10:31:7Z</time></trkpt>
<trkpt lat="48.82157516" lon="1.92388201"><ele></ele><time>2014-6-30T10:31:10Z</time></trkpt>
<trkpt lat="48.82162094" lon="1.92350399"><ele></ele><time>2014-6-30T10:31:13Z</time></trkpt>
<trkpt lat="48.82170486" lon="1.92291605"><ele></ele><time>2014-6-30T10:31:16Z</time></trkpt>
<trkpt lat="48.82175827" lon="1.92250097"><ele></ele><time>2014-6-30T10:31:19Z</time></trkpt>
<trkpt lat="48.82181549" lon="1.92185104"><ele></ele><time>2014-6-30T10:31:22Z</time></trkpt>
<trkpt lat="48.82184601" lon="1.92125702"><ele></ele><time>2014-6-30T10:31:25Z</time></trkpt>
<trkpt lat="48.82180023" lon="1.92068601"><ele></ele><time>2014-6-30T10:31:28Z</time></trkpt>
<trkpt lat="48.82168579" lon="1.92016602"><ele></ele><time>2014-6-30T10:31:31Z</time></trkpt>
<trkpt lat="48.82162476" lon="1.91994405"><ele></ele><time>2014-6-30T10:31:34Z</time></trkpt>
<trkpt lat="48.82161713" lon="1.91980004"><ele></ele><time>2014-6-30T10:31:37Z</time></trkpt>
<trkpt lat="48.82161713" lon="1.91979897"><ele></ele><time>2014-6-30T10:31:40Z</time></trkpt>
<trkpt lat="48.82161331" lon="1.91979301"><ele></ele><time>2014-6-30T10:31:43Z</time></trkpt>
<trkpt lat="48.82161331" lon="1.91979003"><ele></ele><time>2014-6-30T10:31:46Z</time></trkpt>
<trkpt lat="48.82161331" lon="1.91979098"><ele></ele><time>2014-6-30T10:31:49Z</time></trkpt>
<trkpt lat="48.82161713" lon="1.91979098"><ele></ele><time>2014-6-30T10:31:52Z</time></trkpt>
<trkpt lat="48.82160950" lon="1.91977000"><ele></ele><time>2014-6-30T10:31:55Z</time></trkpt>
<trkpt lat="48.82160950" lon="1.91975200"><ele></ele><time>2014-6-30T10:31:58Z</time></trkpt>
<trkpt lat="48.82159805" lon="1.91972196"><ele></ele><time>2014-6-30T10:32:1Z</time></trkpt>
<trkpt lat="48.82160187" lon="1.91972303"><ele></ele><time>2014-6-30T10:32:4Z</time></trkpt>
<trkpt lat="48.82159042" lon="1.91967702"><ele></ele><time>2014-6-30T10:32:7Z</time></trkpt>
<trkpt lat="48.82152176" lon="1.91910994"><ele></ele><time>2014-6-30T10:32:10Z</time></trkpt>
<trkpt lat="48.82152557" lon="1.91908300"><ele></ele><time>2014-6-30T10:32:13Z</time></trkpt>
<trkpt lat="48.82152939" lon="1.91906703"><ele></ele><time>2014-6-30T10:32:16Z</time></trkpt>
<trkpt lat="48.82152176" lon="1.91904604"><ele></ele><time>2014-6-30T10:32:19Z</time></trkpt>
<trkpt lat="48.82152176" lon="1.91904604"><ele></ele><time>2014-6-30T10:32:22Z</time></trkpt>
<trkpt lat="48.82152557" lon="1.91904700"><ele></ele><time>2014-6-30T10:32:25Z</time></trkpt>
<trkpt lat="48.82152557" lon="1.91898894"><ele></ele><time>2014-6-30T10:32:28Z</time></trkpt>
<trkpt lat="48.82155228" lon="1.91865897"><ele></ele><time>2014-6-30T10:32:31Z</time></trkpt>
<trkpt lat="48.82158279" lon="1.91845500"><ele></ele><time>2014-6-30T10:32:34Z</time></trkpt>
<trkpt lat="48.82160187" lon="1.91835296"><ele></ele><time>2014-6-30T10:32:37Z</time></trkpt>
<trkpt lat="48.82167435" lon="1.91815400"><ele></ele><time>2014-6-30T10:32:40Z</time></trkpt>
<trkpt lat="48.82198334" lon="1.91767704"><ele></ele><time>2014-6-30T10:32:43Z</time></trkpt>
<trkpt lat="48.82199860" lon="1.91765296"><ele></ele><time>2014-6-30T10:32:46Z</time></trkpt>
<trkpt lat="48.82199860" lon="1.91765106"><ele></ele><time>2014-6-30T10:32:49Z</time></trkpt>
<trkpt lat="48.82202530" lon="1.91759503"><ele></ele><time>2014-6-30T10:32:52Z</time></trkpt>
<trkpt lat="48.82229233" lon="1.91714203"><ele></ele><time>2014-6-30T10:32:55Z</time></trkpt>
<trkpt lat="48.82235336" lon="1.91703701"><ele></ele><time>2014-6-30T10:32:58Z</time></trkpt>
<trkpt lat="48.82257843" lon="1.91645300"><ele></ele><time>2014-6-30T10:33:1Z</time></trkpt>
<trkpt lat="48.82265091" lon="1.91623998"><ele></ele><time>2014-6-30T10:33:4Z</time></trkpt>
<trkpt lat="48.82283783" lon="1.91576004"><ele></ele><time>2014-6-30T10:33:7Z</time></trkpt>
<trkpt lat="48.82297897" lon="1.91538596"><ele></ele><time>2014-6-30T10:33:10Z</time></trkpt>
<trkpt lat="48.82308578" lon="1.91511202"><ele></ele><time>2014-6-30T10:33:13Z</time></trkpt>
<trkpt lat="48.82323074" lon="1.91473305"><ele></ele><time>2014-6-30T10:33:16Z</time></trkpt>
<trkpt lat="48.82341766" lon="1.91419101"><ele></ele><time>2014-6-30T10:33:19Z</time></trkpt>
<trkpt lat="48.82350540" lon="1.91364396"><ele></ele><time>2014-6-30T10:33:22Z</time></trkpt>
<trkpt lat="48.82355881" lon="1.91309595"><ele></ele><time>2014-6-30T10:33:25Z</time></trkpt>
<trkpt lat="48.82357025" lon="1.91285801"><ele></ele><time>2014-6-30T10:33:28Z</time></trkpt>
<trkpt lat="48.82361603" lon="1.91221499"><ele></ele><time>2014-6-30T10:33:31Z</time></trkpt>
<trkpt lat="48.82372665" lon="1.91164196"><ele></ele><time>2014-6-30T10:33:34Z</time></trkpt>
<trkpt lat="48.82383347" lon="1.91111803"><ele></ele><time>2014-6-30T10:33:37Z</time></trkpt>
<trkpt lat="48.82392883" lon="1.91076803"><ele></ele><time>2014-6-30T10:33:40Z</time></trkpt>
<trkpt lat="48.82404327" lon="1.91013896"><ele></ele><time>2014-6-30T10:33:43Z</time></trkpt>
<trkpt lat="48.82407761" lon="1.90995300"><ele></ele><time>2014-6-30T10:33:46Z</time></trkpt>
<trkpt lat="48.82422638" lon="1.90936399"><ele></ele><time>2014-6-30T10:33:49Z</time></trkpt>
<trkpt lat="48.82431793" lon="1.90903199"><ele></ele><time>2014-6-30T10:33:52Z</time></trkpt>
<trkpt lat="48.82445145" lon="1.90856194"><ele></ele><time>2014-6-30T10:33:55Z</time></trkpt>
<trkpt lat="48.82458878" lon="1.90814996"><ele></ele><time>2014-6-30T10:33:58Z</time></trkpt>
<trkpt lat="48.82472610" lon="1.90758801"><ele></ele><time>2014-6-30T10:34:1Z</time></trkpt>
<trkpt lat="48.82481003" lon="1.90732801"><ele></ele><time>2014-6-30T10:34:4Z</time></trkpt>
<trkpt lat="48.82486725" lon="1.90719795"><ele></ele><time>2014-6-30T10:34:7Z</time></trkpt>
<trkpt lat="48.82519913" lon="1.90679002"><ele></ele><time>2014-6-30T10:34:10Z</time></trkpt>
<trkpt lat="48.82537842" lon="1.90660405"><ele></ele><time>2014-6-30T10:34:13Z</time></trkpt>
<trkpt lat="48.82546234" lon="1.90647805"><ele></ele><time>2014-6-30T10:34:16Z</time></trkpt>
<trkpt lat="48.82572556" lon="1.90594006"><ele></ele><time>2014-6-30T10:34:19Z</time></trkpt>
<trkpt lat="48.82595825" lon="1.90541697"><ele></ele><time>2014-6-30T10:34:22Z</time></trkpt>
<trkpt lat="48.82607269" lon="1.90515494"><ele></ele><time>2014-6-30T10:34:25Z</time></trkpt>
<trkpt lat="48.82633972" lon="1.90457904"><ele></ele><time>2014-6-30T10:34:28Z</time></trkpt>
<trkpt lat="48.82656479" lon="1.90410900"><ele></ele><time>2014-6-30T10:34:31Z</time></trkpt>
<trkpt lat="48.82665253" lon="1.90390098"><ele></ele><time>2014-6-30T10:34:34Z</time></trkpt>
<trkpt lat="48.82674026" lon="1.90370595"><ele></ele><time>2014-6-30T10:34:37Z</time></trkpt>
<trkpt lat="48.82697678" lon="1.90319002"><ele></ele><time>2014-6-30T10:34:40Z</time></trkpt>
<trkpt lat="48.82716370" lon="1.90272200"><ele></ele><time>2014-6-30T10:34:43Z</time></trkpt>
<trkpt lat="48.82731628" lon="1.90224898"><ele></ele><time>2014-6-30T10:34:46Z</time></trkpt>
<trkpt lat="48.82732391" lon="1.90223300"><ele></ele><time>2014-6-30T10:34:49Z</time></trkpt>
<trkpt lat="48.82732010" lon="1.90223300"><ele></ele><time>2014-6-30T10:34:52Z</time></trkpt>
<trkpt lat="48.82732010" lon="1.90223801"><ele></ele><time>2014-6-30T10:34:55Z</time></trkpt>
<trkpt lat="48.82731247" lon="1.90222299"><ele></ele><time>2014-6-30T10:34:58Z</time></trkpt>
<trkpt lat="48.82731247" lon="1.90221405"><ele></ele><time>2014-6-30T10:35:1Z</time></trkpt>
<trkpt lat="48.82731247" lon="1.90219498"><ele></ele><time>2014-6-30T10:35:4Z</time></trkpt>
<trkpt lat="48.82732391" lon="1.90158403"><ele></ele><time>2014-6-30T10:35:7Z</time></trkpt>
<trkpt lat="48.82731247" lon="1.90107203"><ele></ele><time>2014-6-30T10:35:10Z</time></trkpt>
<trkpt lat="48.82729721" lon="1.90068603"><ele></ele><time>2014-6-30T10:35:13Z</time></trkpt>
<trkpt lat="48.82728958" lon="1.90048802"><ele></ele><time>2014-6-30T10:35:16Z</time></trkpt>
<trkpt lat="48.82728577" lon="1.90048099"><ele></ele><time>2014-6-30T10:35:19Z</time></trkpt>
<trkpt lat="48.82728958" lon="1.90047896"><ele></ele><time>2014-6-30T10:35:22Z</time></trkpt>
<trkpt lat="48.82728577" lon="1.90045202"><ele></ele><time>2014-6-30T10:35:25Z</time></trkpt>
<trkpt lat="48.82726288" lon="1.90016794"><ele></ele><time>2014-6-30T10:35:28Z</time></trkpt>
<trkpt lat="48.82723999" lon="1.89950705"><ele></ele><time>2014-6-30T10:35:31Z</time></trkpt>
<trkpt lat="48.82726288" lon="1.89892006"><ele></ele><time>2014-6-30T10:35:34Z</time></trkpt>
<trkpt lat="48.82729340" lon="1.89843595"><ele></ele><time>2014-6-30T10:35:37Z</time></trkpt>
<trkpt lat="48.82730484" lon="1.89839494"><ele></ele><time>2014-6-30T10:35:40Z</time></trkpt>
<trkpt lat="48.82733536" lon="1.89777994"><ele></ele><time>2014-6-30T10:35:43Z</time></trkpt>
<trkpt lat="48.82734680" lon="1.89721298"><ele></ele><time>2014-6-30T10:35:46Z</time></trkpt>
<trkpt lat="48.82735825" lon="1.89661503"><ele></ele><time>2014-6-30T10:35:49Z</time></trkpt>
<trkpt lat="48.82739639" lon="1.89604795"><ele></ele><time>2014-6-30T10:35:52Z</time></trkpt>
<trkpt lat="48.82743073" lon="1.89552295"><ele></ele><time>2014-6-30T10:35:55Z</time></trkpt>
<trkpt lat="48.82740784" lon="1.89497495"><ele></ele><time>2014-6-30T10:35:58Z</time></trkpt>
<trkpt lat="48.82739639" lon="1.89438295"><ele></ele><time>2014-6-30T10:36:1Z</time></trkpt>
<trkpt lat="48.82740784" lon="1.89388597"><ele></ele><time>2014-6-30T10:36:4Z</time></trkpt>
<trkpt lat="48.82715607" lon="1.89370406"><ele></ele><time>2014-6-30T10:36:7Z</time></trkpt>
<trkpt lat="48.82691574" lon="1.89384496"><ele></ele><time>2014-6-30T10:36:10Z</time></trkpt>
<trkpt lat="48.82649612" lon="1.89406705"><ele></ele><time>2014-6-30T10:36:13Z</time></trkpt>
<trkpt lat="48.82615662" lon="1.89425302"><ele></ele><time>2014-6-30T10:36:16Z</time></trkpt>
<trkpt lat="48.82598495" lon="1.89430904"><ele></ele><time>2014-6-30T10:36:19Z</time></trkpt>
<trkpt lat="48.82576752" lon="1.89413595"><ele></ele><time>2014-6-30T10:36:22Z</time></trkpt>
<trkpt lat="48.82573318" lon="1.89409196"><ele></ele><time>2014-6-30T10:36:25Z</time></trkpt>
<trkpt lat="48.82556915" lon="1.89387798"><ele></ele><time>2014-6-30T10:36:28Z</time></trkpt>
<trkpt lat="48.82553864" lon="1.89383805"><ele></ele><time>2014-6-30T10:36:31Z</time></trkpt>
<trkpt lat="48.82540894" lon="1.89370203"><ele></ele><time>2014-6-30T10:36:34Z</time></trkpt>
<trkpt lat="48.82518005" lon="1.89346004"><ele></ele><time>2014-6-30T10:36:37Z</time></trkpt>
<trkpt lat="48.82502747" lon="1.89332998"><ele></ele><time>2014-6-30T10:36:40Z</time></trkpt>
<trkpt lat="48.82490540" lon="1.89318299"><ele></ele><time>2014-6-30T10:36:43Z</time></trkpt>
<trkpt lat="48.82476044" lon="1.89311099"><ele></ele><time>2014-6-30T10:36:46Z</time></trkpt>
<trkpt lat="48.82436752" lon="1.89304602"><ele></ele><time>2014-6-30T10:36:49Z</time></trkpt>
<trkpt lat="48.82400513" lon="1.89305401"><ele></ele><time>2014-6-30T10:36:52Z</time></trkpt>
<trkpt lat="48.82360840" lon="1.89312398"><ele></ele><time>2014-6-30T10:36:55Z</time></trkpt>
<trkpt lat="48.82356262" lon="1.89313698"><ele></ele><time>2014-6-30T10:36:58Z</time></trkpt>
<trkpt lat="48.82310104" lon="1.89324296"><ele></ele><time>2014-6-30T10:37:1Z</time></trkpt>
<trkpt lat="48.82300949" lon="1.89339101"><ele></ele><time>2014-6-30T10:37:4Z</time></trkpt>
<trkpt lat="48.82300568" lon="1.89350200"><ele></ele><time>2014-6-30T10:37:7Z</time></trkpt>
<trkpt lat="48.82301331" lon="1.89357805"><ele></ele><time>2014-6-30T10:37:10Z</time></trkpt>
<trkpt lat="48.82301331" lon="1.89359498"><ele></ele><time>2014-6-30T10:37:13Z</time></trkpt>
<trkpt lat="48.82301331" lon="1.89362800"><ele></ele><time>2014-6-30T10:37:16Z</time></trkpt>
<trkpt lat="48.82301331" lon="1.89364696"><ele></ele><time>2014-6-30T10:37:19Z</time></trkpt>
<trkpt lat="48.82301331" lon="1.89375401"><ele></ele><time>2014-6-30T10:37:22Z</time></trkpt>
<trkpt lat="48.82302094" lon="1.89392304"><ele></ele><time>2014-6-30T10:37:25Z</time></trkpt>
<trkpt lat="48.82302856" lon="1.89407897"><ele></ele><time>2014-6-30T10:37:28Z</time></trkpt>
<trkpt lat="48.82301712" lon="1.89429998"><ele></ele><time>2014-6-30T10:37:31Z</time></trkpt>
<trkpt lat="48.82301331" lon="1.89432299"><ele></ele><time>2014-6-30T10:37:34Z</time></trkpt>
<trkpt lat="48.82300186" lon="1.89439201"><ele></ele><time>2014-6-30T10:37:37Z</time></trkpt>
<trkpt lat="48.82299042" lon="1.89445996"><ele></ele><time>2014-6-30T10:37:40Z</time></trkpt>
<trkpt lat="48.82298660" lon="1.89448905"><ele></ele><time>2014-6-30T10:37:43Z</time></trkpt>
<trkpt lat="48.82297134" lon="1.89454806"><ele></ele><time>2014-6-30T10:37:46Z</time></trkpt>
<trkpt lat="48.82295227" lon="1.89461994"><ele></ele><time>2014-6-30T10:37:49Z</time></trkpt>
<trkpt lat="48.82293701" lon="1.89465106"><ele></ele><time>2014-6-30T10:37:52Z</time></trkpt>
<trkpt lat="48.82290649" lon="1.89470398"><ele></ele><time>2014-6-30T10:37:55Z</time></trkpt>
<trkpt lat="48.82288742" lon="1.89472306"><ele></ele><time>2014-6-30T10:37:58Z</time></trkpt>
<trkpt lat="48.82286072" lon="1.89478195"><ele></ele><time>2014-6-30T10:38:1Z</time></trkpt>
<trkpt lat="48.82284927" lon="1.89487302"><ele></ele><time>2014-6-30T10:38:4Z</time></trkpt>
<trkpt lat="48.82284927" lon="1.89494896"><ele></ele><time>2014-6-30T10:38:7Z</time></trkpt>
<trkpt lat="48.82284927" lon="1.89498496"><ele></ele><time>2014-6-30T10:38:10Z</time></trkpt>
<trkpt lat="48.82285309" lon="1.89499700"><ele></ele><time>2014-6-30T10:38:13Z</time></trkpt>
<trkpt lat="48.82285309" lon="1.89501297"><ele></ele><time>2014-6-30T10:38:16Z</time></trkpt>
<trkpt lat="48.82286072" lon="1.89506602"><ele></ele><time>2014-6-30T10:38:19Z</time></trkpt>
<trkpt lat="48.82275009" lon="1.89557505"><ele></ele><time>2014-6-30T10:38:22Z</time></trkpt>
<trkpt lat="48.82272720" lon="1.89566398"><ele></ele><time>2014-6-30T10:38:25Z</time></trkpt>
<trkpt lat="48.82253647" lon="1.89588201"><ele></ele><time>2014-6-30T10:38:28Z</time></trkpt>
<trkpt lat="48.82247543" lon="1.89599895"><ele></ele><time>2014-6-30T10:38:31Z</time></trkpt>
<trkpt lat="48.82238388" lon="1.89615500"><ele></ele><time>2014-6-30T10:38:34Z</time></trkpt>
<trkpt lat="48.82210922" lon="1.89634705"><ele></ele><time>2014-6-30T10:38:37Z</time></trkpt>
<trkpt lat="48.82197571" lon="1.89654398"><ele></ele><time>2014-6-30T10:38:40Z</time></trkpt>
<trkpt lat="48.82191086" lon="1.89669597"><ele></ele><time>2014-6-30T10:38:43Z</time></trkpt>
<trkpt lat="48.82188034" lon="1.89698100"><ele></ele><time>2014-6-30T10:38:46Z</time></trkpt>
<trkpt lat="48.82184219" lon="1.89750099"><ele></ele><time>2014-6-30T10:38:49Z</time></trkpt>
<trkpt lat="48.82185745" lon="1.89768195"><ele></ele><time>2014-6-30T10:38:52Z</time></trkpt>
<trkpt lat="48.82189560" lon="1.89784706"><ele></ele><time>2014-6-30T10:38:55Z</time></trkpt>
<trkpt lat="48.82190323" lon="1.89788795"><ele></ele><time>2014-6-30T10:38:58Z</time></trkpt>
<trkpt lat="48.82157516" lon="1.89802206"><ele></ele><time>2014-6-30T10:39:1Z</time></trkpt>
<trkpt lat="48.82155609" lon="1.89804304"><ele></ele><time>2014-6-30T10:39:4Z</time></trkpt>
<trkpt lat="48.82144928" lon="1.89802301"><ele></ele><time>2014-6-30T10:39:7Z</time></trkpt>
<trkpt lat="48.82109451" lon="1.89784205"><ele></ele><time>2014-6-30T10:39:10Z</time></trkpt>
<trkpt lat="48.82082748" lon="1.89745200"><ele></ele><time>2014-6-30T10:39:13Z</time></trkpt>
<trkpt lat="48.82062531" lon="1.89693499"><ele></ele><time>2014-6-30T10:39:16Z</time></trkpt>
<trkpt lat="48.82049561" lon="1.89659095"><ele></ele><time>2014-6-30T10:39:19Z</time></trkpt>
<trkpt lat="48.82030106" lon="1.89620602"><ele></ele><time>2014-6-30T10:39:22Z</time></trkpt>
<trkpt lat="48.82012177" lon="1.89603496"><ele></ele><time>2014-6-30T10:39:25Z</time></trkpt>
<trkpt lat="48.81973648" lon="1.89585900"><ele></ele><time>2014-6-30T10:39:28Z</time></trkpt>
<trkpt lat="48.81969833" lon="1.89576602"><ele></ele><time>2014-6-30T10:39:31Z</time></trkpt>
<trkpt lat="48.81970596" lon="1.89566600"><ele></ele><time>2014-6-30T10:39:34Z</time></trkpt>
<trkpt lat="48.81973267" lon="1.89563894"><ele></ele><time>2014-6-30T10:39:37Z</time></trkpt>
<trkpt lat="48.81973648" lon="1.89558601"><ele></ele><time>2014-6-30T10:39:40Z</time></trkpt>
<trkpt lat="48.81973648" lon="1.89556706"><ele></ele><time>2014-6-30T10:39:43Z</time></trkpt>
<trkpt lat="48.81975555" lon="1.89554298"><ele></ele><time>2014-6-30T10:39:46Z</time></trkpt>
<trkpt lat="48.81977081" lon="1.89553404"><ele></ele><time>2014-6-30T10:39:49Z</time></trkpt>
<trkpt lat="48.81977844" lon="1.89556301"><ele></ele><time>2014-6-30T10:39:52Z</time></trkpt>
<trkpt lat="48.81983566" lon="1.89550900"><ele></ele><time>2014-6-30T10:39:55Z</time></trkpt>
<trkpt lat="48.81983948" lon="1.89551699"><ele></ele><time>2014-6-30T10:39:58Z</time></trkpt>
<trkpt lat="48.81984711" lon="1.89553702"><ele></ele><time>2014-6-30T10:40:1Z</time></trkpt>
<trkpt lat="48.81982803" lon="1.89554000"><ele></ele><time>2014-6-30T10:40:4Z</time></trkpt>
<trkpt lat="48.81980896" lon="1.89555001"><ele></ele><time>2014-6-30T10:40:7Z</time></trkpt>
<trkpt lat="48.81959152" lon="1.89557397"><ele></ele><time>2014-6-30T10:40:10Z</time></trkpt>
<trkpt lat="48.81934738" lon="1.89550304"><ele></ele><time>2014-6-30T10:40:13Z</time></trkpt>
<trkpt lat="48.81886292" lon="1.89534605"><ele></ele><time>2014-6-30T10:40:16Z</time></trkpt>
<trkpt lat="48.81849289" lon="1.89510000"><ele></ele><time>2014-6-30T10:40:19Z</time></trkpt>
<trkpt lat="48.81839371" lon="1.89498305"><ele></ele><time>2014-6-30T10:40:22Z</time></trkpt>
<trkpt lat="48.81825638" lon="1.89473104"><ele></ele><time>2014-6-30T10:40:25Z</time></trkpt>
<trkpt lat="48.81810760" lon="1.89439702"><ele></ele><time>2014-6-30T10:40:28Z</time></trkpt>
<trkpt lat="48.81805038" lon="1.89425600"><ele></ele><time>2014-6-30T10:40:31Z</time></trkpt>
<trkpt lat="48.81789780" lon="1.89392996"><ele></ele><time>2014-6-30T10:40:34Z</time></trkpt>
<trkpt lat="48.81779861" lon="1.89373398"><ele></ele><time>2014-6-30T10:40:37Z</time></trkpt>
<trkpt lat="48.81778336" lon="1.89369500"><ele></ele><time>2014-6-30T10:40:40Z</time></trkpt>
<trkpt lat="48.81776810" lon="1.89366698"><ele></ele><time>2014-6-30T10:40:43Z</time></trkpt>
<trkpt lat="48.81770325" lon="1.89352596"><ele></ele><time>2014-6-30T10:40:46Z</time></trkpt>
<trkpt lat="48.81747055" lon="1.89295304"><ele></ele><time>2014-6-30T10:40:49Z</time></trkpt>
<trkpt lat="48.81738663" lon="1.89277506"><ele></ele><time>2014-6-30T10:40:52Z</time></trkpt>
<trkpt lat="48.81733704" lon="1.89263999"><ele></ele><time>2014-6-30T10:40:55Z</time></trkpt>
<trkpt lat="48.81711578" lon="1.89216197"><ele></ele><time>2014-6-30T10:40:58Z</time></trkpt>
<trkpt lat="48.81700897" lon="1.89189601"><ele></ele><time>2014-6-30T10:41:1Z</time></trkpt>
<trkpt lat="48.81713867" lon="1.89178002"><ele></ele><time>2014-6-30T10:41:4Z</time></trkpt>
<trkpt lat="48.81740189" lon="1.89161098"><ele></ele><time>2014-6-30T10:41:7Z</time></trkpt>
<trkpt lat="48.81779480" lon="1.89138198"><ele></ele><time>2014-6-30T10:41:10Z</time></trkpt>
<trkpt lat="48.81788254" lon="1.89108205"><ele></ele><time>2014-6-30T10:41:13Z</time></trkpt>
<trkpt lat="48.81785583" lon="1.89097798"><ele></ele><time>2014-6-30T10:41:16Z</time></trkpt>
<trkpt lat="48.81767654" lon="1.89038706"><ele></ele><time>2014-6-30T10:41:19Z</time></trkpt>
<trkpt lat="48.81765366" lon="1.89019704"><ele></ele><time>2014-6-30T10:41:22Z</time></trkpt>
<trkpt lat="48.81755829" lon="1.88986194"><ele></ele><time>2014-6-30T10:41:25Z</time></trkpt>
<trkpt lat="48.81747055" lon="1.88983202"><ele></ele><time>2014-6-30T10:41:28Z</time></trkpt>
<trkpt lat="48.81745148" lon="1.88985896"><ele></ele><time>2014-6-30T10:41:31Z</time></trkpt>
<trkpt lat="48.81727600" lon="1.89021599"><ele></ele><time>2014-6-30T10:41:34Z</time></trkpt>
<trkpt lat="48.81723404" lon="1.89033103"><ele></ele><time>2014-6-30T10:41:37Z</time></trkpt>
<trkpt lat="48.81716919" lon="1.89039004"><ele></ele><time>2014-6-30T10:41:40Z</time></trkpt>
<trkpt lat="48.81700516" lon="1.89050901"><ele></ele><time>2014-6-30T10:41:43Z</time></trkpt>
<trkpt lat="48.81694794" lon="1.89053905"><ele></ele><time>2014-6-30T10:41:46Z</time></trkpt>
<trkpt lat="48.81688690" lon="1.89060605"><ele></ele><time>2014-6-30T10:41:49Z</time></trkpt>
<trkpt lat="48.81648254" lon="1.89099097"><ele></ele><time>2014-6-30T10:41:52Z</time></trkpt>
<trkpt lat="48.81625748" lon="1.89138401"><ele></ele><time>2014-6-30T10:41:55Z</time></trkpt>
<trkpt lat="48.81624985" lon="1.89142299"><ele></ele><time>2014-6-30T10:41:58Z</time></trkpt>
<trkpt lat="48.81624603" lon="1.89153600"><ele></ele><time>2014-6-30T10:42:1Z</time></trkpt>
<trkpt lat="48.81624222" lon="1.89157796"><ele></ele><time>2014-6-30T10:42:4Z</time></trkpt>
<trkpt lat="48.81618881" lon="1.89186895"><ele></ele><time>2014-6-30T10:42:7Z</time></trkpt>
<trkpt lat="48.81612778" lon="1.89242601"><ele></ele><time>2014-6-30T10:42:10Z</time></trkpt>
<trkpt lat="48.81612396" lon="1.89271796"><ele></ele><time>2014-6-30T10:42:13Z</time></trkpt>
<trkpt lat="48.81613922" lon="1.89331901"><ele></ele><time>2014-6-30T10:42:16Z</time></trkpt>
<trkpt lat="48.81608963" lon="1.89364398"><ele></ele><time>2014-6-30T10:42:19Z</time></trkpt>
<trkpt lat="48.81601334" lon="1.89403498"><ele></ele><time>2014-6-30T10:42:22Z</time></trkpt>
<trkpt lat="48.81600571" lon="1.89409804"><ele></ele><time>2014-6-30T10:42:25Z</time></trkpt>
<trkpt lat="48.81598282" lon="1.89422500"><ele></ele><time>2014-6-30T10:42:28Z</time></trkpt>
<trkpt lat="48.81582260" lon="1.89438498"><ele></ele><time>2014-6-30T10:42:31Z</time></trkpt>
<trkpt lat="48.81563187" lon="1.89453995"><ele></ele><time>2014-6-30T10:42:34Z</time></trkpt>
<trkpt lat="48.81538773" lon="1.89470696"><ele></ele><time>2014-6-30T10:42:37Z</time></trkpt>
<trkpt lat="48.81529617" lon="1.89476204"><ele></ele><time>2014-6-30T10:42:40Z</time></trkpt>
<trkpt lat="48.81521988" lon="1.89475203"><ele></ele><time>2014-6-30T10:42:43Z</time></trkpt>
<trkpt lat="48.81518555" lon="1.89466906"><ele></ele><time>2014-6-30T10:42:46Z</time></trkpt>
<trkpt lat="48.81507492" lon="1.89442098"><ele></ele><time>2014-6-30T10:42:49Z</time></trkpt>
<trkpt lat="48.81496048" lon="1.89418805"><ele></ele><time>2014-6-30T10:42:52Z</time></trkpt>
<trkpt lat="48.81474686" lon="1.89368200"><ele></ele><time>2014-6-30T10:42:55Z</time></trkpt>
<trkpt lat="48.81471634" lon="1.89362204"><ele></ele><time>2014-6-30T10:42:58Z</time></trkpt>
<trkpt lat="48.81448746" lon="1.89356995"><ele></ele><time>2014-6-30T10:43:1Z</time></trkpt>
<trkpt lat="48.81437302" lon="1.89369094"><ele></ele><time>2014-6-30T10:43:4Z</time></trkpt>
<trkpt lat="48.81431580" lon="1.89375103"><ele></ele><time>2014-6-30T10:43:7Z</time></trkpt>
<trkpt lat="48.81394196" lon="1.89409399"><ele></ele><time>2014-6-30T10:43:10Z</time></trkpt>
<trkpt lat="48.81355286" lon="1.89396703"><ele></ele><time>2014-6-30T10:43:13Z</time></trkpt>
<trkpt lat="48.81352234" lon="1.89387000"><ele></ele><time>2014-6-30T10:43:16Z</time></trkpt>
<trkpt lat="48.81339264" lon="1.89345396"><ele></ele><time>2014-6-30T10:43:19Z</time></trkpt>
<trkpt lat="48.81325912" lon="1.89315903"><ele></ele><time>2014-6-30T10:43:22Z</time></trkpt>
<trkpt lat="48.81290817" lon="1.89261997"><ele></ele><time>2014-6-30T10:43:25Z</time></trkpt>
<trkpt lat="48.81270981" lon="1.89237595"><ele></ele><time>2014-6-30T10:43:28Z</time></trkpt>
<trkpt lat="48.81254196" lon="1.89228201"><ele></ele><time>2014-6-30T10:43:31Z</time></trkpt>
<trkpt lat="48.81245041" lon="1.89240897"><ele></ele><time>2014-6-30T10:43:34Z</time></trkpt>
<trkpt lat="48.81237411" lon="1.89274204"><ele></ele><time>2014-6-30T10:43:37Z</time></trkpt>
<trkpt lat="48.81234741" lon="1.89283001"><ele></ele><time>2014-6-30T10:43:40Z</time></trkpt>
<trkpt lat="48.81233978" lon="1.89287305"><ele></ele><time>2014-6-30T10:43:43Z</time></trkpt>
<trkpt lat="48.81229782" lon="1.89315701"><ele></ele><time>2014-6-30T10:43:46Z</time></trkpt>
<trkpt lat="48.81225967" lon="1.89336503"><ele></ele><time>2014-6-30T10:43:49Z</time></trkpt>
<trkpt lat="48.81220627" lon="1.89353597"><ele></ele><time>2014-6-30T10:43:52Z</time></trkpt>
<trkpt lat="48.81219482" lon="1.89356196"><ele></ele><time>2014-6-30T10:43:55Z</time></trkpt>
<trkpt lat="48.81211090" lon="1.89378500"><ele></ele><time>2014-6-30T10:43:58Z</time></trkpt>
<trkpt lat="48.81206894" lon="1.89391005"><ele></ele><time>2014-6-30T10:44:1Z</time></trkpt>
<trkpt lat="48.81197357" lon="1.89415300"><ele></ele><time>2014-6-30T10:44:4Z</time></trkpt>
<trkpt lat="48.81182480" lon="1.89458203"><ele></ele><time>2014-6-30T10:44:7Z</time></trkpt>
<trkpt lat="48.81186295" lon="1.89515805"><ele></ele><time>2014-6-30T10:44:10Z</time></trkpt>
<trkpt lat="48.81197739" lon="1.89568400"><ele></ele><time>2014-6-30T10:44:13Z</time></trkpt>
<trkpt lat="48.81199646" lon="1.89585698"><ele></ele><time>2014-6-30T10:44:16Z</time></trkpt>
<trkpt lat="48.81189728" lon="1.89591897"><ele></ele><time>2014-6-30T10:44:19Z</time></trkpt>
<trkpt lat="48.81145477" lon="1.89604402"><ele></ele><time>2014-6-30T10:44:22Z</time></trkpt>
<trkpt lat="48.81114578" lon="1.89607799"><ele></ele><time>2014-6-30T10:44:25Z</time></trkpt>
<trkpt lat="48.81106567" lon="1.89609003"><ele></ele><time>2014-6-30T10:44:28Z</time></trkpt>
<trkpt lat="48.81098557" lon="1.89610803"><ele></ele><time>2014-6-30T10:44:31Z</time></trkpt>
<trkpt lat="48.81069946" lon="1.89634097"><ele></ele><time>2014-6-30T10:44:34Z</time></trkpt>
<trkpt lat="48.81058884" lon="1.89655399"><ele></ele><time>2014-6-30T10:44:37Z</time></trkpt>
<trkpt lat="48.81037521" lon="1.89703906"><ele></ele><time>2014-6-30T10:44:40Z</time></trkpt>
<trkpt lat="48.81026459" lon="1.89729202"><ele></ele><time>2014-6-30T10:44:43Z</time></trkpt>
<trkpt lat="48.81016922" lon="1.89755905"><ele></ele><time>2014-6-30T10:44:46Z</time></trkpt>
<trkpt lat="48.80995560" lon="1.89808297"><ele></ele><time>2014-6-30T10:44:49Z</time></trkpt>
<trkpt lat="48.80990219" lon="1.89821005"><ele></ele><time>2014-6-30T10:44:52Z</time></trkpt>
<trkpt lat="48.80979538" lon="1.89846396"><ele></ele><time>2014-6-30T10:44:55Z</time></trkpt>
<trkpt lat="48.80969238" lon="1.89886999"><ele></ele><time>2014-6-30T10:44:58Z</time></trkpt>
<trkpt lat="48.80966187" lon="1.89915299"><ele></ele><time>2014-6-30T10:45:1Z</time></trkpt>
<trkpt lat="48.80965042" lon="1.89943194"><ele></ele><time>2014-6-30T10:45:4Z</time></trkpt>
<trkpt lat="48.80962372" lon="1.89983499"><ele></ele><time>2014-6-30T10:45:7Z</time></trkpt>
<trkpt lat="48.80958557" lon="1.90009296"><ele></ele><time>2014-6-30T10:45:10Z</time></trkpt>
<trkpt lat="48.80937195" lon="1.90054595"><ele></ele><time>2014-6-30T10:45:13Z</time></trkpt>
<trkpt lat="48.80926514" lon="1.90066004"><ele></ele><time>2014-6-30T10:45:16Z</time></trkpt>
<trkpt lat="48.80923843" lon="1.90097296"><ele></ele><time>2014-6-30T10:45:19Z</time></trkpt>
<trkpt lat="48.80946350" lon="1.90117204"><ele></ele><time>2014-6-30T10:45:22Z</time></trkpt>
<trkpt lat="48.80981064" lon="1.90138996"><ele></ele><time>2014-6-30T10:45:25Z</time></trkpt>
<trkpt lat="48.81001282" lon="1.90150702"><ele></ele><time>2014-6-30T10:45:28Z</time></trkpt>
<trkpt lat="48.81001663" lon="1.90152597"><ele></ele><time>2014-6-30T10:45:31Z</time></trkpt>
<trkpt lat="48.81000519" lon="1.90155804"><ele></ele><time>2014-6-30T10:45:34Z</time></trkpt>
<trkpt lat="48.81000137" lon="1.90155804"><ele></ele><time>2014-6-30T10:45:37Z</time></trkpt>
<trkpt lat="48.80992889" lon="1.90155995"><ele></ele><time>2014-6-30T10:45:40Z</time></trkpt>
<trkpt lat="48.80989456" lon="1.90158200"><ele></ele><time>2014-6-30T10:45:43Z</time></trkpt>
<trkpt lat="48.80985260" lon="1.90161502"><ele></ele><time>2014-6-30T10:45:46Z</time></trkpt>
<trkpt lat="48.80981445" lon="1.90166795"><ele></ele><time>2014-6-30T10:45:49Z</time></trkpt>
<trkpt lat="48.81030655" lon="1.90175998"><ele></ele><time>2014-6-30T10:45:52Z</time></trkpt>
<trkpt lat="48.81040192" lon="1.90180600"><ele></ele><time>2014-6-30T10:45:55Z</time></trkpt>
<trkpt lat="48.81043625" lon="1.90193999"><ele></ele><time>2014-6-30T10:45:58Z</time></trkpt>
<trkpt lat="48.81046295" lon="1.90201902"><ele></ele><time>2014-6-30T10:46:1Z</time></trkpt>
<trkpt lat="48.81048203" lon="1.90207601"><ele></ele><time>2014-6-30T10:46:4Z</time></trkpt>
<trkpt lat="48.81051636" lon="1.90213501"><ele></ele><time>2014-6-30T10:46:7Z</time></trkpt>
<trkpt lat="48.81053162" lon="1.90216398"><ele></ele><time>2014-6-30T10:46:10Z</time></trkpt>
<trkpt lat="48.81055450" lon="1.90222096"><ele></ele><time>2014-6-30T10:46:13Z</time></trkpt>
<trkpt lat="48.81061172" lon="1.90233302"><ele></ele><time>2014-6-30T10:46:16Z</time></trkpt>
<trkpt lat="48.81061554" lon="1.90234399"><ele></ele><time>2014-6-30T10:46:19Z</time></trkpt>
<trkpt lat="48.81062317" lon="1.90239596"><ele></ele><time>2014-6-30T10:46:22Z</time></trkpt>
<trkpt lat="48.81059647" lon="1.90260506"><ele></ele><time>2014-6-30T10:46:25Z</time></trkpt>
<trkpt lat="48.81059265" lon="1.90279198"><ele></ele><time>2014-6-30T10:46:28Z</time></trkpt>
<trkpt lat="48.81059647" lon="1.90287101"><ele></ele><time>2014-6-30T10:46:31Z</time></trkpt>
<trkpt lat="48.81058884" lon="1.90290201"><ele></ele><time>2014-6-30T10:46:34Z</time></trkpt>
<trkpt lat="48.81057739" lon="1.90304399"><ele></ele><time>2014-6-30T10:46:37Z</time></trkpt>
<trkpt lat="48.81057358" lon="1.90306795"><ele></ele><time>2014-6-30T10:46:40Z</time></trkpt>
<trkpt lat="48.81056976" lon="1.90311396"><ele></ele><time>2014-6-30T10:46:43Z</time></trkpt>
<trkpt lat="48.81055450" lon="1.90316796"><ele></ele><time>2014-6-30T10:46:46Z</time></trkpt>
<trkpt lat="48.81051254" lon="1.90337205"><ele></ele><time>2014-6-30T10:46:49Z</time></trkpt>
<trkpt lat="48.81051636" lon="1.90339506"><ele></ele><time>2014-6-30T10:46:52Z</time></trkpt>
<trkpt lat="48.81048203" lon="1.90349102"><ele></ele><time>2014-6-30T10:46:55Z</time></trkpt>
<trkpt lat="48.81044006" lon="1.90361404"><ele></ele><time>2014-6-30T10:46:58Z</time></trkpt>
<trkpt lat="48.81038284" lon="1.90366304"><ele></ele><time>2014-6-30T10:47:1Z</time></trkpt>
<trkpt lat="48.81036377" lon="1.90368795"><ele></ele><time>2014-6-30T10:47:4Z</time></trkpt>
<trkpt lat="48.81034088" lon="1.90382004"><ele></ele><time>2014-6-30T10:47:7Z</time></trkpt>
<trkpt lat="48.81033707" lon="1.90383303"><ele></ele><time>2014-6-30T10:47:10Z</time></trkpt>
<trkpt lat="48.81032181" lon="1.90389395"><ele></ele><time>2014-6-30T10:47:13Z</time></trkpt>
<trkpt lat="48.81029129" lon="1.90427101"><ele></ele><time>2014-6-30T10:47:16Z</time></trkpt>
<trkpt lat="48.81030655" lon="1.90435600"><ele></ele><time>2014-6-30T10:47:19Z</time></trkpt>
<trkpt lat="48.81029129" lon="1.90442300"><ele></ele><time>2014-6-30T10:47:22Z</time></trkpt>
<trkpt lat="48.81032562" lon="1.90465200"><ele></ele><time>2014-6-30T10:47:25Z</time></trkpt>
<trkpt lat="48.81035995" lon="1.90474403"><ele></ele><time>2014-6-30T10:47:28Z</time></trkpt>
<trkpt lat="48.81039429" lon="1.90482795"><ele></ele><time>2014-6-30T10:47:31Z</time></trkpt>
<trkpt lat="48.81048584" lon="1.90515399"><ele></ele><time>2014-6-30T10:47:34Z</time></trkpt>
<trkpt lat="48.81048584" lon="1.90523803"><ele></ele><time>2014-6-30T10:47:37Z</time></trkpt>
<trkpt lat="48.81053925" lon="1.90538895"><ele></ele><time>2014-6-30T10:47:40Z</time></trkpt>
<trkpt lat="48.81056595" lon="1.90540504"><ele></ele><time>2014-6-30T10:47:43Z</time></trkpt>
<trkpt lat="48.81056213" lon="1.90541601"><ele></ele><time>2014-6-30T10:47:46Z</time></trkpt>
<trkpt lat="48.81056213" lon="1.90541601"><ele></ele><time>2014-6-30T10:47:49Z</time></trkpt>
<trkpt lat="48.81057358" lon="1.90543699"><ele></ele><time>2014-6-30T10:47:52Z</time></trkpt>
<trkpt lat="48.81062317" lon="1.90555096"><ele></ele><time>2014-6-30T10:47:55Z</time></trkpt>
<trkpt lat="48.81066513" lon="1.90566003"><ele></ele><time>2014-6-30T10:47:58Z</time></trkpt>
<trkpt lat="48.81084442" lon="1.90617394"><ele></ele><time>2014-6-30T10:48:1Z</time></trkpt>
<trkpt lat="48.81090927" lon="1.90655100"><ele></ele><time>2014-6-30T10:48:4Z</time></trkpt>
<trkpt lat="48.81056976" lon="1.90688503"><ele></ele><time>2014-6-30T10:48:7Z</time></trkpt>
<trkpt lat="48.81024933" lon="1.90718699"><ele></ele><time>2014-6-30T10:48:10Z</time></trkpt>
<trkpt lat="48.80991364" lon="1.90752006"><ele></ele><time>2014-6-30T10:48:13Z</time></trkpt>
<trkpt lat="48.80962372" lon="1.90781403"><ele></ele><time>2014-6-30T10:48:16Z</time></trkpt>
<trkpt lat="48.80940247" lon="1.90802300"><ele></ele><time>2014-6-30T10:48:19Z</time></trkpt>
<trkpt lat="48.80929565" lon="1.90797698"><ele></ele><time>2014-6-30T10:48:22Z</time></trkpt>
<trkpt lat="48.80932999" lon="1.90749896"><ele></ele><time>2014-6-30T10:48:25Z</time></trkpt>
<trkpt lat="48.80938339" lon="1.90716505"><ele></ele><time>2014-6-30T10:48:28Z</time></trkpt>
<trkpt lat="48.80916977" lon="1.90678704"><ele></ele><time>2014-6-30T10:48:31Z</time></trkpt>
<trkpt lat="48.80904388" lon="1.90653205"><ele></ele><time>2014-6-30T10:48:34Z</time></trkpt>
<trkpt lat="48.80886078" lon="1.90611804"><ele></ele><time>2014-6-30T10:48:37Z</time></trkpt>
<trkpt lat="48.80878067" lon="1.90586901"><ele></ele><time>2014-6-30T10:48:40Z</time></trkpt>
<trkpt lat="48.80861664" lon="1.90533698"><ele></ele><time>2014-6-30T10:48:43Z</time></trkpt>
<trkpt lat="48.80847168" lon="1.90492499"><ele></ele><time>2014-6-30T10:48:46Z</time></trkpt>
<trkpt lat="48.80836487" lon="1.90466905"><ele></ele><time>2014-6-30T10:48:49Z</time></trkpt>
<trkpt lat="48.80834198" lon="1.90450501"><ele></ele><time>2014-6-30T10:48:52Z</time></trkpt>
<trkpt lat="48.80831909" lon="1.90436196"><ele></ele><time>2014-6-30T10:48:55Z</time></trkpt>
<trkpt lat="48.80825043" lon="1.90430999"><ele></ele><time>2014-6-30T10:48:58Z</time></trkpt>
<trkpt lat="48.80818558" lon="1.90418899"><ele></ele><time>2014-6-30T10:49:1Z</time></trkpt>
<trkpt lat="48.80810928" lon="1.90397704"><ele></ele><time>2014-6-30T10:49:4Z</time></trkpt>
<trkpt lat="48.80805206" lon="1.90392101"><ele></ele><time>2014-6-30T10:49:7Z</time></trkpt>
<trkpt lat="48.80783844" lon="1.90413797"><ele></ele><time>2014-6-30T10:49:10Z</time></trkpt>
<trkpt lat="48.80763626" lon="1.90438199"><ele></ele><time>2014-6-30T10:49:13Z</time></trkpt>
<trkpt lat="48.80739975" lon="1.90468800"><ele></ele><time>2014-6-30T10:49:16Z</time></trkpt>
<trkpt lat="48.80731583" lon="1.90487301"><ele></ele><time>2014-6-30T10:49:19Z</time></trkpt>
<trkpt lat="48.80725861" lon="1.90506899"><ele></ele><time>2014-6-30T10:49:22Z</time></trkpt>
<trkpt lat="48.80715179" lon="1.90535605"><ele></ele><time>2014-6-30T10:49:25Z</time></trkpt>
<trkpt lat="48.80682373" lon="1.90585101"><ele></ele><time>2014-6-30T10:49:28Z</time></trkpt>
<trkpt lat="48.80669403" lon="1.90610695"><ele></ele><time>2014-6-30T10:49:31Z</time></trkpt>
<trkpt lat="48.80643463" lon="1.90644705"><ele></ele><time>2014-6-30T10:49:34Z</time></trkpt>
<trkpt lat="48.80627823" lon="1.90627003"><ele></ele><time>2014-6-30T10:49:37Z</time></trkpt>
<trkpt lat="48.80609131" lon="1.90596902"><ele></ele><time>2014-6-30T10:49:40Z</time></trkpt>
<trkpt lat="48.80580902" lon="1.90550601"><ele></ele><time>2014-6-30T10:49:43Z</time></trkpt>
<trkpt lat="48.80562592" lon="1.90520799"><ele></ele><time>2014-6-30T10:49:46Z</time></trkpt>
<trkpt lat="48.80542755" lon="1.90501201"><ele></ele><time>2014-6-30T10:49:49Z</time></trkpt>
<trkpt lat="48.80517960" lon="1.90488303"><ele></ele><time>2014-6-30T10:49:52Z</time></trkpt>
<trkpt lat="48.80507278" lon="1.90503502"><ele></ele><time>2014-6-30T10:49:55Z</time></trkpt>
<trkpt lat="48.80487823" lon="1.90552402"><ele></ele><time>2014-6-30T10:49:58Z</time></trkpt>
<trkpt lat="48.80473328" lon="1.90590596"><ele></ele><time>2014-6-30T10:50:1Z</time></trkpt>
<trkpt lat="48.80482483" lon="1.90595603"><ele></ele><time>2014-6-30T10:50:4Z</time></trkpt>
<trkpt lat="48.80501938" lon="1.90623701"><ele></ele><time>2014-6-30T10:50:7Z</time></trkpt>
<trkpt lat="48.80530930" lon="1.90660906"><ele></ele><time>2014-6-30T10:50:10Z</time></trkpt>
<trkpt lat="48.80541229" lon="1.90678895"><ele></ele><time>2014-6-30T10:50:13Z</time></trkpt>
<trkpt lat="48.80550385" lon="1.90690398"><ele></ele><time>2014-6-30T10:50:16Z</time></trkpt>
<trkpt lat="48.80561447" lon="1.90726495"><ele></ele><time>2014-6-30T10:50:19Z</time></trkpt>
<trkpt lat="48.80562973" lon="1.90737998"><ele></ele><time>2014-6-30T10:50:22Z</time></trkpt>
<trkpt lat="48.80563354" lon="1.90742195"><ele></ele><time>2014-6-30T10:50:25Z</time></trkpt>
<trkpt lat="48.80567551" lon="1.90755200"><ele></ele><time>2014-6-30T10:50:28Z</time></trkpt>
<trkpt lat="48.80571365" lon="1.90765297"><ele></ele><time>2014-6-30T10:50:31Z</time></trkpt>
<trkpt lat="48.80572891" lon="1.90769303"><ele></ele><time>2014-6-30T10:50:34Z</time></trkpt>
<trkpt lat="48.80580139" lon="1.90790403"><ele></ele><time>2014-6-30T10:50:37Z</time></trkpt>
<trkpt lat="48.80581284" lon="1.90794599"><ele></ele><time>2014-6-30T10:50:40Z</time></trkpt>
<trkpt lat="48.80582428" lon="1.90801001"><ele></ele><time>2014-6-30T10:50:43Z</time></trkpt>
<trkpt lat="48.80585098" lon="1.90809798"><ele></ele><time>2014-6-30T10:50:46Z</time></trkpt>
<trkpt lat="48.80588531" lon="1.90817201"><ele></ele><time>2014-6-30T10:50:49Z</time></trkpt>
<trkpt lat="48.80592728" lon="1.90823698"><ele></ele><time>2014-6-30T10:50:52Z</time></trkpt>
<trkpt lat="48.80609131" lon="1.90824997"><ele></ele><time>2014-6-30T10:50:55Z</time></trkpt>
<trkpt lat="48.80617523" lon="1.90816700"><ele></ele><time>2014-6-30T10:50:58Z</time></trkpt>
<trkpt lat="48.80642700" lon="1.90812099"><ele></ele><time>2014-6-30T10:51:1Z</time></trkpt>
<trkpt lat="48.80659866" lon="1.90807295"><ele></ele><time>2014-6-30T10:51:4Z</time></trkpt>
<trkpt lat="48.80680084" lon="1.90807199"><ele></ele><time>2014-6-30T10:51:7Z</time></trkpt>
<trkpt lat="48.80704498" lon="1.90821195"><ele></ele><time>2014-6-30T10:51:10Z</time></trkpt>
<trkpt lat="48.80711746" lon="1.90824199"><ele></ele><time>2014-6-30T10:51:13Z</time></trkpt>
<trkpt lat="48.80715179" lon="1.90826905"><ele></ele><time>2014-6-30T10:51:16Z</time></trkpt>
<trkpt lat="48.80716705" lon="1.90827501"><ele></ele><time>2014-6-30T10:51:19Z</time></trkpt>
<trkpt lat="48.80728149" lon="1.90829396"><ele></ele><time>2014-6-30T10:51:22Z</time></trkpt>
<trkpt lat="48.80736923" lon="1.90831602"><ele></ele><time>2014-6-30T10:51:25Z</time></trkpt>
<trkpt lat="48.80746841" lon="1.90833902"><ele></ele><time>2014-6-30T10:51:28Z</time></trkpt>
<trkpt lat="48.80767059" lon="1.90861905"><ele></ele><time>2014-6-30T10:51:31Z</time></trkpt>
<trkpt lat="48.80777359" lon="1.90877402"><ele></ele><time>2014-6-30T10:51:34Z</time></trkpt>
<trkpt lat="48.80798340" lon="1.90910602"><ele></ele><time>2014-6-30T10:51:37Z</time></trkpt>
<trkpt lat="48.80800629" lon="1.90927005"><ele></ele><time>2014-6-30T10:51:40Z</time></trkpt>
<trkpt lat="48.80770111" lon="1.90922594"><ele></ele><time>2014-6-30T10:51:43Z</time></trkpt>
<trkpt lat="48.80739975" lon="1.90914297"><ele></ele><time>2014-6-30T10:51:46Z</time></trkpt>
<trkpt lat="48.80729294" lon="1.90910697"><ele></ele><time>2014-6-30T10:51:49Z</time></trkpt>
<trkpt lat="48.80719757" lon="1.90909600"><ele></ele><time>2014-6-30T10:51:52Z</time></trkpt>
<trkpt lat="48.80698776" lon="1.90902603"><ele></ele><time>2014-6-30T10:51:55Z</time></trkpt>
<trkpt lat="48.80672455" lon="1.90895498"><ele></ele><time>2014-6-30T10:51:58Z</time></trkpt>
<trkpt lat="48.80621338" lon="1.90872502"><ele></ele><time>2014-6-30T10:52:1Z</time></trkpt>
<trkpt lat="48.80591202" lon="1.90860498"><ele></ele><time>2014-6-30T10:52:4Z</time></trkpt>
<trkpt lat="48.80583572" lon="1.90858400"><ele></ele><time>2014-6-30T10:52:7Z</time></trkpt>
<trkpt lat="48.80565262" lon="1.90841901"><ele></ele><time>2014-6-30T10:52:10Z</time></trkpt>
<trkpt lat="48.80534363" lon="1.90801203"><ele></ele><time>2014-6-30T10:52:13Z</time></trkpt>
<trkpt lat="48.80479813" lon="1.90807104"><ele></ele><time>2014-6-30T10:52:16Z</time></trkpt>
<trkpt lat="48.80439377" lon="1.90835500"><ele></ele><time>2014-6-30T10:52:19Z</time></trkpt>
<trkpt lat="48.80412292" lon="1.90809095"><ele></ele><time>2014-6-30T10:52:22Z</time></trkpt>
<trkpt lat="48.80411148" lon="1.90792704"><ele></ele><time>2014-6-30T10:52:25Z</time></trkpt>
<trkpt lat="48.80414581" lon="1.90731597"><ele></ele><time>2014-6-30T10:52:28Z</time></trkpt>
<trkpt lat="48.80414581" lon="1.90726197"><ele></ele><time>2014-6-30T10:52:31Z</time></trkpt>
<trkpt lat="48.80411148" lon="1.90718102"><ele></ele><time>2014-6-30T10:52:34Z</time></trkpt>
<trkpt lat="48.80406189" lon="1.90718496"><ele></ele><time>2014-6-30T10:52:37Z</time></trkpt>
<trkpt lat="48.80366898" lon="1.90754104"><ele></ele><time>2014-6-30T10:52:40Z</time></trkpt>
<trkpt lat="48.80349731" lon="1.90770996"><ele></ele><time>2014-6-30T10:52:43Z</time></trkpt>
<trkpt lat="48.80313110" lon="1.90824294"><ele></ele><time>2014-6-30T10:52:46Z</time></trkpt>
<trkpt lat="48.80308151" lon="1.90831602"><ele></ele><time>2014-6-30T10:52:49Z</time></trkpt>
<trkpt lat="48.80297852" lon="1.90820801"><ele></ele><time>2014-6-30T10:52:52Z</time></trkpt>
<trkpt lat="48.80268478" lon="1.90774798"><ele></ele><time>2014-6-30T10:52:55Z</time></trkpt>
<trkpt lat="48.80242920" lon="1.90740502"><ele></ele><time>2014-6-30T10:52:58Z</time></trkpt>
<trkpt lat="48.80215836" lon="1.90702999"><ele></ele><time>2014-6-30T10:53:1Z</time></trkpt>
<trkpt lat="48.80188370" lon="1.90662897"><ele></ele><time>2014-6-30T10:53:4Z</time></trkpt>
<trkpt lat="48.80177689" lon="1.90647697"><ele></ele><time>2014-6-30T10:53:7Z</time></trkpt>
<trkpt lat="48.80171204" lon="1.90639997"><ele></ele><time>2014-6-30T10:53:10Z</time></trkpt>
<trkpt lat="48.80156326" lon="1.90625095"><ele></ele><time>2014-6-30T10:53:13Z</time></trkpt>
<trkpt lat="48.80122757" lon="1.90560603"><ele></ele><time>2014-6-30T10:53:16Z</time></trkpt>
<trkpt lat="48.80114746" lon="1.90540695"><ele></ele><time>2014-6-30T10:53:19Z</time></trkpt>
<trkpt lat="48.80096436" lon="1.90491199"><ele></ele><time>2014-6-30T10:53:22Z</time></trkpt>
<trkpt lat="48.80093765" lon="1.90469301"><ele></ele><time>2014-6-30T10:53:25Z</time></trkpt>
<trkpt lat="48.80101776" lon="1.90447998"><ele></ele><time>2014-6-30T10:53:28Z</time></trkpt>
<trkpt lat="48.80108261" lon="1.90420103"><ele></ele><time>2014-6-30T10:53:31Z</time></trkpt>
<trkpt lat="48.80093765" lon="1.90408099"><ele></ele><time>2014-6-30T10:53:34Z</time></trkpt>
<trkpt lat="48.80053711" lon="1.90432405"><ele></ele><time>2014-6-30T10:53:37Z</time></trkpt>
<trkpt lat="48.80033875" lon="1.90436196"><ele></ele><time>2014-6-30T10:53:40Z</time></trkpt>
<trkpt lat="48.80001068" lon="1.90440702"><ele></ele><time>2014-6-30T10:53:43Z</time></trkpt>
<trkpt lat="48.79985428" lon="1.90434802"><ele></ele><time>2014-6-30T10:53:46Z</time></trkpt>
<trkpt lat="48.79948807" lon="1.90453804"><ele></ele><time>2014-6-30T10:53:49Z</time></trkpt>
<trkpt lat="48.79909897" lon="1.90496898"><ele></ele><time>2014-6-30T10:53:52Z</time></trkpt>
<trkpt lat="48.79895020" lon="1.90515399"><ele></ele><time>2014-6-30T10:53:55Z</time></trkpt>
<trkpt lat="48.79861832" lon="1.90551901"><ele></ele><time>2014-6-30T10:53:58Z</time></trkpt>
<trkpt lat="48.79855728" lon="1.90558195"><ele></ele><time>2014-6-30T10:54:1Z</time></trkpt>
<trkpt lat="48.79823685" lon="1.90597498"><ele></ele><time>2014-6-30T10:54:4Z</time></trkpt>
<trkpt lat="48.79798508" lon="1.90639496"><ele></ele><time>2014-6-30T10:54:7Z</time></trkpt>
<trkpt lat="48.79773712" lon="1.90680802"><ele></ele><time>2014-6-30T10:54:10Z</time></trkpt>
<trkpt lat="48.79752350" lon="1.90720606"><ele></ele><time>2014-6-30T10:54:13Z</time></trkpt>
<trkpt lat="48.79728317" lon="1.90779698"><ele></ele><time>2014-6-30T10:54:16Z</time></trkpt>
<trkpt lat="48.79702759" lon="1.90824997"><ele></ele><time>2014-6-30T10:54:19Z</time></trkpt>
<trkpt lat="48.79674149" lon="1.90867603"><ele></ele><time>2014-6-30T10:54:22Z</time></trkpt>
<trkpt lat="48.79645157" lon="1.90906000"><ele></ele><time>2014-6-30T10:54:25Z</time></trkpt>
<trkpt lat="48.79612350" lon="1.90946305"><ele></ele><time>2014-6-30T10:54:28Z</time></trkpt>
<trkpt lat="48.79577637" lon="1.90984499"><ele></ele><time>2014-6-30T10:54:31Z</time></trkpt>
<trkpt lat="48.79566193" lon="1.90995896"><ele></ele><time>2014-6-30T10:54:34Z</time></trkpt>
<trkpt lat="48.79553986" lon="1.91005099"><ele></ele><time>2014-6-30T10:54:37Z</time></trkpt>
<trkpt lat="48.79531479" lon="1.91042495"><ele></ele><time>2014-6-30T10:54:40Z</time></trkpt>
<trkpt lat="48.79526520" lon="1.91061699"><ele></ele><time>2014-6-30T10:54:43Z</time></trkpt>
<trkpt lat="48.79531479" lon="1.91126299"><ele></ele><time>2014-6-30T10:54:46Z</time></trkpt>
<trkpt lat="48.79522324" lon="1.91134799"><ele></ele><time>2014-6-30T10:54:49Z</time></trkpt>
<trkpt lat="48.79511642" lon="1.91126502"><ele></ele><time>2014-6-30T10:54:52Z</time></trkpt>
<trkpt lat="48.79485321" lon="1.91068304"><ele></ele><time>2014-6-30T10:54:55Z</time></trkpt>
<trkpt lat="48.79457474" lon="1.91017997"><ele></ele><time>2014-6-30T10:54:58Z</time></trkpt>
<trkpt lat="48.79431534" lon="1.90959406"><ele></ele><time>2014-6-30T10:55:1Z</time></trkpt>
<trkpt lat="48.79421616" lon="1.90906000"><ele></ele><time>2014-6-30T10:55:4Z</time></trkpt>
<trkpt lat="48.79416275" lon="1.90881205"><ele></ele><time>2014-6-30T10:55:7Z</time></trkpt>
<trkpt lat="48.79396820" lon="1.90832198"><ele></ele><time>2014-6-30T10:55:10Z</time></trkpt>
<trkpt lat="48.79383850" lon="1.90820003"><ele></ele><time>2014-6-30T10:55:13Z</time></trkpt>
<trkpt lat="48.79346848" lon="1.90791905"><ele></ele><time>2014-6-30T10:55:16Z</time></trkpt>
<trkpt lat="48.79312515" lon="1.90766203"><ele></ele><time>2014-6-30T10:55:19Z</time></trkpt>
<trkpt lat="48.79292297" lon="1.90750098"><ele></ele><time>2014-6-30T10:55:22Z</time></trkpt>
<trkpt lat="48.79259491" lon="1.90724897"><ele></ele><time>2014-6-30T10:55:25Z</time></trkpt>
<trkpt lat="48.79227448" lon="1.90700901"><ele></ele><time>2014-6-30T10:55:28Z</time></trkpt>
<trkpt lat="48.79195023" lon="1.90676105"><ele></ele><time>2014-6-30T10:55:31Z</time></trkpt>
<trkpt lat="48.79190826" lon="1.90673900"><ele></ele><time>2014-6-30T10:55:34Z</time></trkpt>
<trkpt lat="48.79165649" lon="1.90654600"><ele></ele><time>2014-6-30T10:55:37Z</time></trkpt>
<trkpt lat="48.79150009" lon="1.90643096"><ele></ele><time>2014-6-30T10:55:40Z</time></trkpt>
<trkpt lat="48.79117584" lon="1.90619099"><ele></ele><time>2014-6-30T10:55:43Z</time></trkpt>
<trkpt lat="48.79084015" lon="1.90594101"><ele></ele><time>2014-6-30T10:55:46Z</time></trkpt>
<trkpt lat="48.79050446" lon="1.90568197"><ele></ele><time>2014-6-30T10:55:49Z</time></trkpt>
<trkpt lat="48.79018021" lon="1.90544796"><ele></ele><time>2014-6-30T10:55:52Z</time></trkpt>
<trkpt lat="48.78984833" lon="1.90518796"><ele></ele><time>2014-6-30T10:55:55Z</time></trkpt>
<trkpt lat="48.78951645" lon="1.90492594"><ele></ele><time>2014-6-30T10:55:58Z</time></trkpt>
<trkpt lat="48.78919983" lon="1.90467501"><ele></ele><time>2014-6-30T10:56:1Z</time></trkpt>
<trkpt lat="48.78887177" lon="1.90441895"><ele></ele><time>2014-6-30T10:56:4Z</time></trkpt>
<trkpt lat="48.78869247" lon="1.90427005"><ele></ele><time>2014-6-30T10:56:7Z</time></trkpt>
<trkpt lat="48.78867340" lon="1.90366495"><ele></ele><time>2014-6-30T10:56:10Z</time></trkpt>
<trkpt lat="48.78868103" lon="1.90309501"><ele></ele><time>2014-6-30T10:56:13Z</time></trkpt>
<trkpt lat="48.78869629" lon="1.90251303"><ele></ele><time>2014-6-30T10:56:16Z</time></trkpt>
<trkpt lat="48.78870773" lon="1.90201795"><ele></ele><time>2014-6-30T10:56:19Z</time></trkpt>
<trkpt lat="48.78862762" lon="1.90182102"><ele></ele><time>2014-6-30T10:56:22Z</time></trkpt>
<trkpt lat="48.78825760" lon="1.90155995"><ele></ele><time>2014-6-30T10:56:25Z</time></trkpt>
<trkpt lat="48.78792953" lon="1.90132201"><ele></ele><time>2014-6-30T10:56:28Z</time></trkpt>
<trkpt lat="48.78758240" lon="1.90107596"><ele></ele><time>2014-6-30T10:56:31Z</time></trkpt>
<trkpt lat="48.78723526" lon="1.90082204"><ele></ele><time>2014-6-30T10:56:34Z</time></trkpt>
<trkpt lat="48.78688812" lon="1.90058196"><ele></ele><time>2014-6-30T10:56:37Z</time></trkpt>
<trkpt lat="48.78654099" lon="1.90033901"><ele></ele><time>2014-6-30T10:56:40Z</time></trkpt>
<trkpt lat="48.78617859" lon="1.90008605"><ele></ele><time>2014-6-30T10:56:43Z</time></trkpt>
<trkpt lat="48.78597260" lon="1.89993894"><ele></ele><time>2014-6-30T10:56:46Z</time></trkpt>
<trkpt lat="48.78557587" lon="1.89964199"><ele></ele><time>2014-6-30T10:56:49Z</time></trkpt>
<trkpt lat="48.78517151" lon="1.89935505"><ele></ele><time>2014-6-30T10:56:52Z</time></trkpt>
<trkpt lat="48.78493881" lon="1.89918602"><ele></ele><time>2014-6-30T10:56:55Z</time></trkpt>
<trkpt lat="48.78458786" lon="1.89893496"><ele></ele><time>2014-6-30T10:56:58Z</time></trkpt>
<trkpt lat="48.78424454" lon="1.89868104"><ele></ele><time>2014-6-30T10:57:1Z</time></trkpt>
<trkpt lat="48.78389740" lon="1.89843094"><ele></ele><time>2014-6-30T10:57:4Z</time></trkpt>
<trkpt lat="48.78355026" lon="1.89818704"><ele></ele><time>2014-6-30T10:57:7Z</time></trkpt>
<trkpt lat="48.78319168" lon="1.89794004"><ele></ele><time>2014-6-30T10:57:10Z</time></trkpt>
<trkpt lat="48.78283310" lon="1.89768696"><ele></ele><time>2014-6-30T10:57:13Z</time></trkpt>
<trkpt lat="48.78247833" lon="1.89743400"><ele></ele><time>2014-6-30T10:57:16Z</time></trkpt>
<trkpt lat="48.78212738" lon="1.89719200"><ele></ele><time>2014-6-30T10:57:19Z</time></trkpt>
<trkpt lat="48.78177643" lon="1.89699805"><ele></ele><time>2014-6-30T10:57:22Z</time></trkpt>
<trkpt lat="48.78142929" lon="1.89682400"><ele></ele><time>2014-6-30T10:57:25Z</time></trkpt>
<trkpt lat="48.78127289" lon="1.89674902"><ele></ele><time>2014-6-30T10:57:28Z</time></trkpt>
<trkpt lat="48.78090668" lon="1.89646304"><ele></ele><time>2014-6-30T10:57:31Z</time></trkpt>
<trkpt lat="48.78080750" lon="1.89637303"><ele></ele><time>2014-6-30T10:57:34Z</time></trkpt>
<trkpt lat="48.78097916" lon="1.89585400"><ele></ele><time>2014-6-30T10:57:37Z</time></trkpt>
<trkpt lat="48.78113174" lon="1.89539099"><ele></ele><time>2014-6-30T10:57:40Z</time></trkpt>
<trkpt lat="48.78128433" lon="1.89484096"><ele></ele><time>2014-6-30T10:57:43Z</time></trkpt>
<trkpt lat="48.78137970" lon="1.89445305"><ele></ele><time>2014-6-30T10:57:46Z</time></trkpt>
<trkpt lat="48.78151321" lon="1.89389396"><ele></ele><time>2014-6-30T10:57:49Z</time></trkpt>
<trkpt lat="48.78160477" lon="1.89346802"><ele></ele><time>2014-6-30T10:57:52Z</time></trkpt>
<trkpt lat="48.78164673" lon="1.89330196"><ele></ele><time>2014-6-30T10:57:55Z</time></trkpt>
<trkpt lat="48.78172302" lon="1.89290404"><ele></ele><time>2014-6-30T10:57:58Z</time></trkpt>
<trkpt lat="48.78182220" lon="1.89234805"><ele></ele><time>2014-6-30T10:58:1Z</time></trkpt>
<trkpt lat="48.78202820" lon="1.89171600"><ele></ele><time>2014-6-30T10:58:4Z</time></trkpt>
<trkpt lat="48.78220367" lon="1.89121199"><ele></ele><time>2014-6-30T10:58:7Z</time></trkpt>
<trkpt lat="48.78234863" lon="1.89091599"><ele></ele><time>2014-6-30T10:58:10Z</time></trkpt>
<trkpt lat="48.78258133" lon="1.89031196"><ele></ele><time>2014-6-30T10:58:13Z</time></trkpt>
<trkpt lat="48.78273392" lon="1.88972294"><ele></ele><time>2014-6-30T10:58:16Z</time></trkpt>
<trkpt lat="48.78290558" lon="1.88913095"><ele></ele><time>2014-6-30T10:58:19Z</time></trkpt>
<trkpt lat="48.78295135" lon="1.88900399"><ele></ele><time>2014-6-30T10:58:22Z</time></trkpt>
<trkpt lat="48.78323364" lon="1.88883901"><ele></ele><time>2014-6-30T10:58:25Z</time></trkpt>
<trkpt lat="48.78358841" lon="1.88861799"><ele></ele><time>2014-6-30T10:58:28Z</time></trkpt>
<trkpt lat="48.78373718" lon="1.88797700"><ele></ele><time>2014-6-30T10:58:31Z</time></trkpt>
<trkpt lat="48.78387451" lon="1.88741803"><ele></ele><time>2014-6-30T10:58:34Z</time></trkpt>
<trkpt lat="48.78390121" lon="1.88730097"><ele></ele><time>2014-6-30T10:58:37Z</time></trkpt>
<trkpt lat="48.78399277" lon="1.88709402"><ele></ele><time>2014-6-30T10:58:40Z</time></trkpt>
<trkpt lat="48.78434753" lon="1.88679302"><ele></ele><time>2014-6-30T10:58:43Z</time></trkpt>
<trkpt lat="48.78458023" lon="1.88669205"><ele></ele><time>2014-6-30T10:58:46Z</time></trkpt>
<trkpt lat="48.78467941" lon="1.88642097"><ele></ele><time>2014-6-30T10:58:49Z</time></trkpt>
<trkpt lat="48.78462601" lon="1.88573003"><ele></ele><time>2014-6-30T10:58:52Z</time></trkpt>
<trkpt lat="48.78457642" lon="1.88516700"><ele></ele><time>2014-6-30T10:58:55Z</time></trkpt>
<trkpt lat="48.78452682" lon="1.88470399"><ele></ele><time>2014-6-30T10:58:58Z</time></trkpt>
<trkpt lat="48.78443909" lon="1.88449800"><ele></ele><time>2014-6-30T10:59:1Z</time></trkpt>
<trkpt lat="48.78431320" lon="1.88444304"><ele></ele><time>2014-6-30T10:59:4Z</time></trkpt>
<trkpt lat="48.78399658" lon="1.88440597"><ele></ele><time>2014-6-30T10:59:7Z</time></trkpt>
<trkpt lat="48.78361130" lon="1.88436997"><ele></ele><time>2014-6-30T10:59:10Z</time></trkpt>
<trkpt lat="48.78322983" lon="1.88433003"><ele></ele><time>2014-6-30T10:59:13Z</time></trkpt>
<trkpt lat="48.78286743" lon="1.88429201"><ele></ele><time>2014-6-30T10:59:16Z</time></trkpt>
<trkpt lat="48.78247070" lon="1.88423598"><ele></ele><time>2014-6-30T10:59:19Z</time></trkpt>
<trkpt lat="48.78208542" lon="1.88415897"><ele></ele><time>2014-6-30T10:59:22Z</time></trkpt>
<trkpt lat="48.78170776" lon="1.88418698"><ele></ele><time>2014-6-30T10:59:25Z</time></trkpt>
<trkpt lat="48.78130341" lon="1.88421905"><ele></ele><time>2014-6-30T10:59:28Z</time></trkpt>
<trkpt lat="48.78089905" lon="1.88423896"><ele></ele><time>2014-6-30T10:59:31Z</time></trkpt>
<trkpt lat="48.78050613" lon="1.88436699"><ele></ele><time>2014-6-30T10:59:34Z</time></trkpt>
<trkpt lat="48.78012848" lon="1.88451099"><ele></ele><time>2014-6-30T10:59:37Z</time></trkpt>
<trkpt lat="48.77973175" lon="1.88464797"><ele></ele><time>2014-6-30T10:59:40Z</time></trkpt>
<trkpt lat="48.77933884" lon="1.88476098"><ele></ele><time>2014-6-30T10:59:43Z</time></trkpt>
<trkpt lat="48.77894974" lon="1.88484299"><ele></ele><time>2014-6-30T10:59:46Z</time></trkpt>
<trkpt lat="48.77880859" lon="1.88486099"><ele></ele><time>2014-6-30T10:59:49Z</time></trkpt>
<trkpt lat="48.77864456" lon="1.88457096"><ele></ele><time>2014-6-30T10:59:52Z</time></trkpt>
<trkpt lat="48.77861023" lon="1.88395798"><ele></ele><time>2014-6-30T10:59:55Z</time></trkpt>
<trkpt lat="48.77856064" lon="1.88341105"><ele></ele><time>2014-6-30T10:59:58Z</time></trkpt>
<trkpt lat="48.77850723" lon="1.88285899"><ele></ele><time>2014-6-30T11:0:1Z</time></trkpt>
<trkpt lat="48.77847672" lon="1.88227296"><ele></ele><time>2014-6-30T11:0:4Z</time></trkpt>
<trkpt lat="48.77842331" lon="1.88181305"><ele></ele><time>2014-6-30T11:0:7Z</time></trkpt>
<trkpt lat="48.77835083" lon="1.88125300"><ele></ele><time>2014-6-30T11:0:10Z</time></trkpt>
<trkpt lat="48.77829361" lon="1.88068497"><ele></ele><time>2014-6-30T11:0:13Z</time></trkpt>
<trkpt lat="48.77824402" lon="1.88011503"><ele></ele><time>2014-6-30T11:0:16Z</time></trkpt>
<trkpt lat="48.77817154" lon="1.87958503"><ele></ele><time>2014-6-30T11:0:19Z</time></trkpt>
<trkpt lat="48.77811813" lon="1.87902796"><ele></ele><time>2014-6-30T11:0:22Z</time></trkpt>
<trkpt lat="48.77807236" lon="1.87844896"><ele></ele><time>2014-6-30T11:0:25Z</time></trkpt>
<trkpt lat="48.77800751" lon="1.87787998"><ele></ele><time>2014-6-30T11:0:28Z</time></trkpt>
<trkpt lat="48.77792740" lon="1.87732196"><ele></ele><time>2014-6-30T11:0:31Z</time></trkpt>
<trkpt lat="48.77797318" lon="1.87678194"><ele></ele><time>2014-6-30T11:0:34Z</time></trkpt>
<trkpt lat="48.77820206" lon="1.87629104"><ele></ele><time>2014-6-30T11:0:37Z</time></trkpt>
<trkpt lat="48.77828217" lon="1.87608802"><ele></ele><time>2014-6-30T11:0:40Z</time></trkpt>
<trkpt lat="48.77830124" lon="1.87585104"><ele></ele><time>2014-6-30T11:0:43Z</time></trkpt>
<trkpt lat="48.77821350" lon="1.87523603"><ele></ele><time>2014-6-30T11:0:46Z</time></trkpt>
<trkpt lat="48.77812958" lon="1.87468696"><ele></ele><time>2014-6-30T11:0:49Z</time></trkpt>
<trkpt lat="48.77811813" lon="1.87412703"><ele></ele><time>2014-6-30T11:0:52Z</time></trkpt>
<trkpt lat="48.77817154" lon="1.87353694"><ele></ele><time>2014-6-30T11:0:55Z</time></trkpt>
<trkpt lat="48.77824402" lon="1.87298095"><ele></ele><time>2014-6-30T11:0:58Z</time></trkpt>
<trkpt lat="48.77832794" lon="1.87238705"><ele></ele><time>2014-6-30T11:1:1Z</time></trkpt>
<trkpt lat="48.77841187" lon="1.87181699"><ele></ele><time>2014-6-30T11:1:4Z</time></trkpt>
<trkpt lat="48.77849197" lon="1.87124598"><ele></ele><time>2014-6-30T11:1:7Z</time></trkpt>
<trkpt lat="48.77858353" lon="1.87065601"><ele></ele><time>2014-6-30T11:1:10Z</time></trkpt>
<trkpt lat="48.77862549" lon="1.87034905"><ele></ele><time>2014-6-30T11:1:13Z</time></trkpt>
<trkpt lat="48.77857590" lon="1.87006199"><ele></ele><time>2014-6-30T11:1:16Z</time></trkpt>
<trkpt lat="48.77834702" lon="1.86955094"><ele></ele><time>2014-6-30T11:1:19Z</time></trkpt>
<trkpt lat="48.77814484" lon="1.86907697"><ele></ele><time>2014-6-30T11:1:22Z</time></trkpt>
<trkpt lat="48.77795410" lon="1.86860001"><ele></ele><time>2014-6-30T11:1:25Z</time></trkpt>
<trkpt lat="48.77778625" lon="1.86824000"><ele></ele><time>2014-6-30T11:1:28Z</time></trkpt>
<trkpt lat="48.77765274" lon="1.86797094"><ele></ele><time>2014-6-30T11:1:31Z</time></trkpt>
<trkpt lat="48.77748871" lon="1.86743796"><ele></ele><time>2014-6-30T11:1:34Z</time></trkpt>
<trkpt lat="48.77751541" lon="1.86689794"><ele></ele><time>2014-6-30T11:1:37Z</time></trkpt>
<trkpt lat="48.77762222" lon="1.86637902"><ele></ele><time>2014-6-30T11:1:40Z</time></trkpt>
<trkpt lat="48.77762222" lon="1.86610401"><ele></ele><time>2014-6-30T11:1:43Z</time></trkpt>
<trkpt lat="48.77756500" lon="1.86600304"><ele></ele><time>2014-6-30T11:1:46Z</time></trkpt>
<trkpt lat="48.77722931" lon="1.86580300"><ele></ele><time>2014-6-30T11:1:49Z</time></trkpt>
<trkpt lat="48.77692413" lon="1.86557806"><ele></ele><time>2014-6-30T11:1:52Z</time></trkpt>
<trkpt lat="48.77688599" lon="1.86555195"><ele></ele><time>2014-6-30T11:1:55Z</time></trkpt>
<trkpt lat="48.77683640" lon="1.86548495"><ele></ele><time>2014-6-30T11:1:58Z</time></trkpt>
<trkpt lat="48.77656937" lon="1.86530805"><ele></ele><time>2014-6-30T11:2:1Z</time></trkpt>
<trkpt lat="48.77616882" lon="1.86506498"><ele></ele><time>2014-6-30T11:2:4Z</time></trkpt>
<trkpt lat="48.77595139" lon="1.86473000"><ele></ele><time>2014-6-30T11:2:7Z</time></trkpt>
<trkpt lat="48.77592087" lon="1.86469996"><ele></ele><time>2014-6-30T11:2:10Z</time></trkpt>
<trkpt lat="48.77574158" lon="1.86450005"><ele></ele><time>2014-6-30T11:2:13Z</time></trkpt>
<trkpt lat="48.77542877" lon="1.86426198"><ele></ele><time>2014-6-30T11:2:16Z</time></trkpt>
<trkpt lat="48.77509689" lon="1.86413503"><ele></ele><time>2014-6-30T11:2:19Z</time></trkpt>
<trkpt lat="48.77502060" lon="1.86410403"><ele></ele><time>2014-6-30T11:2:22Z</time></trkpt>
<trkpt lat="48.77494049" lon="1.86408901"><ele></ele><time>2014-6-30T11:2:25Z</time></trkpt>
<trkpt lat="48.77488708" lon="1.86406398"><ele></ele><time>2014-6-30T11:2:28Z</time></trkpt>
<trkpt lat="48.77487946" lon="1.86405802"><ele></ele><time>2014-6-30T11:2:31Z</time></trkpt>
<trkpt lat="48.77483368" lon="1.86402595"><ele></ele><time>2014-6-30T11:2:34Z</time></trkpt>
<trkpt lat="48.77472687" lon="1.86398399"><ele></ele><time>2014-6-30T11:2:37Z</time></trkpt>
<trkpt lat="48.77468491" lon="1.86396396"><ele></ele><time>2014-6-30T11:2:40Z</time></trkpt>
<trkpt lat="48.77431107" lon="1.86393094"><ele></ele><time>2014-6-30T11:2:43Z</time></trkpt>
<trkpt lat="48.77394485" lon="1.86383498"><ele></ele><time>2014-6-30T11:2:46Z</time></trkpt>
<trkpt lat="48.77382660" lon="1.86334896"><ele></ele><time>2014-6-30T11:2:49Z</time></trkpt>
<trkpt lat="48.77381134" lon="1.86306202"><ele></ele><time>2014-6-30T11:2:52Z</time></trkpt>
<trkpt lat="48.77398682" lon="1.86294603"><ele></ele><time>2014-6-30T11:2:55Z</time></trkpt>
<trkpt lat="48.77418137" lon="1.86299396"><ele></ele><time>2014-6-30T11:2:58Z</time></trkpt>
<trkpt lat="48.77447510" lon="1.86291897"><ele></ele><time>2014-6-30T11:3:1Z</time></trkpt>
<trkpt lat="48.77478790" lon="1.86291504"><ele></ele><time>2014-6-30T11:3:4Z</time></trkpt>
<trkpt lat="48.77502060" lon="1.86280203"><ele></ele><time>2014-6-30T11:3:7Z</time></trkpt>
<trkpt lat="48.77501678" lon="1.86278498"><ele></ele><time>2014-6-30T11:3:10Z</time></trkpt>
<trkpt lat="48.77499771" lon="1.86273801"><ele></ele><time>2014-6-30T11:3:13Z</time></trkpt>
<trkpt lat="48.77490997" lon="1.86252904"><ele></ele><time>2014-6-30T11:3:16Z</time></trkpt>
<trkpt lat="48.77496719" lon="1.86226797"><ele></ele><time>2014-6-30T11:3:19Z</time></trkpt>
<trkpt lat="48.77495193" lon="1.86167800"><ele></ele><time>2014-6-30T11:3:22Z</time></trkpt>
<trkpt lat="48.77490616" lon="1.86101401"><ele></ele><time>2014-6-30T11:3:25Z</time></trkpt>
<trkpt lat="48.77489090" lon="1.86052799"><ele></ele><time>2014-6-30T11:3:28Z</time></trkpt>
<trkpt lat="48.77492142" lon="1.86029899"><ele></ele><time>2014-6-30T11:3:31Z</time></trkpt>
<trkpt lat="48.77491379" lon="1.86009800"><ele></ele><time>2014-6-30T11:3:34Z</time></trkpt>
<trkpt lat="48.77470398" lon="1.85975504"><ele></ele><time>2014-6-30T11:3:37Z</time></trkpt>
<trkpt lat="48.77458954" lon="1.85933197"><ele></ele><time>2014-6-30T11:3:40Z</time></trkpt>
<trkpt lat="48.77457809" lon="1.85876799"><ele></ele><time>2014-6-30T11:3:43Z</time></trkpt>
<trkpt lat="48.77454376" lon="1.85868502"><ele></ele><time>2014-6-30T11:3:46Z</time></trkpt>
<trkpt lat="48.77443314" lon="1.85842705"><ele></ele><time>2014-6-30T11:3:49Z</time></trkpt>
<trkpt lat="48.77428436" lon="1.85788798"><ele></ele><time>2014-6-30T11:3:52Z</time></trkpt>
<trkpt lat="48.77426910" lon="1.85779095"><ele></ele><time>2014-6-30T11:3:55Z</time></trkpt>
<trkpt lat="48.77436829" lon="1.85718000"><ele></ele><time>2014-6-30T11:3:58Z</time></trkpt>
<trkpt lat="48.77444077" lon="1.85712302"><ele></ele><time>2014-6-30T11:4:1Z</time></trkpt>
<trkpt lat="48.77483368" lon="1.85677600"><ele></ele><time>2014-6-30T11:4:4Z</time></trkpt>
<trkpt lat="48.77511597" lon="1.85647595"><ele></ele><time>2014-6-30T11:4:7Z</time></trkpt>
<trkpt lat="48.77509689" lon="1.85642695"><ele></ele><time>2014-6-30T11:4:10Z</time></trkpt>
<trkpt lat="48.77476120" lon="1.85610402"><ele></ele><time>2014-6-30T11:4:13Z</time></trkpt>
<trkpt lat="48.77450943" lon="1.85575497"><ele></ele><time>2014-6-30T11:4:16Z</time></trkpt>
<trkpt lat="48.77441406" lon="1.85565901"><ele></ele><time>2014-6-30T11:4:19Z</time></trkpt>
<trkpt lat="48.77423859" lon="1.85551906"><ele></ele><time>2014-6-30T11:4:22Z</time></trkpt>
<trkpt lat="48.77387619" lon="1.85527694"><ele></ele><time>2014-6-30T11:4:25Z</time></trkpt>
<trkpt lat="48.77356339" lon="1.85501099"><ele></ele><time>2014-6-30T11:4:28Z</time></trkpt>
<trkpt lat="48.77320862" lon="1.85474503"><ele></ele><time>2014-6-30T11:4:31Z</time></trkpt>
<trkpt lat="48.77285385" lon="1.85450196"><ele></ele><time>2014-6-30T11:4:34Z</time></trkpt>
<trkpt lat="48.77252197" lon="1.85428798"><ele></ele><time>2014-6-30T11:4:37Z</time></trkpt>
<trkpt lat="48.77227783" lon="1.85411799"><ele></ele><time>2014-6-30T11:4:40Z</time></trkpt>
<trkpt lat="48.77204514" lon="1.85391104"><ele></ele><time>2014-6-30T11:4:43Z</time></trkpt>
<trkpt lat="48.77181244" lon="1.85369897"><ele></ele><time>2014-6-30T11:4:46Z</time></trkpt>
<trkpt lat="48.77139282" lon="1.85346699"><ele></ele><time>2014-6-30T11:4:49Z</time></trkpt>
<trkpt lat="48.77104187" lon="1.85329998"><ele></ele><time>2014-6-30T11:4:52Z</time></trkpt>
<trkpt lat="48.77099609" lon="1.85327899"><ele></ele><time>2014-6-30T11:4:55Z</time></trkpt>
<trkpt lat="48.77077866" lon="1.85313106"><ele></ele><time>2014-6-30T11:4:58Z</time></trkpt>
<trkpt lat="48.77051163" lon="1.85305405"><ele></ele><time>2014-6-30T11:5:1Z</time></trkpt>
<trkpt lat="48.77041626" lon="1.85306704"><ele></ele><time>2014-6-30T11:5:4Z</time></trkpt>
<trkpt lat="48.77041626" lon="1.85318398"><ele></ele><time>2014-6-30T11:5:7Z</time></trkpt>
<trkpt lat="48.77039719" lon="1.85366905"><ele></ele><time>2014-6-30T11:5:10Z</time></trkpt>
<trkpt lat="48.77034760" lon="1.85402703"><ele></ele><time>2014-6-30T11:5:13Z</time></trkpt>
<trkpt lat="48.77029037" lon="1.85438800"><ele></ele><time>2014-6-30T11:5:16Z</time></trkpt>
<trkpt lat="48.77019882" lon="1.85474205"><ele></ele><time>2014-6-30T11:5:19Z</time></trkpt>
<trkpt lat="48.77006531" lon="1.85529494"><ele></ele><time>2014-6-30T11:5:22Z</time></trkpt>
<trkpt lat="48.76998138" lon="1.85587704"><ele></ele><time>2014-6-30T11:5:25Z</time></trkpt>
<trkpt lat="48.76990891" lon="1.85639298"><ele></ele><time>2014-6-30T11:5:28Z</time></trkpt>
<trkpt lat="48.76984787" lon="1.85658598"><ele></ele><time>2014-6-30T11:5:31Z</time></trkpt>
<trkpt lat="48.76974487" lon="1.85687196"><ele></ele><time>2014-6-30T11:5:34Z</time></trkpt>
<trkpt lat="48.76969147" lon="1.85706604"><ele></ele><time>2014-6-30T11:5:37Z</time></trkpt>
<trkpt lat="48.76973724" lon="1.85732102"><ele></ele><time>2014-6-30T11:5:40Z</time></trkpt>
<trkpt lat="48.76979065" lon="1.85743499"><ele></ele><time>2014-6-30T11:5:43Z</time></trkpt>
<trkpt lat="48.76993561" lon="1.85771000"><ele></ele><time>2014-6-30T11:5:46Z</time></trkpt>
<trkpt lat="48.77001572" lon="1.85784197"><ele></ele><time>2014-6-30T11:5:49Z</time></trkpt>
<trkpt lat="48.77009964" lon="1.85807204"><ele></ele><time>2014-6-30T11:5:52Z</time></trkpt>
<trkpt lat="48.77010727" lon="1.85808599"><ele></ele><time>2014-6-30T11:5:55Z</time></trkpt>
<trkpt lat="48.77012253" lon="1.85815799"><ele></ele><time>2014-6-30T11:5:58Z</time></trkpt>
<trkpt lat="48.77012634" lon="1.85818696"><ele></ele><time>2014-6-30T11:6:1Z</time></trkpt>
<trkpt lat="48.77013779" lon="1.85826802"><ele></ele><time>2014-6-30T11:6:4Z</time></trkpt>
<trkpt lat="48.77013779" lon="1.85829401"><ele></ele><time>2014-6-30T11:6:7Z</time></trkpt>
<trkpt lat="48.77014542" lon="1.85836506"><ele></ele><time>2014-6-30T11:6:10Z</time></trkpt>
<trkpt lat="48.77006531" lon="1.85871100"><ele></ele><time>2014-6-30T11:6:13Z</time></trkpt>
<trkpt lat="48.77004623" lon="1.85879898"><ele></ele><time>2014-6-30T11:6:16Z</time></trkpt>
<trkpt lat="48.76998138" lon="1.85923696"><ele></ele><time>2014-6-30T11:6:19Z</time></trkpt>
<trkpt lat="48.76997375" lon="1.85955000"><ele></ele><time>2014-6-30T11:6:22Z</time></trkpt>
<trkpt lat="48.76996613" lon="1.85972297"><ele></ele><time>2014-6-30T11:6:25Z</time></trkpt>
<trkpt lat="48.76996231" lon="1.85972905"><ele></ele><time>2014-6-30T11:6:28Z</time></trkpt>
<trkpt lat="48.76998138" lon="1.85985398"><ele></ele><time>2014-6-30T11:6:31Z</time></trkpt>
<trkpt lat="48.77011871" lon="1.86038494"><ele></ele><time>2014-6-30T11:6:34Z</time></trkpt>
<trkpt lat="48.77022552" lon="1.86080897"><ele></ele><time>2014-6-30T11:6:37Z</time></trkpt>
<trkpt lat="48.77024841" lon="1.86130595"><ele></ele><time>2014-6-30T11:6:40Z</time></trkpt>
<trkpt lat="48.77020645" lon="1.86170495"><ele></ele><time>2014-6-30T11:6:43Z</time></trkpt>
<trkpt lat="48.77016830" lon="1.86188900"><ele></ele><time>2014-6-30T11:6:46Z</time></trkpt>
<trkpt lat="48.77013397" lon="1.86223900"><ele></ele><time>2014-6-30T11:6:49Z</time></trkpt>
<trkpt lat="48.77002335" lon="1.86285400"><ele></ele><time>2014-6-30T11:6:52Z</time></trkpt>
<trkpt lat="48.77001190" lon="1.86293006"><ele></ele><time>2014-6-30T11:6:55Z</time></trkpt>
<trkpt lat="48.76965332" lon="1.86310005"><ele></ele><time>2014-6-30T11:6:58Z</time></trkpt>
<trkpt lat="48.76924515" lon="1.86316299"><ele></ele><time>2014-6-30T11:7:1Z</time></trkpt>
<trkpt lat="48.76885223" lon="1.86333895"><ele></ele><time>2014-6-30T11:7:4Z</time></trkpt>
<trkpt lat="48.76854324" lon="1.86345506"><ele></ele><time>2014-6-30T11:7:7Z</time></trkpt>
<trkpt lat="48.76842499" lon="1.86351097"><ele></ele><time>2014-6-30T11:7:10Z</time></trkpt>
<trkpt lat="48.76821518" lon="1.86357796"><ele></ele><time>2014-6-30T11:7:13Z</time></trkpt>
<trkpt lat="48.76805496" lon="1.86366796"><ele></ele><time>2014-6-30T11:7:16Z</time></trkpt>
<trkpt lat="48.76787186" lon="1.86374998"><ele></ele><time>2014-6-30T11:7:19Z</time></trkpt>
<trkpt lat="48.76779938" lon="1.86378300"><ele></ele><time>2014-6-30T11:7:22Z</time></trkpt>
<trkpt lat="48.76756668" lon="1.86394894"><ele></ele><time>2014-6-30T11:7:25Z</time></trkpt>
<trkpt lat="48.76734924" lon="1.86416495"><ele></ele><time>2014-6-30T11:7:28Z</time></trkpt>
<trkpt lat="48.76726913" lon="1.86426902"><ele></ele><time>2014-6-30T11:7:31Z</time></trkpt>
<trkpt lat="48.76690674" lon="1.86474097"><ele></ele><time>2014-6-30T11:7:34Z</time></trkpt>
<trkpt lat="48.76679611" lon="1.86486399"><ele></ele><time>2014-6-30T11:7:37Z</time></trkpt>
<trkpt lat="48.76659775" lon="1.86509001"><ele></ele><time>2014-6-30T11:7:40Z</time></trkpt>
<trkpt lat="48.76648712" lon="1.86526406"><ele></ele><time>2014-6-30T11:7:43Z</time></trkpt>
<trkpt lat="48.76640320" lon="1.86545897"><ele></ele><time>2014-6-30T11:7:46Z</time></trkpt>
<trkpt lat="48.76630783" lon="1.86571801"><ele></ele><time>2014-6-30T11:7:49Z</time></trkpt>
<trkpt lat="48.76618958" lon="1.86605406"><ele></ele><time>2014-6-30T11:7:52Z</time></trkpt>
<trkpt lat="48.76612854" lon="1.86679196"><ele></ele><time>2014-6-30T11:7:55Z</time></trkpt>
<trkpt lat="48.76611710" lon="1.86709201"><ele></ele><time>2014-6-30T11:7:58Z</time></trkpt>
<trkpt lat="48.76611328" lon="1.86719596"><ele></ele><time>2014-6-30T11:8:1Z</time></trkpt>
<trkpt lat="48.76610565" lon="1.86738598"><ele></ele><time>2014-6-30T11:8:4Z</time></trkpt>
<trkpt lat="48.76609802" lon="1.86760104"><ele></ele><time>2014-6-30T11:8:7Z</time></trkpt>
<trkpt lat="48.76604080" lon="1.86801100"><ele></ele><time>2014-6-30T11:8:10Z</time></trkpt>
<trkpt lat="48.76588058" lon="1.86837602"><ele></ele><time>2014-6-30T11:8:13Z</time></trkpt>
<trkpt lat="48.76559448" lon="1.86883497"><ele></ele><time>2014-6-30T11:8:16Z</time></trkpt>
<trkpt lat="48.76553726" lon="1.86893296"><ele></ele><time>2014-6-30T11:8:19Z</time></trkpt>
<trkpt lat="48.76537323" lon="1.86906099"><ele></ele><time>2014-6-30T11:8:22Z</time></trkpt>
<trkpt lat="48.76515198" lon="1.86876297"><ele></ele><time>2014-6-30T11:8:25Z</time></trkpt>
<trkpt lat="48.76508331" lon="1.86865103"><ele></ele><time>2014-6-30T11:8:28Z</time></trkpt>
<trkpt lat="48.76449966" lon="1.86801696"><ele></ele><time>2014-6-30T11:8:31Z</time></trkpt>
<trkpt lat="48.76419830" lon="1.86773503"><ele></ele><time>2014-6-30T11:8:34Z</time></trkpt>
<trkpt lat="48.76413345" lon="1.86766100"><ele></ele><time>2014-6-30T11:8:37Z</time></trkpt>
<trkpt lat="48.76401520" lon="1.86755502"><ele></ele><time>2014-6-30T11:8:40Z</time></trkpt>
<trkpt lat="48.76375961" lon="1.86748803"><ele></ele><time>2014-6-30T11:8:43Z</time></trkpt>
<trkpt lat="48.76339340" lon="1.86755002"><ele></ele><time>2014-6-30T11:8:46Z</time></trkpt>
<trkpt lat="48.76304626" lon="1.86745405"><ele></ele><time>2014-6-30T11:8:49Z</time></trkpt>
<trkpt lat="48.76259613" lon="1.86712694"><ele></ele><time>2014-6-30T11:8:52Z</time></trkpt>
<trkpt lat="48.76222610" lon="1.86691904"><ele></ele><time>2014-6-30T11:8:55Z</time></trkpt>
<trkpt lat="48.76190948" lon="1.86689305"><ele></ele><time>2014-6-30T11:8:58Z</time></trkpt>
<trkpt lat="48.76165009" lon="1.86680996"><ele></ele><time>2014-6-30T11:9:1Z</time></trkpt>
<trkpt lat="48.76172256" lon="1.86699605"><ele></ele><time>2014-6-30T11:9:4Z</time></trkpt>
<trkpt lat="48.76176071" lon="1.86704898"><ele></ele><time>2014-6-30T11:9:7Z</time></trkpt>
<trkpt lat="48.76177597" lon="1.86706996"><ele></ele><time>2014-6-30T11:9:10Z</time></trkpt>
<trkpt lat="48.76183319" lon="1.86717296"><ele></ele><time>2014-6-30T11:9:13Z</time></trkpt>
<trkpt lat="48.76184082" lon="1.86721301"><ele></ele><time>2014-6-30T11:9:16Z</time></trkpt>
<trkpt lat="48.76184845" lon="1.86725998"><ele></ele><time>2014-6-30T11:9:19Z</time></trkpt>
<trkpt lat="48.76186752" lon="1.86730194"><ele></ele><time>2014-6-30T11:9:22Z</time></trkpt>
<trkpt lat="48.76188278" lon="1.86731899"><ele></ele><time>2014-6-30T11:9:25Z</time></trkpt>
<trkpt lat="48.76191711" lon="1.86738396"><ele></ele><time>2014-6-30T11:9:28Z</time></trkpt>
<trkpt lat="48.76193237" lon="1.86742604"><ele></ele><time>2014-6-30T11:9:31Z</time></trkpt>
<trkpt lat="48.76197052" lon="1.86750603"><ele></ele><time>2014-6-30T11:9:34Z</time></trkpt>
<trkpt lat="48.76202393" lon="1.86761796"><ele></ele><time>2014-6-30T11:9:37Z</time></trkpt>
<trkpt lat="48.76206207" lon="1.86767006"><ele></ele><time>2014-6-30T11:9:40Z</time></trkpt>
<trkpt lat="48.76210022" lon="1.86789596"><ele></ele><time>2014-6-30T11:9:43Z</time></trkpt>
<trkpt lat="48.76211929" lon="1.86797595"><ele></ele><time>2014-6-30T11:9:46Z</time></trkpt>
<trkpt lat="48.76215363" lon="1.86812401"><ele></ele><time>2014-6-30T11:9:49Z</time></trkpt>
<trkpt lat="48.76218414" lon="1.86822605"><ele></ele><time>2014-6-30T11:9:52Z</time></trkpt>
<trkpt lat="48.76229858" lon="1.86850798"><ele></ele><time>2014-6-30T11:9:55Z</time></trkpt>
<trkpt lat="48.76237488" lon="1.86893797"><ele></ele><time>2014-6-30T11:9:58Z</time></trkpt>
<trkpt lat="48.76227188" lon="1.86910999"><ele></ele><time>2014-6-30T11:10:1Z</time></trkpt>
<trkpt lat="48.76225662" lon="1.86915600"><ele></ele><time>2014-6-30T11:10:4Z</time></trkpt>
<trkpt lat="48.76225281" lon="1.86917198"><ele></ele><time>2014-6-30T11:10:7Z</time></trkpt>
<trkpt lat="48.76225281" lon="1.86918998"><ele></ele><time>2014-6-30T11:10:10Z</time></trkpt>
<trkpt lat="48.76225662" lon="1.86930299"><ele></ele><time>2014-6-30T11:10:13Z</time></trkpt>
<trkpt lat="48.76229477" lon="1.86938095"><ele></ele><time>2014-6-30T11:10:16Z</time></trkpt>
<trkpt lat="48.76234818" lon="1.86950803"><ele></ele><time>2014-6-30T11:10:19Z</time></trkpt>
<trkpt lat="48.76252365" lon="1.87001896"><ele></ele><time>2014-6-30T11:10:22Z</time></trkpt>
<trkpt lat="48.76265717" lon="1.87043905"><ele></ele><time>2014-6-30T11:10:25Z</time></trkpt>
<trkpt lat="48.76277542" lon="1.87084103"><ele></ele><time>2014-6-30T11:10:28Z</time></trkpt>
<trkpt lat="48.76278305" lon="1.87095296"><ele></ele><time>2014-6-30T11:10:31Z</time></trkpt>
<trkpt lat="48.76285172" lon="1.87150204"><ele></ele><time>2014-6-30T11:10:34Z</time></trkpt>
<trkpt lat="48.76310349" lon="1.87181199"><ele></ele><time>2014-6-30T11:10:37Z</time></trkpt>
<trkpt lat="48.76317215" lon="1.87189806"><ele></ele><time>2014-6-30T11:10:40Z</time></trkpt>
<trkpt lat="48.76325989" lon="1.87221599"><ele></ele><time>2014-6-30T11:10:43Z</time></trkpt>
<trkpt lat="48.76322937" lon="1.87248898"><ele></ele><time>2014-6-30T11:10:46Z</time></trkpt>
<trkpt lat="48.76318741" lon="1.87287700"><ele></ele><time>2014-6-30T11:10:49Z</time></trkpt>
<trkpt lat="48.76317215" lon="1.87316597"><ele></ele><time>2014-6-30T11:10:52Z</time></trkpt>
<trkpt lat="48.76309967" lon="1.87379897"><ele></ele><time>2014-6-30T11:10:55Z</time></trkpt>
<trkpt lat="48.76306915" lon="1.87409306"><ele></ele><time>2014-6-30T11:10:58Z</time></trkpt>
<trkpt lat="48.76302719" lon="1.87441301"><ele></ele><time>2014-6-30T11:11:1Z</time></trkpt>
<trkpt lat="48.76302338" lon="1.87466097"><ele></ele><time>2014-6-30T11:11:4Z</time></trkpt>
<trkpt lat="48.76320267" lon="1.87521398"><ele></ele><time>2014-6-30T11:11:7Z</time></trkpt>
<trkpt lat="48.76342392" lon="1.87559605"><ele></ele><time>2014-6-30T11:11:10Z</time></trkpt>
<trkpt lat="48.76306152" lon="1.87570202"><ele></ele><time>2014-6-30T11:11:13Z</time></trkpt>
<trkpt lat="48.76265335" lon="1.87571502"><ele></ele><time>2014-6-30T11:11:16Z</time></trkpt>
<trkpt lat="48.76248932" lon="1.87572396"><ele></ele><time>2014-6-30T11:11:19Z</time></trkpt>
<trkpt lat="48.76239395" lon="1.87573898"><ele></ele><time>2014-6-30T11:11:22Z</time></trkpt>
<trkpt lat="48.76229477" lon="1.87577403"><ele></ele><time>2014-6-30T11:11:25Z</time></trkpt>
<trkpt lat="48.76189041" lon="1.87595105"><ele></ele><time>2014-6-30T11:11:28Z</time></trkpt>
<trkpt lat="48.76170731" lon="1.87620604"><ele></ele><time>2014-6-30T11:11:31Z</time></trkpt>
<trkpt lat="48.76169968" lon="1.87662601"><ele></ele><time>2014-6-30T11:11:34Z</time></trkpt>
<trkpt lat="48.76169968" lon="1.87722802"><ele></ele><time>2014-6-30T11:11:37Z</time></trkpt>
<trkpt lat="48.76131821" lon="1.87753296"><ele></ele><time>2014-6-30T11:11:40Z</time></trkpt>
<trkpt lat="48.76116943" lon="1.87745202"><ele></ele><time>2014-6-30T11:11:43Z</time></trkpt>
<trkpt lat="48.76102829" lon="1.87728298"><ele></ele><time>2014-6-30T11:11:46Z</time></trkpt>
<trkpt lat="48.76060486" lon="1.87689900"><ele></ele><time>2014-6-30T11:11:49Z</time></trkpt>
<trkpt lat="48.76024628" lon="1.87653601"><ele></ele><time>2014-6-30T11:11:52Z</time></trkpt>
<trkpt lat="48.75974655" lon="1.87670302"><ele></ele><time>2014-6-30T11:11:55Z</time></trkpt>
<trkpt lat="48.75947571" lon="1.87682199"><ele></ele><time>2014-6-30T11:11:58Z</time></trkpt>
<trkpt lat="48.75914001" lon="1.87696099"><ele></ele><time>2014-6-30T11:12:1Z</time></trkpt>
<trkpt lat="48.75906372" lon="1.87698698"><ele></ele><time>2014-6-30T11:12:4Z</time></trkpt>
<trkpt lat="48.75904083" lon="1.87700796"><ele></ele><time>2014-6-30T11:12:7Z</time></trkpt>
<trkpt lat="48.75883865" lon="1.87736595"><ele></ele><time>2014-6-30T11:12:10Z</time></trkpt>
<trkpt lat="48.75866318" lon="1.87741995"><ele></ele><time>2014-6-30T11:12:13Z</time></trkpt>
<trkpt lat="48.75839615" lon="1.87757099"><ele></ele><time>2014-6-30T11:12:16Z</time></trkpt>
<trkpt lat="48.75804520" lon="1.87790895"><ele></ele><time>2014-6-30T11:12:19Z</time></trkpt>
<trkpt lat="48.75772095" lon="1.87815595"><ele></ele><time>2014-6-30T11:12:22Z</time></trkpt>
<trkpt lat="48.75764847" lon="1.87820196"><ele></ele><time>2014-6-30T11:12:25Z</time></trkpt>
<trkpt lat="48.75764084" lon="1.87835801"><ele></ele><time>2014-6-30T11:12:28Z</time></trkpt>
<trkpt lat="48.75775909" lon="1.87894201"><ele></ele><time>2014-6-30T11:12:31Z</time></trkpt>
<trkpt lat="48.75780869" lon="1.87953305"><ele></ele><time>2014-6-30T11:12:34Z</time></trkpt>
<trkpt lat="48.75789642" lon="1.88015699"><ele></ele><time>2014-6-30T11:12:37Z</time></trkpt>
<trkpt lat="48.75801849" lon="1.88069999"><ele></ele><time>2014-6-30T11:12:40Z</time></trkpt>
<trkpt lat="48.75821304" lon="1.88117802"><ele></ele><time>2014-6-30T11:12:43Z</time></trkpt>
<trkpt lat="48.75830460" lon="1.88131797"><ele></ele><time>2014-6-30T11:12:46Z</time></trkpt>
<trkpt lat="48.75849915" lon="1.88191605"><ele></ele><time>2014-6-30T11:12:49Z</time></trkpt>
<trkpt lat="48.75861740" lon="1.88248205"><ele></ele><time>2014-6-30T11:12:52Z</time></trkpt>
<trkpt lat="48.75865555" lon="1.88284099"><ele></ele><time>2014-6-30T11:12:55Z</time></trkpt>
<trkpt lat="48.75864792" lon="1.88310003"><ele></ele><time>2014-6-30T11:12:58Z</time></trkpt>
<trkpt lat="48.75852585" lon="1.88357997"><ele></ele><time>2014-6-30T11:13:1Z</time></trkpt>
<trkpt lat="48.75839233" lon="1.88381803"><ele></ele><time>2014-6-30T11:13:4Z</time></trkpt>
<trkpt lat="48.75803757" lon="1.88393903"><ele></ele><time>2014-6-30T11:13:7Z</time></trkpt>
<trkpt lat="48.75769806" lon="1.88388896"><ele></ele><time>2014-6-30T11:13:10Z</time></trkpt>
<trkpt lat="48.75760269" lon="1.88386405"><ele></ele><time>2014-6-30T11:13:13Z</time></trkpt>
<trkpt lat="48.75730515" lon="1.88375700"><ele></ele><time>2014-6-30T11:13:16Z</time></trkpt>
<trkpt lat="48.75717545" lon="1.88367796"><ele></ele><time>2014-6-30T11:13:19Z</time></trkpt>
<trkpt lat="48.75701523" lon="1.88361895"><ele></ele><time>2014-6-30T11:13:22Z</time></trkpt>
<trkpt lat="48.75672531" lon="1.88328397"><ele></ele><time>2014-6-30T11:13:25Z</time></trkpt>
<trkpt lat="48.75669098" lon="1.88306296"><ele></ele><time>2014-6-30T11:13:28Z</time></trkpt>
<trkpt lat="48.75667191" lon="1.88258505"><ele></ele><time>2014-6-30T11:13:31Z</time></trkpt>
<trkpt lat="48.75660706" lon="1.88256896"><ele></ele><time>2014-6-30T11:13:34Z</time></trkpt>
<trkpt lat="48.75642395" lon="1.88277400"><ele></ele><time>2014-6-30T11:13:37Z</time></trkpt>
<trkpt lat="48.75633621" lon="1.88285995"><ele></ele><time>2014-6-30T11:13:40Z</time></trkpt>
<trkpt lat="48.75600815" lon="1.88318598"><ele></ele><time>2014-6-30T11:13:43Z</time></trkpt>
<trkpt lat="48.75594711" lon="1.88326597"><ele></ele><time>2014-6-30T11:13:46Z</time></trkpt>
<trkpt lat="48.75593948" lon="1.88389504"><ele></ele><time>2014-6-30T11:13:49Z</time></trkpt>
<trkpt lat="48.75593567" lon="1.88440299"><ele></ele><time>2014-6-30T11:13:52Z</time></trkpt>
<trkpt lat="48.75592422" lon="1.88464999"><ele></ele><time>2014-6-30T11:13:55Z</time></trkpt>
<trkpt lat="48.75607300" lon="1.88509095"><ele></ele><time>2014-6-30T11:13:58Z</time></trkpt>
<trkpt lat="48.75619888" lon="1.88540196"><ele></ele><time>2014-6-30T11:14:1Z</time></trkpt>
<trkpt lat="48.75626373" lon="1.88596404"><ele></ele><time>2014-6-30T11:14:4Z</time></trkpt>
<trkpt lat="48.75626755" lon="1.88624001"><ele></ele><time>2014-6-30T11:14:7Z</time></trkpt>
<trkpt lat="48.75624084" lon="1.88704801"><ele></ele><time>2014-6-30T11:14:10Z</time></trkpt>
<trkpt lat="48.75624084" lon="1.88721502"><ele></ele><time>2014-6-30T11:14:13Z</time></trkpt>
<trkpt lat="48.75626755" lon="1.88776600"><ele></ele><time>2014-6-30T11:14:16Z</time></trkpt>
<trkpt lat="48.75651169" lon="1.88838196"><ele></ele><time>2014-6-30T11:14:19Z</time></trkpt>
<trkpt lat="48.75656891" lon="1.88846099"><ele></ele><time>2014-6-30T11:14:22Z</time></trkpt>
<trkpt lat="48.75664520" lon="1.88858402"><ele></ele><time>2014-6-30T11:14:25Z</time></trkpt>
<trkpt lat="48.75666428" lon="1.88865304"><ele></ele><time>2014-6-30T11:14:28Z</time></trkpt>
<trkpt lat="48.75673676" lon="1.88858998"><ele></ele><time>2014-6-30T11:14:31Z</time></trkpt>
<trkpt lat="48.75679779" lon="1.88855100"><ele></ele><time>2014-6-30T11:14:34Z</time></trkpt>
<trkpt lat="48.75679016" lon="1.88854599"><ele></ele><time>2014-6-30T11:14:37Z</time></trkpt>
<trkpt lat="48.75677872" lon="1.88849998"><ele></ele><time>2014-6-30T11:14:40Z</time></trkpt>
<trkpt lat="48.75679779" lon="1.88814700"><ele></ele><time>2014-6-30T11:14:43Z</time></trkpt>
<trkpt lat="48.75684357" lon="1.88782096"><ele></ele><time>2014-6-30T11:14:46Z</time></trkpt>
<trkpt lat="48.75689316" lon="1.88756299"><ele></ele><time>2014-6-30T11:14:49Z</time></trkpt>
<trkpt lat="48.75701904" lon="1.88714004"><ele></ele><time>2014-6-30T11:14:52Z</time></trkpt>
<trkpt lat="48.75709152" lon="1.88694203"><ele></ele><time>2014-6-30T11:14:55Z</time></trkpt>
<trkpt lat="48.75711441" lon="1.88688099"><ele></ele><time>2014-6-30T11:14:58Z</time></trkpt>
<trkpt lat="48.75713348" lon="1.88681698"><ele></ele><time>2014-6-30T11:15:1Z</time></trkpt>
<trkpt lat="48.75734711" lon="1.88657606"><ele></ele><time>2014-6-30T11:15:4Z</time></trkpt>
<trkpt lat="48.75774765" lon="1.88641405"><ele></ele><time>2014-6-30T11:15:7Z</time></trkpt>
<trkpt lat="48.75798798" lon="1.88626802"><ele></ele><time>2014-6-30T11:15:10Z</time></trkpt>
<trkpt lat="48.75811005" lon="1.88610804"><ele></ele><time>2014-6-30T11:15:13Z</time></trkpt>
<trkpt lat="48.75821304" lon="1.88586104"><ele></ele><time>2014-6-30T11:15:16Z</time></trkpt>
<trkpt lat="48.75831985" lon="1.88543403"><ele></ele><time>2014-6-30T11:15:19Z</time></trkpt>
<trkpt lat="48.75838470" lon="1.88568795"><ele></ele><time>2014-6-30T11:15:22Z</time></trkpt>
<trkpt lat="48.75845718" lon="1.88602400"><ele></ele><time>2014-6-30T11:15:25Z</time></trkpt>
<trkpt lat="48.75859070" lon="1.88664901"><ele></ele><time>2014-6-30T11:15:28Z</time></trkpt>
<trkpt lat="48.75870514" lon="1.88719797"><ele></ele><time>2014-6-30T11:15:31Z</time></trkpt>
<trkpt lat="48.75874329" lon="1.88749802"><ele></ele><time>2014-6-30T11:15:34Z</time></trkpt>
<trkpt lat="48.75883865" lon="1.88828194"><ele></ele><time>2014-6-30T11:15:37Z</time></trkpt>
<trkpt lat="48.75886917" lon="1.88856697"><ele></ele><time>2014-6-30T11:15:40Z</time></trkpt>
<trkpt lat="48.75889206" lon="1.88883603"><ele></ele><time>2014-6-30T11:15:43Z</time></trkpt>
<trkpt lat="48.75893021" lon="1.88917899"><ele></ele><time>2014-6-30T11:15:46Z</time></trkpt>
<trkpt lat="48.75897598" lon="1.88933802"><ele></ele><time>2014-6-30T11:15:49Z</time></trkpt>
<trkpt lat="48.75888443" lon="1.88971198"><ele></ele><time>2014-6-30T11:15:52Z</time></trkpt>
<trkpt lat="48.75873566" lon="1.89011395"><ele></ele><time>2014-6-30T11:15:55Z</time></trkpt>
<trkpt lat="48.75854111" lon="1.89039695"><ele></ele><time>2014-6-30T11:15:58Z</time></trkpt>
<trkpt lat="48.75828934" lon="1.89060998"><ele></ele><time>2014-6-30T11:16:1Z</time></trkpt>
<trkpt lat="48.75806808" lon="1.89076602"><ele></ele><time>2014-6-30T11:16:4Z</time></trkpt>
<trkpt lat="48.75802231" lon="1.89125800"><ele></ele><time>2014-6-30T11:16:7Z</time></trkpt>
<trkpt lat="48.75824738" lon="1.89187896"><ele></ele><time>2014-6-30T11:16:10Z</time></trkpt>
<trkpt lat="48.75828552" lon="1.89199805"><ele></ele><time>2014-6-30T11:16:13Z</time></trkpt>
<trkpt lat="48.75836945" lon="1.89278102"><ele></ele><time>2014-6-30T11:16:16Z</time></trkpt>
<trkpt lat="48.75841522" lon="1.89337206"><ele></ele><time>2014-6-30T11:16:19Z</time></trkpt>
<trkpt lat="48.75850677" lon="1.89395297"><ele></ele><time>2014-6-30T11:16:22Z</time></trkpt>
<trkpt lat="48.75860214" lon="1.89425004"><ele></ele><time>2014-6-30T11:16:25Z</time></trkpt>
<trkpt lat="48.75862122" lon="1.89429796"><ele></ele><time>2014-6-30T11:16:28Z</time></trkpt>
<trkpt lat="48.75880051" lon="1.89432597"><ele></ele><time>2014-6-30T11:16:31Z</time></trkpt>
<trkpt lat="48.75913239" lon="1.89404595"><ele></ele><time>2014-6-30T11:16:34Z</time></trkpt>
<trkpt lat="48.75951004" lon="1.89390397"><ele></ele><time>2014-6-30T11:16:37Z</time></trkpt>
<trkpt lat="48.75960541" lon="1.89389396"><ele></ele><time>2014-6-30T11:16:40Z</time></trkpt>
<trkpt lat="48.75994110" lon="1.89395702"><ele></ele><time>2014-6-30T11:16:43Z</time></trkpt>
<trkpt lat="48.76036453" lon="1.89392698"><ele></ele><time>2014-6-30T11:16:46Z</time></trkpt>
<trkpt lat="48.76079178" lon="1.89374900"><ele></ele><time>2014-6-30T11:16:49Z</time></trkpt>
<trkpt lat="48.76094437" lon="1.89365602"><ele></ele><time>2014-6-30T11:16:52Z</time></trkpt>
<trkpt lat="48.76110077" lon="1.89353597"><ele></ele><time>2014-6-30T11:16:55Z</time></trkpt>
<trkpt lat="48.76127625" lon="1.89342105"><ele></ele><time>2014-6-30T11:16:58Z</time></trkpt>
<trkpt lat="48.76145935" lon="1.89332998"><ele></ele><time>2014-6-30T11:17:1Z</time></trkpt>
<trkpt lat="48.76153946" lon="1.89329195"><ele></ele><time>2014-6-30T11:17:4Z</time></trkpt>
<trkpt lat="48.76181412" lon="1.89321601"><ele></ele><time>2014-6-30T11:17:7Z</time></trkpt>
<trkpt lat="48.76218796" lon="1.89319003"><ele></ele><time>2014-6-30T11:17:10Z</time></trkpt>
<trkpt lat="48.76235962" lon="1.89302802"><ele></ele><time>2014-6-30T11:17:13Z</time></trkpt>
<trkpt lat="48.76247787" lon="1.89284098"><ele></ele><time>2014-6-30T11:17:16Z</time></trkpt>
<trkpt lat="48.76285172" lon="1.89266002"><ele></ele><time>2014-6-30T11:17:19Z</time></trkpt>
<trkpt lat="48.76305389" lon="1.89277506"><ele></ele><time>2014-6-30T11:17:22Z</time></trkpt>
<trkpt lat="48.76347733" lon="1.89303195"><ele></ele><time>2014-6-30T11:17:25Z</time></trkpt>
<trkpt lat="48.76383209" lon="1.89324701"><ele></ele><time>2014-6-30T11:17:28Z</time></trkpt>
<trkpt lat="48.76419830" lon="1.89345503"><ele></ele><time>2014-6-30T11:17:31Z</time></trkpt>
<trkpt lat="48.76440430" lon="1.89356899"><ele></ele><time>2014-6-30T11:17:34Z</time></trkpt>
<trkpt lat="48.76482773" lon="1.89380300"><ele></ele><time>2014-6-30T11:17:37Z</time></trkpt>
<trkpt lat="48.76512527" lon="1.89395905"><ele></ele><time>2014-6-30T11:17:40Z</time></trkpt>
<trkpt lat="48.76527023" lon="1.89416695"><ele></ele><time>2014-6-30T11:17:43Z</time></trkpt>
<trkpt lat="48.76554871" lon="1.89460802"><ele></ele><time>2014-6-30T11:17:46Z</time></trkpt>
<trkpt lat="48.76570129" lon="1.89510000"><ele></ele><time>2014-6-30T11:17:49Z</time></trkpt>
<trkpt lat="48.76568985" lon="1.89565802"><ele></ele><time>2014-6-30T11:17:52Z</time></trkpt>
<trkpt lat="48.76575851" lon="1.89618301"><ele></ele><time>2014-6-30T11:17:55Z</time></trkpt>
<trkpt lat="48.76586914" lon="1.89674306"><ele></ele><time>2014-6-30T11:17:58Z</time></trkpt>
<trkpt lat="48.76590729" lon="1.89690900"><ele></ele><time>2014-6-30T11:18:1Z</time></trkpt>
<trkpt lat="48.76596069" lon="1.89700997"><ele></ele><time>2014-6-30T11:18:4Z</time></trkpt>
<trkpt lat="48.76597977" lon="1.89703798"><ele></ele><time>2014-6-30T11:18:7Z</time></trkpt>
<trkpt lat="48.76609421" lon="1.89725399"><ele></ele><time>2014-6-30T11:18:10Z</time></trkpt>
<trkpt lat="48.76616287" lon="1.89736199"><ele></ele><time>2014-6-30T11:18:13Z</time></trkpt>
<trkpt lat="48.76622391" lon="1.89794803"><ele></ele><time>2014-6-30T11:18:16Z</time></trkpt>
<trkpt lat="48.76622009" lon="1.89800704"><ele></ele><time>2014-6-30T11:18:19Z</time></trkpt>
<trkpt lat="48.76621628" lon="1.89802504"><ele></ele><time>2014-6-30T11:18:22Z</time></trkpt>
<trkpt lat="48.76618958" lon="1.89820504"><ele></ele><time>2014-6-30T11:18:25Z</time></trkpt>
<trkpt lat="48.76618576" lon="1.89824295"><ele></ele><time>2014-6-30T11:18:28Z</time></trkpt>
<trkpt lat="48.76618958" lon="1.89833498"><ele></ele><time>2014-6-30T11:18:31Z</time></trkpt>
<trkpt lat="48.76617432" lon="1.89854097"><ele></ele><time>2014-6-30T11:18:34Z</time></trkpt>
<trkpt lat="48.76617050" lon="1.89857900"><ele></ele><time>2014-6-30T11:18:37Z</time></trkpt>
<trkpt lat="48.76615524" lon="1.89872003"><ele></ele><time>2014-6-30T11:18:40Z</time></trkpt>
<trkpt lat="48.76614380" lon="1.89885700"><ele></ele><time>2014-6-30T11:18:43Z</time></trkpt>
<trkpt lat="48.76613998" lon="1.89889598"><ele></ele><time>2014-6-30T11:18:46Z</time></trkpt>
<trkpt lat="48.76610565" lon="1.89912105"><ele></ele><time>2014-6-30T11:18:49Z</time></trkpt>
<trkpt lat="48.76610184" lon="1.89923298"><ele></ele><time>2014-6-30T11:18:52Z</time></trkpt>
<trkpt lat="48.76610184" lon="1.89925396"><ele></ele><time>2014-6-30T11:18:55Z</time></trkpt>
<trkpt lat="48.76608658" lon="1.89930904"><ele></ele><time>2014-6-30T11:18:58Z</time></trkpt>
<trkpt lat="48.76607895" lon="1.89933598"><ele></ele><time>2014-6-30T11:19:1Z</time></trkpt>
<trkpt lat="48.76607132" lon="1.89940500"><ele></ele><time>2014-6-30T11:19:4Z</time></trkpt>
<trkpt lat="48.76606369" lon="1.89944899"><ele></ele><time>2014-6-30T11:19:7Z</time></trkpt>
<trkpt lat="48.76605606" lon="1.89945495"><ele></ele><time>2014-6-30T11:19:10Z</time></trkpt>
<trkpt lat="48.76602554" lon="1.89952505"><ele></ele><time>2014-6-30T11:19:13Z</time></trkpt>
<trkpt lat="48.76600266" lon="1.89960897"><ele></ele><time>2014-6-30T11:19:16Z</time></trkpt>
<trkpt lat="48.76594925" lon="1.89976299"><ele></ele><time>2014-6-30T11:19:19Z</time></trkpt>
<trkpt lat="48.76589584" lon="1.89989805"><ele></ele><time>2014-6-30T11:19:22Z</time></trkpt>
<trkpt lat="48.76580048" lon="1.90012503"><ele></ele><time>2014-6-30T11:19:25Z</time></trkpt>
<trkpt lat="48.76575089" lon="1.90025795"><ele></ele><time>2014-6-30T11:19:28Z</time></trkpt>
<trkpt lat="48.76557541" lon="1.90066195"><ele></ele><time>2014-6-30T11:19:31Z</time></trkpt>
<trkpt lat="48.76549911" lon="1.90099502"><ele></ele><time>2014-6-30T11:19:34Z</time></trkpt>
<trkpt lat="48.76549911" lon="1.90101600"><ele></ele><time>2014-6-30T11:19:37Z</time></trkpt>
<trkpt lat="48.76549911" lon="1.90103602"><ele></ele><time>2014-6-30T11:19:40Z</time></trkpt>
<trkpt lat="48.76548004" lon="1.90111899"><ele></ele><time>2014-6-30T11:19:43Z</time></trkpt>
<trkpt lat="48.76548767" lon="1.90119898"><ele></ele><time>2014-6-30T11:19:46Z</time></trkpt>
<trkpt lat="48.76549149" lon="1.90123999"><ele></ele><time>2014-6-30T11:19:49Z</time></trkpt>
<trkpt lat="48.76544952" lon="1.90156102"><ele></ele><time>2014-6-30T11:19:52Z</time></trkpt>
<trkpt lat="48.76539612" lon="1.90176904"><ele></ele><time>2014-6-30T11:19:55Z</time></trkpt>
<trkpt lat="48.76532364" lon="1.90201998"><ele></ele><time>2014-6-30T11:19:58Z</time></trkpt>
<trkpt lat="48.76530457" lon="1.90222204"><ele></ele><time>2014-6-30T11:20:1Z</time></trkpt>
<trkpt lat="48.76520157" lon="1.90286100"><ele></ele><time>2014-6-30T11:20:4Z</time></trkpt>
<trkpt lat="48.76529312" lon="1.90328598"><ele></ele><time>2014-6-30T11:20:7Z</time></trkpt>
<trkpt lat="48.76536560" lon="1.90379798"><ele></ele><time>2014-6-30T11:20:10Z</time></trkpt>
<trkpt lat="48.76536560" lon="1.90397000"><ele></ele><time>2014-6-30T11:20:13Z</time></trkpt>
<trkpt lat="48.76542282" lon="1.90446699"><ele></ele><time>2014-6-30T11:20:16Z</time></trkpt>
<trkpt lat="48.76549149" lon="1.90462196"><ele></ele><time>2014-6-30T11:20:19Z</time></trkpt>
<trkpt lat="48.76548386" lon="1.90456903"><ele></ele><time>2014-6-30T11:20:22Z</time></trkpt>
<trkpt lat="48.76581955" lon="1.90435803"><ele></ele><time>2014-6-30T11:20:25Z</time></trkpt>
<trkpt lat="48.76612091" lon="1.90455699"><ele></ele><time>2014-6-30T11:20:28Z</time></trkpt>
<trkpt lat="48.76633453" lon="1.90480494"><ele></ele><time>2014-6-30T11:20:31Z</time></trkpt>
<trkpt lat="48.76636124" lon="1.90484202"><ele></ele><time>2014-6-30T11:20:34Z</time></trkpt>
<trkpt lat="48.76638031" lon="1.90484297"><ele></ele><time>2014-6-30T11:20:37Z</time></trkpt>
<trkpt lat="48.76639938" lon="1.90485096"><ele></ele><time>2014-6-30T11:20:40Z</time></trkpt>
<trkpt lat="48.76651382" lon="1.90480804"><ele></ele><time>2014-6-30T11:20:43Z</time></trkpt>
<trkpt lat="48.76694489" lon="1.90460002"><ele></ele><time>2014-6-30T11:20:46Z</time></trkpt>
<trkpt lat="48.76721954" lon="1.90449500"><ele></ele><time>2014-6-30T11:20:49Z</time></trkpt>
<trkpt lat="48.76732635" lon="1.90443099"><ele></ele><time>2014-6-30T11:20:52Z</time></trkpt>
<trkpt lat="48.76759338" lon="1.90425503"><ele></ele><time>2014-6-30T11:20:55Z</time></trkpt>
<trkpt lat="48.76783752" lon="1.90419602"><ele></ele><time>2014-6-30T11:20:58Z</time></trkpt>
<trkpt lat="48.76827621" lon="1.90426695"><ele></ele><time>2014-6-30T11:21:1Z</time></trkpt>
<trkpt lat="48.76864624" lon="1.90436006"><ele></ele><time>2014-6-30T11:21:4Z</time></trkpt>
<trkpt lat="48.76902008" lon="1.90447199"><ele></ele><time>2014-6-30T11:21:7Z</time></trkpt>
<trkpt lat="48.76939774" lon="1.90446806"><ele></ele><time>2014-6-30T11:21:10Z</time></trkpt>
<trkpt lat="48.76945496" lon="1.90446603"><ele></ele><time>2014-6-30T11:21:13Z</time></trkpt>
<trkpt lat="48.76957321" lon="1.90445197"><ele></ele><time>2014-6-30T11:21:16Z</time></trkpt>
<trkpt lat="48.76999283" lon="1.90440500"><ele></ele><time>2014-6-30T11:21:19Z</time></trkpt>
<trkpt lat="48.77022171" lon="1.90436900"><ele></ele><time>2014-6-30T11:21:22Z</time></trkpt>
<trkpt lat="48.77048492" lon="1.90433300"><ele></ele><time>2014-6-30T11:21:25Z</time></trkpt>
<trkpt lat="48.77062988" lon="1.90431297"><ele></ele><time>2014-6-30T11:21:28Z</time></trkpt>
<trkpt lat="48.77094269" lon="1.90432096"><ele></ele><time>2014-6-30T11:21:31Z</time></trkpt>
<trkpt lat="48.77112961" lon="1.90432894"><ele></ele><time>2014-6-30T11:21:34Z</time></trkpt>
<trkpt lat="48.77128983" lon="1.90434003"><ele></ele><time>2014-6-30T11:21:37Z</time></trkpt>
<trkpt lat="48.77170944" lon="1.90438497"><ele></ele><time>2014-6-30T11:21:40Z</time></trkpt>
<trkpt lat="48.77185059" lon="1.90437305"><ele></ele><time>2014-6-30T11:21:43Z</time></trkpt>
<trkpt lat="48.77209473" lon="1.90439701"><ele></ele><time>2014-6-30T11:21:46Z</time></trkpt>
<trkpt lat="48.77243423" lon="1.90428805"><ele></ele><time>2014-6-30T11:21:49Z</time></trkpt>
<trkpt lat="48.77269363" lon="1.90423501"><ele></ele><time>2014-6-30T11:21:52Z</time></trkpt>
<trkpt lat="48.77280426" lon="1.90416300"><ele></ele><time>2014-6-30T11:21:55Z</time></trkpt>
<trkpt lat="48.77301788" lon="1.90401804"><ele></ele><time>2014-6-30T11:21:58Z</time></trkpt>
<trkpt lat="48.77323532" lon="1.90383995"><ele></ele><time>2014-6-30T11:22:1Z</time></trkpt>
<trkpt lat="48.77345276" lon="1.90367603"><ele></ele><time>2014-6-30T11:22:4Z</time></trkpt>
<trkpt lat="48.77375793" lon="1.90343499"><ele></ele><time>2014-6-30T11:22:7Z</time></trkpt>
<trkpt lat="48.77425385" lon="1.90334702"><ele></ele><time>2014-6-30T11:22:10Z</time></trkpt>
<trkpt lat="48.77442551" lon="1.90334296"><ele></ele><time>2014-6-30T11:22:13Z</time></trkpt>
<trkpt lat="48.77456284" lon="1.90328503"><ele></ele><time>2014-6-30T11:22:16Z</time></trkpt>
<trkpt lat="48.77509308" lon="1.90347302"><ele></ele><time>2014-6-30T11:22:19Z</time></trkpt>
<trkpt lat="48.77524948" lon="1.90355694"><ele></ele><time>2014-6-30T11:22:22Z</time></trkpt>
<trkpt lat="48.77568436" lon="1.90373194"><ele></ele><time>2014-6-30T11:22:25Z</time></trkpt>
<trkpt lat="48.77588272" lon="1.90382397"><ele></ele><time>2014-6-30T11:22:28Z</time></trkpt>
<trkpt lat="48.77624512" lon="1.90399504"><ele></ele><time>2014-6-30T11:22:31Z</time></trkpt>
<trkpt lat="48.77630234" lon="1.90402305"><ele></ele><time>2014-6-30T11:22:34Z</time></trkpt>
<trkpt lat="48.77635193" lon="1.90426803"><ele></ele><time>2014-6-30T11:22:37Z</time></trkpt>
<trkpt lat="48.77631378" lon="1.90445006"><ele></ele><time>2014-6-30T11:22:40Z</time></trkpt>
<trkpt lat="48.77623367" lon="1.90514600"><ele></ele><time>2014-6-30T11:22:43Z</time></trkpt>
<trkpt lat="48.77624130" lon="1.90574896"><ele></ele><time>2014-6-30T11:22:46Z</time></trkpt>
<trkpt lat="48.77630997" lon="1.90638995"><ele></ele><time>2014-6-30T11:22:49Z</time></trkpt>
<trkpt lat="48.77635956" lon="1.90680504"><ele></ele><time>2014-6-30T11:22:52Z</time></trkpt>
<trkpt lat="48.77669525" lon="1.90712094"><ele></ele><time>2014-6-30T11:22:55Z</time></trkpt>
<trkpt lat="48.77675629" lon="1.90715694"><ele></ele><time>2014-6-30T11:22:58Z</time></trkpt>
<trkpt lat="48.77715302" lon="1.90757406"><ele></ele><time>2014-6-30T11:23:1Z</time></trkpt>
<trkpt lat="48.77743149" lon="1.90788698"><ele></ele><time>2014-6-30T11:23:4Z</time></trkpt>
<trkpt lat="48.77782059" lon="1.90790200"><ele></ele><time>2014-6-30T11:23:7Z</time></trkpt>
<trkpt lat="48.77810287" lon="1.90758395"><ele></ele><time>2014-6-30T11:23:10Z</time></trkpt>
<trkpt lat="48.77819061" lon="1.90741396"><ele></ele><time>2014-6-30T11:23:13Z</time></trkpt>
<trkpt lat="48.77839279" lon="1.90672505"><ele></ele><time>2014-6-30T11:23:16Z</time></trkpt>
<trkpt lat="48.77853775" lon="1.90618002"><ele></ele><time>2014-6-30T11:23:19Z</time></trkpt>
<trkpt lat="48.77865982" lon="1.90584600"><ele></ele><time>2014-6-30T11:23:22Z</time></trkpt>
<trkpt lat="48.77890396" lon="1.90529704"><ele></ele><time>2014-6-30T11:23:25Z</time></trkpt>
<trkpt lat="48.77912140" lon="1.90481400"><ele></ele><time>2014-6-30T11:23:28Z</time></trkpt>
<trkpt lat="48.77935791" lon="1.90430200"><ele></ele><time>2014-6-30T11:23:31Z</time></trkpt>
<trkpt lat="48.77959824" lon="1.90379095"><ele></ele><time>2014-6-30T11:23:34Z</time></trkpt>
<trkpt lat="48.77974319" lon="1.90344298"><ele></ele><time>2014-6-30T11:23:37Z</time></trkpt>
<trkpt lat="48.77993393" lon="1.90336394"><ele></ele><time>2014-6-30T11:23:40Z</time></trkpt>
<trkpt lat="48.78022385" lon="1.90353894"><ele></ele><time>2014-6-30T11:23:43Z</time></trkpt>
<trkpt lat="48.78035736" lon="1.90380704"><ele></ele><time>2014-6-30T11:23:46Z</time></trkpt>
<trkpt lat="48.78041840" lon="1.90446997"><ele></ele><time>2014-6-30T11:23:49Z</time></trkpt>
<trkpt lat="48.78051758" lon="1.90504205"><ele></ele><time>2014-6-30T11:23:52Z</time></trkpt>
<trkpt lat="48.78065872" lon="1.90558600"><ele></ele><time>2014-6-30T11:23:55Z</time></trkpt>
<trkpt lat="48.78086472" lon="1.90611005"><ele></ele><time>2014-6-30T11:23:58Z</time></trkpt>
<trkpt lat="48.78110886" lon="1.90663302"><ele></ele><time>2014-6-30T11:24:1Z</time></trkpt>
<trkpt lat="48.78123856" lon="1.90714002"><ele></ele><time>2014-6-30T11:24:4Z</time></trkpt>
<trkpt lat="48.78132248" lon="1.90778100"><ele></ele><time>2014-6-30T11:24:7Z</time></trkpt>
<trkpt lat="48.78142548" lon="1.90831697"><ele></ele><time>2014-6-30T11:24:10Z</time></trkpt>
<trkpt lat="48.78144836" lon="1.90842605"><ele></ele><time>2014-6-30T11:24:13Z</time></trkpt>
<trkpt lat="48.78157425" lon="1.90900600"><ele></ele><time>2014-6-30T11:24:16Z</time></trkpt>
<trkpt lat="48.78170776" lon="1.90962994"><ele></ele><time>2014-6-30T11:24:19Z</time></trkpt>
<trkpt lat="48.78173065" lon="1.90975296"><ele></ele><time>2014-6-30T11:24:22Z</time></trkpt>
<trkpt lat="48.78184509" lon="1.91033494"><ele></ele><time>2014-6-30T11:24:25Z</time></trkpt>
<trkpt lat="48.78188705" lon="1.91101003"><ele></ele><time>2014-6-30T11:24:28Z</time></trkpt>
<trkpt lat="48.78186798" lon="1.91155195"><ele></ele><time>2014-6-30T11:24:31Z</time></trkpt>
<trkpt lat="48.78186417" lon="1.91181505"><ele></ele><time>2014-6-30T11:24:34Z</time></trkpt>
<trkpt lat="48.78186798" lon="1.91193199"><ele></ele><time>2014-6-30T11:24:37Z</time></trkpt>
<trkpt lat="48.78187180" lon="1.91193700"><ele></ele><time>2014-6-30T11:24:40Z</time></trkpt>
<trkpt lat="48.78187943" lon="1.91187406"><ele></ele><time>2014-6-30T11:24:43Z</time></trkpt>
<trkpt lat="48.78187943" lon="1.91187406"><ele></ele><time>2014-6-30T11:24:46Z</time></trkpt>
<trkpt lat="48.78187561" lon="1.91189802"><ele></ele><time>2014-6-30T11:24:49Z</time></trkpt>
<trkpt lat="48.78187943" lon="1.91205204"><ele></ele><time>2014-6-30T11:24:52Z</time></trkpt>
<trkpt lat="48.78186798" lon="1.91243804"><ele></ele><time>2014-6-30T11:24:55Z</time></trkpt>
<trkpt lat="48.78186798" lon="1.91258097"><ele></ele><time>2014-6-30T11:24:58Z</time></trkpt>
<trkpt lat="48.78187180" lon="1.91270101"><ele></ele><time>2014-6-30T11:25:1Z</time></trkpt>
<trkpt lat="48.78188705" lon="1.91285396"><ele></ele><time>2014-6-30T11:25:4Z</time></trkpt>
<trkpt lat="48.78189468" lon="1.91288304"><ele></ele><time>2014-6-30T11:25:7Z</time></trkpt>
<trkpt lat="48.78190613" lon="1.91303003"><ele></ele><time>2014-6-30T11:25:10Z</time></trkpt>
<trkpt lat="48.78190613" lon="1.91305900"><ele></ele><time>2014-6-30T11:25:13Z</time></trkpt>
<trkpt lat="48.78190613" lon="1.91308701"><ele></ele><time>2014-6-30T11:25:16Z</time></trkpt>
<trkpt lat="48.78191376" lon="1.91317594"><ele></ele><time>2014-6-30T11:25:19Z</time></trkpt>
<trkpt lat="48.78192139" lon="1.91341102"><ele></ele><time>2014-6-30T11:25:22Z</time></trkpt>
<trkpt lat="48.78198242" lon="1.91404998"><ele></ele><time>2014-6-30T11:25:25Z</time></trkpt>
<trkpt lat="48.78200150" lon="1.91418302"><ele></ele><time>2014-6-30T11:25:28Z</time></trkpt>
<trkpt lat="48.78206253" lon="1.91461802"><ele></ele><time>2014-6-30T11:25:31Z</time></trkpt>
<trkpt lat="48.78213882" lon="1.91517496"><ele></ele><time>2014-6-30T11:25:34Z</time></trkpt>
<trkpt lat="48.78221130" lon="1.91574800"><ele></ele><time>2014-6-30T11:25:37Z</time></trkpt>
<trkpt lat="48.78228760" lon="1.91628397"><ele></ele><time>2014-6-30T11:25:40Z</time></trkpt>
<trkpt lat="48.78240585" lon="1.91682100"><ele></ele><time>2014-6-30T11:25:43Z</time></trkpt>
<trkpt lat="48.78252029" lon="1.91740596"><ele></ele><time>2014-6-30T11:25:46Z</time></trkpt>
<trkpt lat="48.78254700" lon="1.91752601"><ele></ele><time>2014-6-30T11:25:49Z</time></trkpt>
<trkpt lat="48.78251266" lon="1.91774094"><ele></ele><time>2014-6-30T11:25:52Z</time></trkpt>
<trkpt lat="48.78216553" lon="1.91811395"><ele></ele><time>2014-6-30T11:25:55Z</time></trkpt>
<trkpt lat="48.78208542" lon="1.91818094"><ele></ele><time>2014-6-30T11:25:58Z</time></trkpt>
<trkpt lat="48.78176117" lon="1.91850197"><ele></ele><time>2014-6-30T11:26:1Z</time></trkpt>
<trkpt lat="48.78145218" lon="1.91899800"><ele></ele><time>2014-6-30T11:26:4Z</time></trkpt>
<trkpt lat="48.78140640" lon="1.91908896"><ele></ele><time>2014-6-30T11:26:7Z</time></trkpt>
<trkpt lat="48.78132629" lon="1.91928399"><ele></ele><time>2014-6-30T11:26:10Z</time></trkpt>
<trkpt lat="48.78115082" lon="1.91974401"><ele></ele><time>2014-6-30T11:26:13Z</time></trkpt>
<trkpt lat="48.78105164" lon="1.91993999"><ele></ele><time>2014-6-30T11:26:16Z</time></trkpt>
<trkpt lat="48.78095245" lon="1.92007506"><ele></ele><time>2014-6-30T11:26:19Z</time></trkpt>
<trkpt lat="48.78061676" lon="1.92031097"><ele></ele><time>2014-6-30T11:26:22Z</time></trkpt>
<trkpt lat="48.78044128" lon="1.92042804"><ele></ele><time>2014-6-30T11:26:25Z</time></trkpt>
<trkpt lat="48.78008270" lon="1.92073798"><ele></ele><time>2014-6-30T11:26:28Z</time></trkpt>
<trkpt lat="48.77990341" lon="1.92087901"><ele></ele><time>2014-6-30T11:26:31Z</time></trkpt>
<trkpt lat="48.77955246" lon="1.92113805"><ele></ele><time>2014-6-30T11:26:34Z</time></trkpt>
<trkpt lat="48.77951050" lon="1.92116499"><ele></ele><time>2014-6-30T11:26:37Z</time></trkpt>
<trkpt lat="48.77915192" lon="1.92135704"><ele></ele><time>2014-6-30T11:26:40Z</time></trkpt>
<trkpt lat="48.77902985" lon="1.92143202"><ele></ele><time>2014-6-30T11:26:43Z</time></trkpt>
<trkpt lat="48.77888489" lon="1.92183197"><ele></ele><time>2014-6-30T11:26:46Z</time></trkpt>
<trkpt lat="48.77896500" lon="1.92198801"><ele></ele><time>2014-6-30T11:26:49Z</time></trkpt>
<trkpt lat="48.77899933" lon="1.92206502"><ele></ele><time>2014-6-30T11:26:52Z</time></trkpt>
<trkpt lat="48.77901840" lon="1.92210400"><ele></ele><time>2014-6-30T11:26:55Z</time></trkpt>
<trkpt lat="48.77907562" lon="1.92223406"><ele></ele><time>2014-6-30T11:26:58Z</time></trkpt>
<trkpt lat="48.77910233" lon="1.92233706"><ele></ele><time>2014-6-30T11:27:1Z</time></trkpt>
<trkpt lat="48.77914810" lon="1.92242396"><ele></ele><time>2014-6-30T11:27:4Z</time></trkpt>
<trkpt lat="48.77917862" lon="1.92244804"><ele></ele><time>2014-6-30T11:27:7Z</time></trkpt>
<trkpt lat="48.77918625" lon="1.92245996"><ele></ele><time>2014-6-30T11:27:10Z</time></trkpt>
<trkpt lat="48.77920914" lon="1.92247605"><ele></ele><time>2014-6-30T11:27:13Z</time></trkpt>
<trkpt lat="48.77922058" lon="1.92248201"><ele></ele><time>2014-6-30T11:27:16Z</time></trkpt>
<trkpt lat="48.77922821" lon="1.92249095"><ele></ele><time>2014-6-30T11:27:19Z</time></trkpt>
<trkpt lat="48.77938461" lon="1.92248702"><ele></ele><time>2014-6-30T11:27:22Z</time></trkpt>
<trkpt lat="48.77940369" lon="1.92248595"><ele></ele><time>2014-6-30T11:27:25Z</time></trkpt>
<trkpt lat="48.77951813" lon="1.92248595"><ele></ele><time>2014-6-30T11:27:28Z</time></trkpt>
<trkpt lat="48.77959061" lon="1.92248595"><ele></ele><time>2014-6-30T11:27:31Z</time></trkpt>
<trkpt lat="48.77962875" lon="1.92249894"><ele></ele><time>2014-6-30T11:27:34Z</time></trkpt>
<trkpt lat="48.77961349" lon="1.92257500"><ele></ele><time>2014-6-30T11:27:37Z</time></trkpt>
<trkpt lat="48.77960587" lon="1.92264605"><ele></ele><time>2014-6-30T11:27:40Z</time></trkpt>
<trkpt lat="48.77960587" lon="1.92266595"><ele></ele><time>2014-6-30T11:27:43Z</time></trkpt>
<trkpt lat="48.77959061" lon="1.92271304"><ele></ele><time>2014-6-30T11:27:46Z</time></trkpt>
<trkpt lat="48.77952194" lon="1.92286205"><ele></ele><time>2014-6-30T11:27:49Z</time></trkpt>
<trkpt lat="48.77954102" lon="1.92288303"><ele></ele><time>2014-6-30T11:27:52Z</time></trkpt>
<trkpt lat="48.77964020" lon="1.92256606"><ele></ele><time>2014-6-30T11:27:55Z</time></trkpt>
<trkpt lat="48.77965164" lon="1.92257297"><ele></ele><time>2014-6-30T11:27:58Z</time></trkpt>
<trkpt lat="48.77964401" lon="1.92261398"><ele></ele><time>2014-6-30T11:28:1Z</time></trkpt>
<trkpt lat="48.77958298" lon="1.92282701"><ele></ele><time>2014-6-30T11:28:4Z</time></trkpt>
<trkpt lat="48.77959061" lon="1.92281103"><ele></ele><time>2014-6-30T11:28:7Z</time></trkpt>
<trkpt lat="48.77962875" lon="1.92267394"><ele></ele><time>2014-6-30T11:28:10Z</time></trkpt>
<trkpt lat="48.77963638" lon="1.92244005"><ele></ele><time>2014-6-30T11:28:13Z</time></trkpt>
<trkpt lat="48.77961731" lon="1.92223799"><ele></ele><time>2014-6-30T11:28:16Z</time></trkpt>
<trkpt lat="48.77964783" lon="1.92226398"><ele></ele><time>2014-6-30T11:28:19Z</time></trkpt>
<trkpt lat="48.77965164" lon="1.92228794"><ele></ele><time>2014-6-30T11:28:22Z</time></trkpt>
<trkpt lat="48.77964020" lon="1.92243505"><ele></ele><time>2014-6-30T11:28:25Z</time></trkpt>
<trkpt lat="48.77962494" lon="1.92266798"><ele></ele><time>2014-6-30T11:28:28Z</time></trkpt>
<trkpt lat="48.77956772" lon="1.92290604"><ele></ele><time>2014-6-30T11:28:31Z</time></trkpt>
<trkpt lat="48.77953339" lon="1.92293203"><ele></ele><time>2014-6-30T11:28:34Z</time></trkpt>
<trkpt lat="48.77952576" lon="1.92298603"><ele></ele><time>2014-6-30T11:28:37Z</time></trkpt>
<trkpt lat="48.77952194" lon="1.92300403"><ele></ele><time>2014-6-30T11:28:40Z</time></trkpt>
<trkpt lat="48.77963257" lon="1.92264104"><ele></ele><time>2014-6-30T11:28:43Z</time></trkpt>
<trkpt lat="48.77964020" lon="1.92225301"><ele></ele><time>2014-6-30T11:28:46Z</time></trkpt>
<trkpt lat="48.77962112" lon="1.92226899"><ele></ele><time>2014-6-30T11:28:49Z</time></trkpt>
<trkpt lat="48.77962875" lon="1.92238104"><ele></ele><time>2014-6-30T11:28:52Z</time></trkpt>
<trkpt lat="48.77967072" lon="1.92250097"><ele></ele><time>2014-6-30T11:28:55Z</time></trkpt>
<trkpt lat="48.77972031" lon="1.92254806"><ele></ele><time>2014-6-30T11:28:58Z</time></trkpt>
<trkpt lat="48.77977371" lon="1.92253995"><ele></ele><time>2014-6-30T11:29:1Z</time></trkpt>
<trkpt lat="48.77977371" lon="1.92254102"><ele></ele><time>2014-6-30T11:29:4Z</time></trkpt>
<trkpt lat="48.77977371" lon="1.92253995"><ele></ele><time>2014-6-30T11:29:7Z</time></trkpt>
<trkpt lat="48.77976227" lon="1.92257595"><ele></ele><time>2014-6-30T11:29:10Z</time></trkpt>
<trkpt lat="48.77976990" lon="1.92264295"><ele></ele><time>2014-6-30T11:29:13Z</time></trkpt>
<trkpt lat="48.77978134" lon="1.92272496"><ele></ele><time>2014-6-30T11:29:16Z</time></trkpt>
<trkpt lat="48.77978897" lon="1.92275596"><ele></ele><time>2014-6-30T11:29:19Z</time></trkpt>
<trkpt lat="48.77986145" lon="1.92307103"><ele></ele><time>2014-6-30T11:29:22Z</time></trkpt>
<trkpt lat="48.78008270" lon="1.92347705"><ele></ele><time>2014-6-30T11:29:25Z</time></trkpt>
<trkpt lat="48.78032684" lon="1.92370999"><ele></ele><time>2014-6-30T11:29:28Z</time></trkpt>
<trkpt lat="48.78054810" lon="1.92393696"><ele></ele><time>2014-6-30T11:29:31Z</time></trkpt>
<trkpt lat="48.78087234" lon="1.92428195"><ele></ele><time>2014-6-30T11:29:34Z</time></trkpt>
<trkpt lat="48.78104782" lon="1.92460096"><ele></ele><time>2014-6-30T11:29:37Z</time></trkpt>
<trkpt lat="48.78119659" lon="1.92477202"><ele></ele><time>2014-6-30T11:29:40Z</time></trkpt>
<trkpt lat="48.78142929" lon="1.92488801"><ele></ele><time>2014-6-30T11:29:43Z</time></trkpt>
<trkpt lat="48.78166962" lon="1.92493606"><ele></ele><time>2014-6-30T11:29:46Z</time></trkpt>
<trkpt lat="48.78176117" lon="1.92517102"><ele></ele><time>2014-6-30T11:29:49Z</time></trkpt>
<trkpt lat="48.78177261" lon="1.92532694"><ele></ele><time>2014-6-30T11:29:52Z</time></trkpt>
<trkpt lat="48.78179169" lon="1.92566895"><ele></ele><time>2014-6-30T11:29:55Z</time></trkpt>
<trkpt lat="48.78183746" lon="1.92630005"><ele></ele><time>2014-6-30T11:29:58Z</time></trkpt>
<trkpt lat="48.78186035" lon="1.92647398"><ele></ele><time>2014-6-30T11:30:1Z</time></trkpt>
<trkpt lat="48.78204727" lon="1.92718804"><ele></ele><time>2014-6-30T11:30:4Z</time></trkpt>
<trkpt lat="48.78218842" lon="1.92762494"><ele></ele><time>2014-6-30T11:30:7Z</time></trkpt>
<trkpt lat="48.78225708" lon="1.92776799"><ele></ele><time>2014-6-30T11:30:10Z</time></trkpt>
<trkpt lat="48.78240967" lon="1.92805302"><ele></ele><time>2014-6-30T11:30:13Z</time></trkpt>
<trkpt lat="48.78251648" lon="1.92837095"><ele></ele><time>2014-6-30T11:30:16Z</time></trkpt>
<trkpt lat="48.78258133" lon="1.92856097"><ele></ele><time>2014-6-30T11:30:19Z</time></trkpt>
<trkpt lat="48.78262329" lon="1.92869699"><ele></ele><time>2014-6-30T11:30:22Z</time></trkpt>
<trkpt lat="48.78266907" lon="1.92885101"><ele></ele><time>2014-6-30T11:30:25Z</time></trkpt>
<trkpt lat="48.78269196" lon="1.92893302"><ele></ele><time>2014-6-30T11:30:28Z</time></trkpt>
<trkpt lat="48.78275681" lon="1.92911506"><ele></ele><time>2014-6-30T11:30:31Z</time></trkpt>
<trkpt lat="48.78273010" lon="1.92925203"><ele></ele><time>2014-6-30T11:30:34Z</time></trkpt>
<trkpt lat="48.78272629" lon="1.92926705"><ele></ele><time>2014-6-30T11:30:37Z</time></trkpt>
<trkpt lat="48.78257370" lon="1.92939699"><ele></ele><time>2014-6-30T11:30:40Z</time></trkpt>
<trkpt lat="48.78253937" lon="1.92942297"><ele></ele><time>2014-6-30T11:30:43Z</time></trkpt>
<trkpt lat="48.78249741" lon="1.92944598"><ele></ele><time>2014-6-30T11:30:46Z</time></trkpt>
<trkpt lat="48.78244400" lon="1.92947805"><ele></ele><time>2014-6-30T11:30:49Z</time></trkpt>
<trkpt lat="48.78240204" lon="1.92949295"><ele></ele><time>2014-6-30T11:30:52Z</time></trkpt>
<trkpt lat="48.78239059" lon="1.92949700"><ele></ele><time>2014-6-30T11:30:55Z</time></trkpt>
<trkpt lat="48.78237915" lon="1.92949998"><ele></ele><time>2014-6-30T11:30:58Z</time></trkpt>
<trkpt lat="48.78237152" lon="1.92950201"><ele></ele><time>2014-6-30T11:31:1Z</time></trkpt>
<trkpt lat="48.78234100" lon="1.92951798"><ele></ele><time>2014-6-30T11:31:4Z</time></trkpt>
<trkpt lat="48.78232574" lon="1.92953706"><ele></ele><time>2014-6-30T11:31:7Z</time></trkpt>
<trkpt lat="48.78219986" lon="1.92966104"><ele></ele><time>2014-6-30T11:31:10Z</time></trkpt>
<trkpt lat="48.78218460" lon="1.92967999"><ele></ele><time>2014-6-30T11:31:13Z</time></trkpt>
<trkpt lat="48.78215790" lon="1.92969894"><ele></ele><time>2014-6-30T11:31:16Z</time></trkpt>
<trkpt lat="48.78208542" lon="1.92973399"><ele></ele><time>2014-6-30T11:31:19Z</time></trkpt>
<trkpt lat="48.78204727" lon="1.92975497"><ele></ele><time>2014-6-30T11:31:22Z</time></trkpt>
<trkpt lat="48.78196716" lon="1.92976797"><ele></ele><time>2014-6-30T11:31:25Z</time></trkpt>
<trkpt lat="48.78187561" lon="1.92983699"><ele></ele><time>2014-6-30T11:31:28Z</time></trkpt>
<trkpt lat="48.78177643" lon="1.92988002"><ele></ele><time>2014-6-30T11:31:31Z</time></trkpt>
<trkpt lat="48.78176117" lon="1.92988598"><ele></ele><time>2014-6-30T11:31:34Z</time></trkpt>
<trkpt lat="48.78136063" lon="1.93001699"><ele></ele><time>2014-6-30T11:31:37Z</time></trkpt>
<trkpt lat="48.78106308" lon="1.93030000"><ele></ele><time>2014-6-30T11:31:40Z</time></trkpt>
<trkpt lat="48.78093719" lon="1.93039203"><ele></ele><time>2014-6-30T11:31:43Z</time></trkpt>
<trkpt lat="48.78049469" lon="1.93038201"><ele></ele><time>2014-6-30T11:31:46Z</time></trkpt>
<trkpt lat="48.78026199" lon="1.93053603"><ele></ele><time>2014-6-30T11:31:49Z</time></trkpt>
<trkpt lat="48.78026962" lon="1.93063998"><ele></ele><time>2014-6-30T11:31:52Z</time></trkpt>
<trkpt lat="48.78028870" lon="1.93073404"><ele></ele><time>2014-6-30T11:31:55Z</time></trkpt>
<trkpt lat="48.78034210" lon="1.93093002"><ele></ele><time>2014-6-30T11:31:58Z</time></trkpt>
<trkpt lat="48.78035355" lon="1.93094397"><ele></ele><time>2014-6-30T11:32:1Z</time></trkpt>
<trkpt lat="48.78038788" lon="1.93100798"><ele></ele><time>2014-6-30T11:32:4Z</time></trkpt>
<trkpt lat="48.78041077" lon="1.93103397"><ele></ele><time>2014-6-30T11:32:7Z</time></trkpt>
<trkpt lat="48.78048706" lon="1.93132496"><ele></ele><time>2014-6-30T11:32:10Z</time></trkpt>
<trkpt lat="48.78054428" lon="1.93146002"><ele></ele><time>2014-6-30T11:32:13Z</time></trkpt>
<trkpt lat="48.78065109" lon="1.93169999"><ele></ele><time>2014-6-30T11:32:16Z</time></trkpt>
<trkpt lat="48.78071594" lon="1.93190598"><ele></ele><time>2014-6-30T11:32:19Z</time></trkpt>
<trkpt lat="48.78075790" lon="1.93202996"><ele></ele><time>2014-6-30T11:32:22Z</time></trkpt>
<trkpt lat="48.78089523" lon="1.93237698"><ele></ele><time>2014-6-30T11:32:25Z</time></trkpt>
<trkpt lat="48.78099060" lon="1.93262303"><ele></ele><time>2014-6-30T11:32:28Z</time></trkpt>
<trkpt lat="48.78116989" lon="1.93302906"><ele></ele><time>2014-6-30T11:32:31Z</time></trkpt>
<trkpt lat="48.78122330" lon="1.93333006"><ele></ele><time>2014-6-30T11:32:34Z</time></trkpt>
<trkpt lat="48.78118515" lon="1.93337405"><ele></ele><time>2014-6-30T11:32:37Z</time></trkpt>
<trkpt lat="48.78099442" lon="1.93380499"><ele></ele><time>2014-6-30T11:32:40Z</time></trkpt>
<trkpt lat="48.78091049" lon="1.93400800"><ele></ele><time>2014-6-30T11:32:43Z</time></trkpt>
<trkpt lat="48.78081131" lon="1.93435001"><ele></ele><time>2014-6-30T11:32:46Z</time></trkpt>
<trkpt lat="48.78065872" lon="1.93489003"><ele></ele><time>2014-6-30T11:32:49Z</time></trkpt>
<trkpt lat="48.78046799" lon="1.93531704"><ele></ele><time>2014-6-30T11:32:52Z</time></trkpt>
<trkpt lat="48.78043747" lon="1.93536496"><ele></ele><time>2014-6-30T11:32:55Z</time></trkpt>
<trkpt lat="48.78038406" lon="1.93546498"><ele></ele><time>2014-6-30T11:32:58Z</time></trkpt>
<trkpt lat="48.78024673" lon="1.93567097"><ele></ele><time>2014-6-30T11:33:1Z</time></trkpt>
<trkpt lat="48.78017044" lon="1.93579805"><ele></ele><time>2014-6-30T11:33:4Z</time></trkpt>
<trkpt lat="48.78002548" lon="1.93600202"><ele></ele><time>2014-6-30T11:33:7Z</time></trkpt>
<trkpt lat="48.78009796" lon="1.93647206"><ele></ele><time>2014-6-30T11:33:10Z</time></trkpt>
<trkpt lat="48.78026962" lon="1.93664801"><ele></ele><time>2014-6-30T11:33:13Z</time></trkpt>
<trkpt lat="48.78049469" lon="1.93689001"><ele></ele><time>2014-6-30T11:33:16Z</time></trkpt>
<trkpt lat="48.78090286" lon="1.93729699"><ele></ele><time>2014-6-30T11:33:19Z</time></trkpt>
<trkpt lat="48.78129959" lon="1.93766797"><ele></ele><time>2014-6-30T11:33:22Z</time></trkpt>
<trkpt lat="48.78146362" lon="1.93779600"><ele></ele><time>2014-6-30T11:33:25Z</time></trkpt>
<trkpt lat="48.78171158" lon="1.93802500"><ele></ele><time>2014-6-30T11:33:28Z</time></trkpt>
<trkpt lat="48.78192902" lon="1.93824601"><ele></ele><time>2014-6-30T11:33:31Z</time></trkpt>
<trkpt lat="48.78202057" lon="1.93835604"><ele></ele><time>2014-6-30T11:33:34Z</time></trkpt>
<trkpt lat="48.78210068" lon="1.93847501"><ele></ele><time>2014-6-30T11:33:37Z</time></trkpt>
<trkpt lat="48.78227615" lon="1.93867195"><ele></ele><time>2014-6-30T11:33:40Z</time></trkpt>
<trkpt lat="48.78253937" lon="1.93886602"><ele></ele><time>2014-6-30T11:33:43Z</time></trkpt>
<trkpt lat="48.78302383" lon="1.93882298"><ele></ele><time>2014-6-30T11:33:46Z</time></trkpt>
<trkpt lat="48.78322220" lon="1.93868506"><ele></ele><time>2014-6-30T11:33:49Z</time></trkpt>
<trkpt lat="48.78360748" lon="1.93845296"><ele></ele><time>2014-6-30T11:33:52Z</time></trkpt>
<trkpt lat="48.78379059" lon="1.93832004"><ele></ele><time>2014-6-30T11:33:55Z</time></trkpt>
<trkpt lat="48.78421402" lon="1.93787801"><ele></ele><time>2014-6-30T11:33:58Z</time></trkpt>
<trkpt lat="48.78459167" lon="1.93751800"><ele></ele><time>2014-6-30T11:34:1Z</time></trkpt>
<trkpt lat="48.78467941" lon="1.93743598"><ele></ele><time>2014-6-30T11:34:4Z</time></trkpt>
<trkpt lat="48.78487396" lon="1.93701303"><ele></ele><time>2014-6-30T11:34:7Z</time></trkpt>
<trkpt lat="48.78493118" lon="1.93629098"><ele></ele><time>2014-6-30T11:34:10Z</time></trkpt>
<trkpt lat="48.78493881" lon="1.93616903"><ele></ele><time>2014-6-30T11:34:13Z</time></trkpt>
<trkpt lat="48.78499222" lon="1.93559301"><ele></ele><time>2014-6-30T11:34:16Z</time></trkpt>
<trkpt lat="48.78504562" lon="1.93504000"><ele></ele><time>2014-6-30T11:34:19Z</time></trkpt>
<trkpt lat="48.78510666" lon="1.93440497"><ele></ele><time>2014-6-30T11:34:22Z</time></trkpt>
<trkpt lat="48.78517532" lon="1.93380594"><ele></ele><time>2014-6-30T11:34:25Z</time></trkpt>
<trkpt lat="48.78520966" lon="1.93352997"><ele></ele><time>2014-6-30T11:34:28Z</time></trkpt>
<trkpt lat="48.78544235" lon="1.93327403"><ele></ele><time>2014-6-30T11:34:31Z</time></trkpt>
<trkpt lat="48.78572845" lon="1.93302798"><ele></ele><time>2014-6-30T11:34:34Z</time></trkpt>
<trkpt lat="48.78576279" lon="1.93281806"><ele></ele><time>2014-6-30T11:34:37Z</time></trkpt>
<trkpt lat="48.78606415" lon="1.93278003"><ele></ele><time>2014-6-30T11:34:40Z</time></trkpt>
<trkpt lat="48.78638840" lon="1.93293202"><ele></ele><time>2014-6-30T11:34:43Z</time></trkpt>
<trkpt lat="48.78675461" lon="1.93312895"><ele></ele><time>2014-6-30T11:34:46Z</time></trkpt>
<trkpt lat="48.78710938" lon="1.93333399"><ele></ele><time>2014-6-30T11:34:49Z</time></trkpt>
<trkpt lat="48.78745651" lon="1.93351305"><ele></ele><time>2014-6-30T11:34:52Z</time></trkpt>
<trkpt lat="48.78788376" lon="1.93367696"><ele></ele><time>2014-6-30T11:34:55Z</time></trkpt>
<trkpt lat="48.78824615" lon="1.93379402"><ele></ele><time>2014-6-30T11:34:58Z</time></trkpt>
<trkpt lat="48.78860474" lon="1.93392897"><ele></ele><time>2014-6-30T11:35:1Z</time></trkpt>
<trkpt lat="48.78898239" lon="1.93407702"><ele></ele><time>2014-6-30T11:35:4Z</time></trkpt>
<trkpt lat="48.78936768" lon="1.93422902"><ele></ele><time>2014-6-30T11:35:7Z</time></trkpt>
<trkpt lat="48.78976440" lon="1.93438995"><ele></ele><time>2014-6-30T11:35:10Z</time></trkpt>
<trkpt lat="48.78991318" lon="1.93445396"><ele></ele><time>2014-6-30T11:35:13Z</time></trkpt>
<trkpt lat="48.79004288" lon="1.93447602"><ele></ele><time>2014-6-30T11:35:16Z</time></trkpt>
<trkpt lat="48.79014206" lon="1.93429196"><ele></ele><time>2014-6-30T11:35:19Z</time></trkpt>
<trkpt lat="48.79023743" lon="1.93387306"><ele></ele><time>2014-6-30T11:35:22Z</time></trkpt>
<trkpt lat="48.79040527" lon="1.93369806"><ele></ele><time>2014-6-30T11:35:25Z</time></trkpt>
<trkpt lat="48.79045486" lon="1.93372500"><ele></ele><time>2014-6-30T11:35:28Z</time></trkpt>
<trkpt lat="48.79037094" lon="1.93366301"><ele></ele><time>2014-6-30T11:35:31Z</time></trkpt>
<trkpt lat="48.79039764" lon="1.93357003"><ele></ele><time>2014-6-30T11:35:34Z</time></trkpt>
<trkpt lat="48.79044342" lon="1.93357694"><ele></ele><time>2014-6-30T11:35:37Z</time></trkpt>
<trkpt lat="48.79088974" lon="1.93372798"><ele></ele><time>2014-6-30T11:35:40Z</time></trkpt>
<trkpt lat="48.79128647" lon="1.93389106"><ele></ele><time>2014-6-30T11:35:43Z</time></trkpt>
<trkpt lat="48.79149628" lon="1.93398798"><ele></ele><time>2014-6-30T11:35:46Z</time></trkpt>
<trkpt lat="48.79170227" lon="1.93405998"><ele></ele><time>2014-6-30T11:35:49Z</time></trkpt>
<trkpt lat="48.79171753" lon="1.93406606"><ele></ele><time>2014-6-30T11:35:52Z</time></trkpt>
<trkpt lat="48.79178619" lon="1.93406904"><ele></ele><time>2014-6-30T11:35:55Z</time></trkpt>
<trkpt lat="48.79181671" lon="1.93407595"><ele></ele><time>2014-6-30T11:35:58Z</time></trkpt>
<trkpt lat="48.79190063" lon="1.93409801"><ele></ele><time>2014-6-30T11:36:1Z</time></trkpt>
<trkpt lat="48.79195023" lon="1.93410397"><ele></ele><time>2014-6-30T11:36:4Z</time></trkpt>
<trkpt lat="48.79200363" lon="1.93404496"><ele></ele><time>2014-6-30T11:36:7Z</time></trkpt>
<trkpt lat="48.79200745" lon="1.93403304"><ele></ele><time>2014-6-30T11:36:10Z</time></trkpt>
<trkpt lat="48.79200363" lon="1.93404400"><ele></ele><time>2014-6-30T11:36:13Z</time></trkpt>
<trkpt lat="48.79215622" lon="1.93350399"><ele></ele><time>2014-6-30T11:36:16Z</time></trkpt>
<trkpt lat="48.79219818" lon="1.93332899"><ele></ele><time>2014-6-30T11:36:19Z</time></trkpt>
<trkpt lat="48.79222107" lon="1.93326700"><ele></ele><time>2014-6-30T11:36:22Z</time></trkpt>
<trkpt lat="48.79222870" lon="1.93324304"><ele></ele><time>2014-6-30T11:36:25Z</time></trkpt>
<trkpt lat="48.79235077" lon="1.93292201"><ele></ele><time>2014-6-30T11:36:28Z</time></trkpt>
<trkpt lat="48.79238129" lon="1.93283296"><ele></ele><time>2014-6-30T11:36:31Z</time></trkpt>
<trkpt lat="48.79247665" lon="1.93265200"><ele></ele><time>2014-6-30T11:36:34Z</time></trkpt>
<trkpt lat="48.79259109" lon="1.93237197"><ele></ele><time>2014-6-30T11:36:37Z</time></trkpt>
<trkpt lat="48.79275131" lon="1.93197799"><ele></ele><time>2014-6-30T11:36:40Z</time></trkpt>
<trkpt lat="48.79279327" lon="1.93173695"><ele></ele><time>2014-6-30T11:36:43Z</time></trkpt>
<trkpt lat="48.79288483" lon="1.93107700"><ele></ele><time>2014-6-30T11:36:46Z</time></trkpt>
<trkpt lat="48.79287338" lon="1.93095303"><ele></ele><time>2014-6-30T11:36:49Z</time></trkpt>
<trkpt lat="48.79289627" lon="1.93073905"><ele></ele><time>2014-6-30T11:36:52Z</time></trkpt>
<trkpt lat="48.79291153" lon="1.93030298"><ele></ele><time>2014-6-30T11:36:55Z</time></trkpt>
<trkpt lat="48.79296494" lon="1.93001997"><ele></ele><time>2014-6-30T11:36:58Z</time></trkpt>
<trkpt lat="48.79317474" lon="1.92951298"><ele></ele><time>2014-6-30T11:37:1Z</time></trkpt>
<trkpt lat="48.79332733" lon="1.92929101"><ele></ele><time>2014-6-30T11:37:4Z</time></trkpt>
<trkpt lat="48.79351425" lon="1.92937505"><ele></ele><time>2014-6-30T11:37:7Z</time></trkpt>
<trkpt lat="48.79356384" lon="1.92943704"><ele></ele><time>2014-6-30T11:37:10Z</time></trkpt>
<trkpt lat="48.79360580" lon="1.92944300"><ele></ele><time>2014-6-30T11:37:13Z</time></trkpt>
<trkpt lat="48.79371643" lon="1.92931104"><ele></ele><time>2014-6-30T11:37:16Z</time></trkpt>
<trkpt lat="48.79378128" lon="1.92913699"><ele></ele><time>2014-6-30T11:37:19Z</time></trkpt>
<trkpt lat="48.79382324" lon="1.92878199"><ele></ele><time>2014-6-30T11:37:22Z</time></trkpt>
<trkpt lat="48.79386139" lon="1.92864096"><ele></ele><time>2014-6-30T11:37:25Z</time></trkpt>
<trkpt lat="48.79397964" lon="1.92851305"><ele></ele><time>2014-6-30T11:37:28Z</time></trkpt>
<trkpt lat="48.79398346" lon="1.92850196"><ele></ele><time>2014-6-30T11:37:31Z</time></trkpt>
<trkpt lat="48.79397583" lon="1.92849302"><ele></ele><time>2014-6-30T11:37:34Z</time></trkpt>
<trkpt lat="48.79397583" lon="1.92848599"><ele></ele><time>2014-6-30T11:37:37Z</time></trkpt>
<trkpt lat="48.79399490" lon="1.92846596"><ele></ele><time>2014-6-30T11:37:40Z</time></trkpt>
<trkpt lat="48.79405975" lon="1.92841005"><ele></ele><time>2014-6-30T11:37:43Z</time></trkpt>
<trkpt lat="48.79418564" lon="1.92830598"><ele></ele><time>2014-6-30T11:37:46Z</time></trkpt>
<trkpt lat="48.79423523" lon="1.92827106"><ele></ele><time>2014-6-30T11:37:49Z</time></trkpt>
<trkpt lat="48.79434204" lon="1.92821097"><ele></ele><time>2014-6-30T11:37:52Z</time></trkpt>
<trkpt lat="48.79441071" lon="1.92815006"><ele></ele><time>2014-6-30T11:37:55Z</time></trkpt>
<trkpt lat="48.79446411" lon="1.92810202"><ele></ele><time>2014-6-30T11:37:58Z</time></trkpt>
<trkpt lat="48.79455566" lon="1.92801404"><ele></ele><time>2014-6-30T11:38:1Z</time></trkpt>
<trkpt lat="48.79457092" lon="1.92800605"><ele></ele><time>2014-6-30T11:38:4Z</time></trkpt>
<trkpt lat="48.79458618" lon="1.92799997"><ele></ele><time>2014-6-30T11:38:7Z</time></trkpt>
<trkpt lat="48.79466629" lon="1.92792904"><ele></ele><time>2014-6-30T11:38:10Z</time></trkpt>
<trkpt lat="48.79469681" lon="1.92790794"><ele></ele><time>2014-6-30T11:38:13Z</time></trkpt>
<trkpt lat="48.79475021" lon="1.92784405"><ele></ele><time>2014-6-30T11:38:16Z</time></trkpt>
<trkpt lat="48.79482651" lon="1.92776597"><ele></ele><time>2014-6-30T11:38:19Z</time></trkpt>
<trkpt lat="48.79487610" lon="1.92771900"><ele></ele><time>2014-6-30T11:38:22Z</time></trkpt>
<trkpt lat="48.79491043" lon="1.92769003"><ele></ele><time>2014-6-30T11:38:25Z</time></trkpt>
<trkpt lat="48.79499435" lon="1.92758095"><ele></ele><time>2014-6-30T11:38:28Z</time></trkpt>
<trkpt lat="48.79530334" lon="1.92711794"><ele></ele><time>2014-6-30T11:38:31Z</time></trkpt>
<trkpt lat="48.79533005" lon="1.92704403"><ele></ele><time>2014-6-30T11:38:34Z</time></trkpt>
<trkpt lat="48.79534531" lon="1.92694497"><ele></ele><time>2014-6-30T11:38:37Z</time></trkpt>
<trkpt lat="48.79537582" lon="1.92653000"><ele></ele><time>2014-6-30T11:38:40Z</time></trkpt>
<trkpt lat="48.79553223" lon="1.92633998"><ele></ele><time>2014-6-30T11:38:43Z</time></trkpt>
<trkpt lat="48.79558563" lon="1.92629397"><ele></ele><time>2014-6-30T11:38:46Z</time></trkpt>
<trkpt lat="48.79590225" lon="1.92599201"><ele></ele><time>2014-6-30T11:38:49Z</time></trkpt>
<trkpt lat="48.79604340" lon="1.92582798"><ele></ele><time>2014-6-30T11:38:52Z</time></trkpt>
<trkpt lat="48.79610062" lon="1.92565799"><ele></ele><time>2014-6-30T11:38:55Z</time></trkpt>
<trkpt lat="48.79620743" lon="1.92551696"><ele></ele><time>2014-6-30T11:38:58Z</time></trkpt>
<trkpt lat="48.79644775" lon="1.92500806"><ele></ele><time>2014-6-30T11:39:1Z</time></trkpt>
<trkpt lat="48.79653168" lon="1.92470002"><ele></ele><time>2014-6-30T11:39:4Z</time></trkpt>
<trkpt lat="48.79664993" lon="1.92437100"><ele></ele><time>2014-6-30T11:39:7Z</time></trkpt>
<trkpt lat="48.79678726" lon="1.92408705"><ele></ele><time>2014-6-30T11:39:10Z</time></trkpt>
<trkpt lat="48.79685593" lon="1.92398202"><ele></ele><time>2014-6-30T11:39:13Z</time></trkpt>
<trkpt lat="48.79697037" lon="1.92376006"><ele></ele><time>2014-6-30T11:39:16Z</time></trkpt>
<trkpt lat="48.79702759" lon="1.92360795"><ele></ele><time>2014-6-30T11:39:19Z</time></trkpt>
<trkpt lat="48.79945755" lon="1.91286099"><ele></ele><time>2014-6-30T11:39:22Z</time></trkpt>
<trkpt lat="48.79950333" lon="1.91288400"><ele></ele><time>2014-6-30T11:39:25Z</time></trkpt>
<trkpt lat="48.79989243" lon="1.91304100"><ele></ele><time>2014-6-30T11:39:28Z</time></trkpt>
<trkpt lat="48.80025101" lon="1.91317701"><ele></ele><time>2014-6-30T11:39:31Z</time></trkpt>
<trkpt lat="48.80059052" lon="1.91330194"><ele></ele><time>2014-6-30T11:39:34Z</time></trkpt>
<trkpt lat="48.80070114" lon="1.91332304"><ele></ele><time>2014-6-30T11:39:37Z</time></trkpt>
<trkpt lat="48.80078506" lon="1.91337800"><ele></ele><time>2014-6-30T11:39:40Z</time></trkpt>
<trkpt lat="48.80080032" lon="1.91338503"><ele></ele><time>2014-6-30T11:39:43Z</time></trkpt>
<trkpt lat="48.80083466" lon="1.91340101"><ele></ele><time>2014-6-30T11:39:46Z</time></trkpt>
<trkpt lat="48.80085754" lon="1.91340601"><ele></ele><time>2014-6-30T11:39:49Z</time></trkpt>
<trkpt lat="48.80088425" lon="1.91341996"><ele></ele><time>2014-6-30T11:39:52Z</time></trkpt>
<trkpt lat="48.80096436" lon="1.91347504"><ele></ele><time>2014-6-30T11:39:55Z</time></trkpt>
<trkpt lat="48.80102158" lon="1.91351199"><ele></ele><time>2014-6-30T11:39:58Z</time></trkpt>
<trkpt lat="48.80119705" lon="1.91355300"><ele></ele><time>2014-6-30T11:40:1Z</time></trkpt>
<trkpt lat="48.80125427" lon="1.91357505"><ele></ele><time>2014-6-30T11:40:4Z</time></trkpt>
<trkpt lat="48.80128860" lon="1.91359198"><ele></ele><time>2014-6-30T11:40:7Z</time></trkpt>
<trkpt lat="48.80131912" lon="1.91360199"><ele></ele><time>2014-6-30T11:40:10Z</time></trkpt>
<trkpt lat="48.80133820" lon="1.91360497"><ele></ele><time>2014-6-30T11:40:13Z</time></trkpt>
<trkpt lat="48.80164719" lon="1.91369796"><ele></ele><time>2014-6-30T11:40:16Z</time></trkpt>
<trkpt lat="48.80166245" lon="1.91370296"><ele></ele><time>2014-6-30T11:40:19Z</time></trkpt>
<trkpt lat="48.80169296" lon="1.91371095"><ele></ele><time>2014-6-30T11:40:22Z</time></trkpt>
<trkpt lat="48.80182266" lon="1.91375005"><ele></ele><time>2014-6-30T11:40:25Z</time></trkpt>
<trkpt lat="48.80183411" lon="1.91375506"><ele></ele><time>2014-6-30T11:40:28Z</time></trkpt>
<trkpt lat="48.80187225" lon="1.91376698"><ele></ele><time>2014-6-30T11:40:31Z</time></trkpt>
<trkpt lat="48.80188751" lon="1.91377604"><ele></ele><time>2014-6-30T11:40:34Z</time></trkpt>
<trkpt lat="48.80189896" lon="1.91378403"><ele></ele><time>2014-6-30T11:40:37Z</time></trkpt>
<trkpt lat="48.80195618" lon="1.91383696"><ele></ele><time>2014-6-30T11:40:40Z</time></trkpt>
<trkpt lat="48.80197906" lon="1.91385198"><ele></ele><time>2014-6-30T11:40:43Z</time></trkpt>
<trkpt lat="48.80203247" lon="1.91388094"><ele></ele><time>2014-6-30T11:40:46Z</time></trkpt>
<trkpt lat="48.80206299" lon="1.91389406"><ele></ele><time>2014-6-30T11:40:49Z</time></trkpt>
<trkpt lat="48.80212021" lon="1.91390300"><ele></ele><time>2014-6-30T11:40:52Z</time></trkpt>
<trkpt lat="48.80239487" lon="1.91402996"><ele></ele><time>2014-6-30T11:40:55Z</time></trkpt>
<trkpt lat="48.80253220" lon="1.91446197"><ele></ele><time>2014-6-30T11:40:58Z</time></trkpt>
<trkpt lat="48.80254745" lon="1.91449404"><ele></ele><time>2014-6-30T11:41:1Z</time></trkpt>
<trkpt lat="48.80263901" lon="1.91450799"><ele></ele><time>2014-6-30T11:41:4Z</time></trkpt>
<trkpt lat="48.80265427" lon="1.91454506"><ele></ele><time>2014-6-30T11:41:7Z</time></trkpt>
<trkpt lat="48.80264282" lon="1.91460598"><ele></ele><time>2014-6-30T11:41:10Z</time></trkpt>
<trkpt lat="48.80264282" lon="1.91464496"><ele></ele><time>2014-6-30T11:41:13Z</time></trkpt>
<trkpt lat="48.80268478" lon="1.91491306"><ele></ele><time>2014-6-30T11:41:16Z</time></trkpt>
<trkpt lat="48.80270004" lon="1.91503894"><ele></ele><time>2014-6-30T11:41:19Z</time></trkpt>
<trkpt lat="48.80279541" lon="1.91547096"><ele></ele><time>2014-6-30T11:41:22Z</time></trkpt>
<trkpt lat="48.80291748" lon="1.91604698"><ele></ele><time>2014-6-30T11:41:25Z</time></trkpt>
<trkpt lat="48.80294037" lon="1.91622698"><ele></ele><time>2014-6-30T11:41:28Z</time></trkpt>
<trkpt lat="48.80296326" lon="1.91633499"><ele></ele><time>2014-6-30T11:41:31Z</time></trkpt>
<trkpt lat="48.80299759" lon="1.91653299"><ele></ele><time>2014-6-30T11:41:34Z</time></trkpt>
<trkpt lat="48.80311966" lon="1.91717803"><ele></ele><time>2014-6-30T11:41:37Z</time></trkpt>
<trkpt lat="48.80323410" lon="1.91774905"><ele></ele><time>2014-6-30T11:41:40Z</time></trkpt>
<trkpt lat="48.80334854" lon="1.91831601"><ele></ele><time>2014-6-30T11:41:43Z</time></trkpt>
<trkpt lat="48.80339432" lon="1.91854203"><ele></ele><time>2014-6-30T11:41:46Z</time></trkpt>
<trkpt lat="48.80373001" lon="1.91873395"><ele></ele><time>2014-6-30T11:41:49Z</time></trkpt>
<trkpt lat="48.80382538" lon="1.91870296"><ele></ele><time>2014-6-30T11:41:52Z</time></trkpt>
<trkpt lat="48.80408478" lon="1.91878200"><ele></ele><time>2014-6-30T11:41:55Z</time></trkpt>
<trkpt lat="48.80430222" lon="1.91873503"><ele></ele><time>2014-6-30T11:41:58Z</time></trkpt>
<trkpt lat="48.80433655" lon="1.91863501"><ele></ele><time>2014-6-30T11:42:1Z</time></trkpt>
<trkpt lat="48.80437851" lon="1.91850805"><ele></ele><time>2014-6-30T11:42:4Z</time></trkpt>
<trkpt lat="48.80454254" lon="1.91825497"><ele></ele><time>2014-6-30T11:42:7Z</time></trkpt>
<trkpt lat="48.80461884" lon="1.91816497"><ele></ele><time>2014-6-30T11:42:10Z</time></trkpt>
<trkpt lat="48.80477142" lon="1.91791701"><ele></ele><time>2014-6-30T11:42:13Z</time></trkpt>
<trkpt lat="48.80518723" lon="1.91758001"><ele></ele><time>2014-6-30T11:42:16Z</time></trkpt>
<trkpt lat="48.80548859" lon="1.91725600"><ele></ele><time>2014-6-30T11:42:19Z</time></trkpt>
<trkpt lat="48.80553436" lon="1.91690898"><ele></ele><time>2014-6-30T11:42:22Z</time></trkpt>
<trkpt lat="48.80556488" lon="1.91677701"><ele></ele><time>2014-6-30T11:42:25Z</time></trkpt>
<trkpt lat="48.80558777" lon="1.91653895"><ele></ele><time>2014-6-30T11:42:28Z</time></trkpt>
<trkpt lat="48.80560684" lon="1.91631901"><ele></ele><time>2014-6-30T11:42:31Z</time></trkpt>
<trkpt lat="48.80566788" lon="1.91589200"><ele></ele><time>2014-6-30T11:42:34Z</time></trkpt>
<trkpt lat="48.80579376" lon="1.91590703"><ele></ele><time>2014-6-30T11:42:37Z</time></trkpt>
<trkpt lat="48.80593872" lon="1.91606903"><ele></ele><time>2014-6-30T11:42:40Z</time></trkpt>
<trkpt lat="48.80597687" lon="1.91623998"><ele></ele><time>2014-6-30T11:42:43Z</time></trkpt>
<trkpt lat="48.80606461" lon="1.91623497"><ele></ele><time>2014-6-30T11:42:46Z</time></trkpt>
<trkpt lat="48.80609512" lon="1.91622603"><ele></ele><time>2014-6-30T11:42:49Z</time></trkpt>
<trkpt lat="48.80636978" lon="1.91619301"><ele></ele><time>2014-6-30T11:42:52Z</time></trkpt>
<trkpt lat="48.80646515" lon="1.91671300"><ele></ele><time>2014-6-30T11:42:55Z</time></trkpt>
<trkpt lat="48.80651855" lon="1.91681302"><ele></ele><time>2014-6-30T11:42:58Z</time></trkpt>
<trkpt lat="48.80640793" lon="1.91654396"><ele></ele><time>2014-6-30T11:43:1Z</time></trkpt>
<trkpt lat="48.80638885" lon="1.91677296"><ele></ele><time>2014-6-30T11:43:4Z</time></trkpt>
<trkpt lat="48.80658722" lon="1.91677499"><ele></ele><time>2014-6-30T11:43:7Z</time></trkpt>
<trkpt lat="48.80661392" lon="1.91672099"><ele></ele><time>2014-6-30T11:43:10Z</time></trkpt>
<trkpt lat="48.80662918" lon="1.91669405"><ele></ele><time>2014-6-30T11:43:13Z</time></trkpt>
<trkpt lat="48.80666351" lon="1.91666996"><ele></ele><time>2014-6-30T11:43:16Z</time></trkpt>
<trkpt lat="48.80675125" lon="1.91691804"><ele></ele><time>2014-6-30T11:43:19Z</time></trkpt>
<trkpt lat="48.80685043" lon="1.91734397"><ele></ele><time>2014-6-30T11:43:22Z</time></trkpt>
<trkpt lat="48.80687332" lon="1.91746294"><ele></ele><time>2014-6-30T11:43:25Z</time></trkpt>
<trkpt lat="48.80698776" lon="1.91796196"><ele></ele><time>2014-6-30T11:43:28Z</time></trkpt>
<trkpt lat="48.80704117" lon="1.91810596"><ele></ele><time>2014-6-30T11:43:31Z</time></trkpt>
<trkpt lat="48.80722046" lon="1.91869795"><ele></ele><time>2014-6-30T11:43:34Z</time></trkpt>
<trkpt lat="48.80722427" lon="1.91888595"><ele></ele><time>2014-6-30T11:43:37Z</time></trkpt>
<trkpt lat="48.80722427" lon="1.91916502"><ele></ele><time>2014-6-30T11:43:40Z</time></trkpt>
<trkpt lat="48.80722427" lon="1.91942406"><ele></ele><time>2014-6-30T11:43:43Z</time></trkpt>
<trkpt lat="48.80723572" lon="1.91990495"><ele></ele><time>2014-6-30T11:43:46Z</time></trkpt>
<trkpt lat="48.80738068" lon="1.92037201"><ele></ele><time>2014-6-30T11:43:49Z</time></trkpt>
<trkpt lat="48.80748367" lon="1.92059600"><ele></ele><time>2014-6-30T11:43:52Z</time></trkpt>
<trkpt lat="48.80748367" lon="1.92092001"><ele></ele><time>2014-6-30T11:43:55Z</time></trkpt>
<trkpt lat="48.80727386" lon="1.92147100"><ele></ele><time>2014-6-30T11:43:58Z</time></trkpt>
<trkpt lat="48.80721664" lon="1.92164004"><ele></ele><time>2014-6-30T11:44:1Z</time></trkpt>
<trkpt lat="48.80707550" lon="1.92199898"><ele></ele><time>2014-6-30T11:44:4Z</time></trkpt>
<trkpt lat="48.80689240" lon="1.92246199"><ele></ele><time>2014-6-30T11:44:7Z</time></trkpt>
<trkpt lat="48.80645370" lon="1.92330599"><ele></ele><time>2014-6-30T11:44:10Z</time></trkpt>
<trkpt lat="48.80631638" lon="1.92354596"><ele></ele><time>2014-6-30T11:44:13Z</time></trkpt>
<trkpt lat="48.80629349" lon="1.92359900"><ele></ele><time>2014-6-30T11:44:16Z</time></trkpt>
<trkpt lat="48.80624390" lon="1.92368805"><ele></ele><time>2014-6-30T11:44:19Z</time></trkpt>
<trkpt lat="48.80623627" lon="1.92370200"><ele></ele><time>2014-6-30T11:44:22Z</time></trkpt>
<trkpt lat="48.80619049" lon="1.92376995"><ele></ele><time>2014-6-30T11:44:25Z</time></trkpt>
<trkpt lat="48.80598831" lon="1.92425096"><ele></ele><time>2014-6-30T11:44:28Z</time></trkpt>
<trkpt lat="48.80577850" lon="1.92469394"><ele></ele><time>2014-6-30T11:44:31Z</time></trkpt>
<trkpt lat="48.80558395" lon="1.92514396"><ele></ele><time>2014-6-30T11:44:34Z</time></trkpt>
<trkpt lat="48.80533981" lon="1.92562199"><ele></ele><time>2014-6-30T11:44:37Z</time></trkpt>
<trkpt lat="48.80532074" lon="1.92570603"><ele></ele><time>2014-6-30T11:44:40Z</time></trkpt>
<trkpt lat="48.80527496" lon="1.92585695"><ele></ele><time>2014-6-30T11:44:43Z</time></trkpt>
<trkpt lat="48.80524445" lon="1.92603195"><ele></ele><time>2014-6-30T11:44:46Z</time></trkpt>
<trkpt lat="48.80521774" lon="1.92609596"><ele></ele><time>2014-6-30T11:44:49Z</time></trkpt>
<trkpt lat="48.80521011" lon="1.92614698"><ele></ele><time>2014-6-30T11:44:52Z</time></trkpt>
<trkpt lat="48.80521011" lon="1.92615402"><ele></ele><time>2014-6-30T11:44:55Z</time></trkpt>
<trkpt lat="48.80518723" lon="1.92618895"><ele></ele><time>2014-6-30T11:44:58Z</time></trkpt>
<trkpt lat="48.80517578" lon="1.92620301"><ele></ele><time>2014-6-30T11:45:1Z</time></trkpt>
<trkpt lat="48.80517578" lon="1.92620802"><ele></ele><time>2014-6-30T11:45:4Z</time></trkpt>
<trkpt lat="48.80516815" lon="1.92621696"><ele></ele><time>2014-6-30T11:45:7Z</time></trkpt>
<trkpt lat="48.80510712" lon="1.92627299"><ele></ele><time>2014-6-30T11:45:10Z</time></trkpt>
<trkpt lat="48.80489349" lon="1.92673600"><ele></ele><time>2014-6-30T11:45:13Z</time></trkpt>
<trkpt lat="48.80481720" lon="1.92703497"><ele></ele><time>2014-6-30T11:45:16Z</time></trkpt>
<trkpt lat="48.80478287" lon="1.92718899"><ele></ele><time>2014-6-30T11:45:19Z</time></trkpt>
<trkpt lat="48.80472946" lon="1.92740595"><ele></ele><time>2014-6-30T11:45:22Z</time></trkpt>
<trkpt lat="48.80452347" lon="1.92800403"><ele></ele><time>2014-6-30T11:45:25Z</time></trkpt>
<trkpt lat="48.80437851" lon="1.92835295"><ele></ele><time>2014-6-30T11:45:28Z</time></trkpt>
<trkpt lat="48.80421829" lon="1.92877603"><ele></ele><time>2014-6-30T11:45:31Z</time></trkpt>
<trkpt lat="48.80410385" lon="1.92920101"><ele></ele><time>2014-6-30T11:45:34Z</time></trkpt>
<trkpt lat="48.80404282" lon="1.92941403"><ele></ele><time>2014-6-30T11:45:37Z</time></trkpt>
<trkpt lat="48.80398941" lon="1.92963600"><ele></ele><time>2014-6-30T11:45:40Z</time></trkpt>
<trkpt lat="48.80383301" lon="1.93013299"><ele></ele><time>2014-6-30T11:45:43Z</time></trkpt>
<trkpt lat="48.80370712" lon="1.93062699"><ele></ele><time>2014-6-30T11:45:46Z</time></trkpt>
<trkpt lat="48.80357742" lon="1.93116200"><ele></ele><time>2014-6-30T11:45:49Z</time></trkpt>
<trkpt lat="48.80353165" lon="1.93135297"><ele></ele><time>2014-6-30T11:45:52Z</time></trkpt>
<trkpt lat="48.80332565" lon="1.93202806"><ele></ele><time>2014-6-30T11:45:55Z</time></trkpt>
<trkpt lat="48.80329132" lon="1.93214405"><ele></ele><time>2014-6-30T11:45:58Z</time></trkpt>
<trkpt lat="48.80311966" lon="1.93290603"><ele></ele><time>2014-6-30T11:46:1Z</time></trkpt>
<trkpt lat="48.80322266" lon="1.93314099"><ele></ele><time>2014-6-30T11:46:4Z</time></trkpt>
<trkpt lat="48.80336380" lon="1.93379796"><ele></ele><time>2014-6-30T11:46:7Z</time></trkpt>
<trkpt lat="48.80344772" lon="1.93434203"><ele></ele><time>2014-6-30T11:46:10Z</time></trkpt>
<trkpt lat="48.80347824" lon="1.93446505"><ele></ele><time>2014-6-30T11:46:13Z</time></trkpt>
<trkpt lat="48.80355453" lon="1.93461001"><ele></ele><time>2014-6-30T11:46:16Z</time></trkpt>
<trkpt lat="48.80390167" lon="1.93500996"><ele></ele><time>2014-6-30T11:46:19Z</time></trkpt>
<trkpt lat="48.80429077" lon="1.93540096"><ele></ele><time>2014-6-30T11:46:22Z</time></trkpt>
<trkpt lat="48.80443573" lon="1.93558800"><ele></ele><time>2014-6-30T11:46:25Z</time></trkpt>
<trkpt lat="48.80456924" lon="1.93587899"><ele></ele><time>2014-6-30T11:46:28Z</time></trkpt>
<trkpt lat="48.80440903" lon="1.93617404"><ele></ele><time>2014-6-30T11:46:31Z</time></trkpt>
<trkpt lat="48.80405045" lon="1.93643796"><ele></ele><time>2014-6-30T11:46:34Z</time></trkpt>
<trkpt lat="48.80374146" lon="1.93661904"><ele></ele><time>2014-6-30T11:46:37Z</time></trkpt>
<trkpt lat="48.80356979" lon="1.93678498"><ele></ele><time>2014-6-30T11:46:40Z</time></trkpt>
<trkpt lat="48.80354691" lon="1.93682003"><ele></ele><time>2014-6-30T11:46:43Z</time></trkpt>
<trkpt lat="48.80336380" lon="1.93721199"><ele></ele><time>2014-6-30T11:46:46Z</time></trkpt>
<trkpt lat="48.80335617" lon="1.93724597"><ele></ele><time>2014-6-30T11:46:49Z</time></trkpt>
<trkpt lat="48.80334473" lon="1.93731403"><ele></ele><time>2014-6-30T11:46:52Z</time></trkpt>
<trkpt lat="48.80332184" lon="1.93742502"><ele></ele><time>2014-6-30T11:46:55Z</time></trkpt>
<trkpt lat="48.80321121" lon="1.93770897"><ele></ele><time>2014-6-30T11:46:58Z</time></trkpt>
<trkpt lat="48.80319595" lon="1.93777096"><ele></ele><time>2014-6-30T11:47:1Z</time></trkpt>
<trkpt lat="48.80318451" lon="1.93780899"><ele></ele><time>2014-6-30T11:47:4Z</time></trkpt>
<trkpt lat="48.80317688" lon="1.93782604"><ele></ele><time>2014-6-30T11:47:7Z</time></trkpt>
<trkpt lat="48.80301285" lon="1.93822598"><ele></ele><time>2014-6-30T11:47:10Z</time></trkpt>
<trkpt lat="48.80300522" lon="1.93824196"><ele></ele><time>2014-6-30T11:47:13Z</time></trkpt>
<trkpt lat="48.80299759" lon="1.93826103"><ele></ele><time>2014-6-30T11:47:16Z</time></trkpt>
<trkpt lat="48.80302429" lon="1.93833601"><ele></ele><time>2014-6-30T11:47:19Z</time></trkpt>
<trkpt lat="48.80317307" lon="1.93857598"><ele></ele><time>2014-6-30T11:47:22Z</time></trkpt>
<trkpt lat="48.80320740" lon="1.93864596"><ele></ele><time>2014-6-30T11:47:25Z</time></trkpt>
<trkpt lat="48.80322266" lon="1.93875396"><ele></ele><time>2014-6-30T11:47:28Z</time></trkpt>
<trkpt lat="48.80327225" lon="1.93885195"><ele></ele><time>2014-6-30T11:47:31Z</time></trkpt>
<trkpt lat="48.80329132" lon="1.93898106"><ele></ele><time>2014-6-30T11:47:34Z</time></trkpt>
<trkpt lat="48.80342865" lon="1.93952596"><ele></ele><time>2014-6-30T11:47:37Z</time></trkpt>
<trkpt lat="48.80348206" lon="1.93972003"><ele></ele><time>2014-6-30T11:47:40Z</time></trkpt>
<trkpt lat="48.80354309" lon="1.94020104"><ele></ele><time>2014-6-30T11:47:43Z</time></trkpt>
<trkpt lat="48.80355072" lon="1.94023895"><ele></ele><time>2014-6-30T11:47:46Z</time></trkpt>
<trkpt lat="48.80360031" lon="1.94036198"><ele></ele><time>2014-6-30T11:47:49Z</time></trkpt>
<trkpt lat="48.80364227" lon="1.94038296"><ele></ele><time>2014-6-30T11:47:52Z</time></trkpt>
<trkpt lat="48.80370331" lon="1.94052601"><ele></ele><time>2014-6-30T11:47:55Z</time></trkpt>
<trkpt lat="48.80372238" lon="1.94062197"><ele></ele><time>2014-6-30T11:47:58Z</time></trkpt>
<trkpt lat="48.80371094" lon="1.94082105"><ele></ele><time>2014-6-30T11:48:1Z</time></trkpt>
<trkpt lat="48.80365372" lon="1.94094300"><ele></ele><time>2014-6-30T11:48:4Z</time></trkpt>
<trkpt lat="48.80361938" lon="1.94096506"><ele></ele><time>2014-6-30T11:48:7Z</time></trkpt>
<trkpt lat="48.80368805" lon="1.94120502"><ele></ele><time>2014-6-30T11:48:10Z</time></trkpt>
<trkpt lat="48.80398941" lon="1.94140303"><ele></ele><time>2014-6-30T11:48:13Z</time></trkpt>
<trkpt lat="48.80431747" lon="1.94155896"><ele></ele><time>2014-6-30T11:48:16Z</time></trkpt>
<trkpt lat="48.80469894" lon="1.94164395"><ele></ele><time>2014-6-30T11:48:19Z</time></trkpt>
<trkpt lat="48.80484009" lon="1.94164097"><ele></ele><time>2014-6-30T11:48:22Z</time></trkpt>
<trkpt lat="48.80505371" lon="1.94184399"><ele></ele><time>2014-6-30T11:48:25Z</time></trkpt>
<trkpt lat="48.80526733" lon="1.94244003"><ele></ele><time>2014-6-30T11:48:28Z</time></trkpt>
<trkpt lat="48.80545807" lon="1.94299304"><ele></ele><time>2014-6-30T11:48:31Z</time></trkpt>
<trkpt lat="48.80564117" lon="1.94353604"><ele></ele><time>2014-6-30T11:48:34Z</time></trkpt>
<trkpt lat="48.80582428" lon="1.94408798"><ele></ele><time>2014-6-30T11:48:37Z</time></trkpt>
<trkpt lat="48.80601501" lon="1.94465399"><ele></ele><time>2014-6-30T11:48:40Z</time></trkpt>
<trkpt lat="48.80620193" lon="1.94521797"><ele></ele><time>2014-6-30T11:48:43Z</time></trkpt>
<trkpt lat="48.80638885" lon="1.94576895"><ele></ele><time>2014-6-30T11:48:46Z</time></trkpt>
<trkpt lat="48.80656052" lon="1.94630396"><ele></ele><time>2014-6-30T11:48:49Z</time></trkpt>
<trkpt lat="48.80670929" lon="1.94678497"><ele></ele><time>2014-6-30T11:48:52Z</time></trkpt>
<trkpt lat="48.80674362" lon="1.94700205"><ele></ele><time>2014-6-30T11:48:55Z</time></trkpt>
<trkpt lat="48.80687714" lon="1.94722295"><ele></ele><time>2014-6-30T11:48:58Z</time></trkpt>
<trkpt lat="48.80704498" lon="1.94735396"><ele></ele><time>2014-6-30T11:49:1Z</time></trkpt>
<trkpt lat="48.80707932" lon="1.94763303"><ele></ele><time>2014-6-30T11:49:4Z</time></trkpt>
<trkpt lat="48.80707169" lon="1.94788301"><ele></ele><time>2014-6-30T11:49:7Z</time></trkpt>
<trkpt lat="48.80709076" lon="1.94852996"><ele></ele><time>2014-6-30T11:49:10Z</time></trkpt>
<trkpt lat="48.80710220" lon="1.94914198"><ele></ele><time>2014-6-30T11:49:13Z</time></trkpt>
<trkpt lat="48.80710602" lon="1.94973803"><ele></ele><time>2014-6-30T11:49:16Z</time></trkpt>
<trkpt lat="48.80712128" lon="1.95028198"><ele></ele><time>2014-6-30T11:49:19Z</time></trkpt>
<trkpt lat="48.80710602" lon="1.95076096"><ele></ele><time>2014-6-30T11:49:22Z</time></trkpt>
<trkpt lat="48.80701065" lon="1.95123804"><ele></ele><time>2014-6-30T11:49:25Z</time></trkpt>
<trkpt lat="48.80691910" lon="1.95160306"><ele></ele><time>2014-6-30T11:49:28Z</time></trkpt>
<trkpt lat="48.80698013" lon="1.95203495"><ele></ele><time>2014-6-30T11:49:31Z</time></trkpt>
<trkpt lat="48.80710983" lon="1.95227802"><ele></ele><time>2014-6-30T11:49:34Z</time></trkpt>
<trkpt lat="48.80751419" lon="1.95244706"><ele></ele><time>2014-6-30T11:49:37Z</time></trkpt>
<trkpt lat="48.80794144" lon="1.95278001"><ele></ele><time>2014-6-30T11:49:40Z</time></trkpt>
<trkpt lat="48.80810165" lon="1.95293701"><ele></ele><time>2014-6-30T11:49:43Z</time></trkpt>
<trkpt lat="48.80816269" lon="1.95337105"><ele></ele><time>2014-6-30T11:49:46Z</time></trkpt>
<trkpt lat="48.80794144" lon="1.95404196"><ele></ele><time>2014-6-30T11:49:49Z</time></trkpt>
<trkpt lat="48.80769730" lon="1.95461798"><ele></ele><time>2014-6-30T11:49:52Z</time></trkpt>
<trkpt lat="48.80741119" lon="1.95506501"><ele></ele><time>2014-6-30T11:49:55Z</time></trkpt>
<trkpt lat="48.80736923" lon="1.95512700"><ele></ele><time>2014-6-30T11:49:58Z</time></trkpt>
<trkpt lat="48.80725861" lon="1.95520198"><ele></ele><time>2014-6-30T11:50:1Z</time></trkpt>
<trkpt lat="48.80705643" lon="1.95521605"><ele></ele><time>2014-6-30T11:50:4Z</time></trkpt>
<trkpt lat="48.80699539" lon="1.95531702"><ele></ele><time>2014-6-30T11:50:7Z</time></trkpt>
<trkpt lat="48.80695343" lon="1.95557904"><ele></ele><time>2014-6-30T11:50:10Z</time></trkpt>
<trkpt lat="48.80687714" lon="1.95573902"><ele></ele><time>2014-6-30T11:50:13Z</time></trkpt>
<trkpt lat="48.80686188" lon="1.95585406"><ele></ele><time>2014-6-30T11:50:16Z</time></trkpt>
<trkpt lat="48.80709076" lon="1.95607102"><ele></ele><time>2014-6-30T11:50:19Z</time></trkpt>
<trkpt lat="48.80718994" lon="1.95607805"><ele></ele><time>2014-6-30T11:50:22Z</time></trkpt>
<trkpt lat="48.80736160" lon="1.95609903"><ele></ele><time>2014-6-30T11:50:25Z</time></trkpt>
<trkpt lat="48.80765152" lon="1.95612502"><ele></ele><time>2014-6-30T11:50:28Z</time></trkpt>
<trkpt lat="48.80798721" lon="1.95618296"><ele></ele><time>2014-6-30T11:50:31Z</time></trkpt>
<trkpt lat="48.80788422" lon="1.95644999"><ele></ele><time>2014-6-30T11:50:34Z</time></trkpt>
<trkpt lat="48.80781555" lon="1.95664799"><ele></ele><time>2014-6-30T11:50:37Z</time></trkpt>
<trkpt lat="48.80762100" lon="1.95730305"><ele></ele><time>2014-6-30T11:50:40Z</time></trkpt>
<trkpt lat="48.80743027" lon="1.95779705"><ele></ele><time>2014-6-30T11:50:43Z</time></trkpt>
<trkpt lat="48.80720901" lon="1.95822895"><ele></ele><time>2014-6-30T11:50:46Z</time></trkpt>
<trkpt lat="48.80718994" lon="1.95827603"><ele></ele><time>2014-6-30T11:50:49Z</time></trkpt>
<trkpt lat="48.80724716" lon="1.95841002"><ele></ele><time>2014-6-30T11:50:52Z</time></trkpt>
<trkpt lat="48.80741882" lon="1.95843196"><ele></ele><time>2014-6-30T11:50:55Z</time></trkpt>
<trkpt lat="48.80781555" lon="1.95867896"><ele></ele><time>2014-6-30T11:50:58Z</time></trkpt>
<trkpt lat="48.80815887" lon="1.95889401"><ele></ele><time>2014-6-30T11:51:1Z</time></trkpt>
<trkpt lat="48.80846024" lon="1.95908105"><ele></ele><time>2014-6-30T11:51:4Z</time></trkpt>
<trkpt lat="48.80894852" lon="1.95927596"><ele></ele><time>2014-6-30T11:51:7Z</time></trkpt>
<trkpt lat="48.80921555" lon="1.95930600"><ele></ele><time>2014-6-30T11:51:10Z</time></trkpt>
<trkpt lat="48.80966568" lon="1.95953000"><ele></ele><time>2014-6-30T11:51:13Z</time></trkpt>
<trkpt lat="48.81002426" lon="1.95975602"><ele></ele><time>2014-6-30T11:51:16Z</time></trkpt>
<trkpt lat="48.81024933" lon="1.95988703"><ele></ele><time>2014-6-30T11:51:19Z</time></trkpt>
<trkpt lat="48.81040955" lon="1.95994902"><ele></ele><time>2014-6-30T11:51:22Z</time></trkpt>
<trkpt lat="48.81072617" lon="1.95989704"><ele></ele><time>2014-6-30T11:51:25Z</time></trkpt>
<trkpt lat="48.81082153" lon="1.95970404"><ele></ele><time>2014-6-30T11:51:28Z</time></trkpt>
<trkpt lat="48.81113052" lon="1.95911396"><ele></ele><time>2014-6-30T11:51:31Z</time></trkpt>
<trkpt lat="48.81125259" lon="1.95896697"><ele></ele><time>2014-6-30T11:51:34Z</time></trkpt>
<trkpt lat="48.81131744" lon="1.95885003"><ele></ele><time>2014-6-30T11:51:37Z</time></trkpt>
<trkpt lat="48.81132507" lon="1.95884597"><ele></ele><time>2014-6-30T11:51:40Z</time></trkpt>
<trkpt lat="48.81135178" lon="1.95882404"><ele></ele><time>2014-6-30T11:51:43Z</time></trkpt>
<trkpt lat="48.81137848" lon="1.95878994"><ele></ele><time>2014-6-30T11:51:46Z</time></trkpt>
<trkpt lat="48.81138229" lon="1.95878196"><ele></ele><time>2014-6-30T11:51:49Z</time></trkpt>
<trkpt lat="48.81140518" lon="1.95875800"><ele></ele><time>2014-6-30T11:51:52Z</time></trkpt>
<trkpt lat="48.81149292" lon="1.95862305"><ele></ele><time>2014-6-30T11:51:55Z</time></trkpt>
<trkpt lat="48.81181335" lon="1.95814896"><ele></ele><time>2014-6-30T11:51:58Z</time></trkpt>
<trkpt lat="48.81208801" lon="1.95767403"><ele></ele><time>2014-6-30T11:52:1Z</time></trkpt>
<trkpt lat="48.81228638" lon="1.95729995"><ele></ele><time>2014-6-30T11:52:4Z</time></trkpt>
<trkpt lat="48.81238174" lon="1.95705700"><ele></ele><time>2014-6-30T11:52:7Z</time></trkpt>
<trkpt lat="48.81249237" lon="1.95691299"><ele></ele><time>2014-6-30T11:52:10Z</time></trkpt>
<trkpt lat="48.81249237" lon="1.95692396"><ele></ele><time>2014-6-30T11:52:13Z</time></trkpt>
<trkpt lat="48.81249619" lon="1.95693398"><ele></ele><time>2014-6-30T11:52:16Z</time></trkpt>
<trkpt lat="48.81250381" lon="1.95696402"><ele></ele><time>2014-6-30T11:52:19Z</time></trkpt>
<trkpt lat="48.81253815" lon="1.95707798"><ele></ele><time>2014-6-30T11:52:22Z</time></trkpt>
<trkpt lat="48.81257629" lon="1.95718396"><ele></ele><time>2014-6-30T11:52:25Z</time></trkpt>
<trkpt lat="48.81267548" lon="1.95744705"><ele></ele><time>2014-6-30T11:52:28Z</time></trkpt>
<trkpt lat="48.81294632" lon="1.95796895"><ele></ele><time>2014-6-30T11:52:31Z</time></trkpt>
<trkpt lat="48.81315994" lon="1.95816803"><ele></ele><time>2014-6-30T11:52:34Z</time></trkpt>
<trkpt lat="48.81346130" lon="1.95832705"><ele></ele><time>2014-6-30T11:52:37Z</time></trkpt>
<trkpt lat="48.81368637" lon="1.95843303"><ele></ele><time>2014-6-30T11:52:40Z</time></trkpt>
<trkpt lat="48.81416321" lon="1.95865905"><ele></ele><time>2014-6-30T11:52:43Z</time></trkpt>
<trkpt lat="48.81422806" lon="1.95869195"><ele></ele><time>2014-6-30T11:52:46Z</time></trkpt>
<trkpt lat="48.81428528" lon="1.95873106"><ele></ele><time>2014-6-30T11:52:49Z</time></trkpt>
<trkpt lat="48.81446457" lon="1.95871603"><ele></ele><time>2014-6-30T11:52:52Z</time></trkpt>
<trkpt lat="48.81470490" lon="1.95845902"><ele></ele><time>2014-6-30T11:52:55Z</time></trkpt>
<trkpt lat="48.81486511" lon="1.95828700"><ele></ele><time>2014-6-30T11:52:58Z</time></trkpt>
<trkpt lat="48.81524658" lon="1.95794702"><ele></ele><time>2014-6-30T11:53:1Z</time></trkpt>
<trkpt lat="48.81539917" lon="1.95782602"><ele></ele><time>2014-6-30T11:53:4Z</time></trkpt>
<trkpt lat="48.81554413" lon="1.95773697"><ele></ele><time>2014-6-30T11:53:7Z</time></trkpt>
<trkpt lat="48.81583023" lon="1.95773399"><ele></ele><time>2014-6-30T11:53:10Z</time></trkpt>
<trkpt lat="48.81587219" lon="1.95783603"><ele></ele><time>2014-6-30T11:53:13Z</time></trkpt>
<trkpt lat="48.81590271" lon="1.95845699"><ele></ele><time>2014-6-30T11:53:16Z</time></trkpt>
<trkpt lat="48.81588364" lon="1.95871997"><ele></ele><time>2014-6-30T11:53:19Z</time></trkpt>
<trkpt lat="48.81594849" lon="1.95918596"><ele></ele><time>2014-6-30T11:53:22Z</time></trkpt>
<trkpt lat="48.81624222" lon="1.95961404"><ele></ele><time>2014-6-30T11:53:25Z</time></trkpt>
<trkpt lat="48.81629944" lon="1.95976400"><ele></ele><time>2014-6-30T11:53:28Z</time></trkpt>
<trkpt lat="48.81614304" lon="1.95965195"><ele></ele><time>2014-6-30T11:53:31Z</time></trkpt>
<trkpt lat="48.81587219" lon="1.95935905"><ele></ele><time>2014-6-30T11:53:34Z</time></trkpt>
<trkpt lat="48.81564713" lon="1.95927703"><ele></ele><time>2014-6-30T11:53:37Z</time></trkpt>
<trkpt lat="48.81543350" lon="1.95928299"><ele></ele><time>2014-6-30T11:53:40Z</time></trkpt>
<trkpt lat="48.81520462" lon="1.95933700"><ele></ele><time>2014-6-30T11:53:43Z</time></trkpt>
<trkpt lat="48.81497192" lon="1.95944703"><ele></ele><time>2014-6-30T11:53:46Z</time></trkpt>
<trkpt lat="48.81481934" lon="1.95965195"><ele></ele><time>2014-6-30T11:53:49Z</time></trkpt>
<trkpt lat="48.81480026" lon="1.95974803"><ele></ele><time>2014-6-30T11:53:52Z</time></trkpt>
<trkpt lat="48.81468582" lon="1.95997596"><ele></ele><time>2014-6-30T11:53:55Z</time></trkpt>
<trkpt lat="48.81469727" lon="1.96034598"><ele></ele><time>2014-6-30T11:53:58Z</time></trkpt>
<trkpt lat="48.81468582" lon="1.96064699"><ele></ele><time>2014-6-30T11:54:1Z</time></trkpt>
<trkpt lat="48.81462479" lon="1.96087801"><ele></ele><time>2014-6-30T11:54:4Z</time></trkpt>
<trkpt lat="48.81462860" lon="1.96109700"><ele></ele><time>2014-6-30T11:54:7Z</time></trkpt>
<trkpt lat="48.81479645" lon="1.96157706"><ele></ele><time>2014-6-30T11:54:10Z</time></trkpt>
<trkpt lat="48.81479645" lon="1.96171105"><ele></ele><time>2014-6-30T11:54:13Z</time></trkpt>
<trkpt lat="48.81476974" lon="1.96179295"><ele></ele><time>2014-6-30T11:54:16Z</time></trkpt>
<trkpt lat="48.81475067" lon="1.96190095"><ele></ele><time>2014-6-30T11:54:19Z</time></trkpt>
<trkpt lat="48.81471634" lon="1.96200001"><ele></ele><time>2014-6-30T11:54:22Z</time></trkpt>
<trkpt lat="48.81465912" lon="1.96207404"><ele></ele><time>2014-6-30T11:54:25Z</time></trkpt>
<trkpt lat="48.81462860" lon="1.96207500"><ele></ele><time>2014-6-30T11:54:28Z</time></trkpt>
<trkpt lat="48.81458664" lon="1.96206701"><ele></ele><time>2014-6-30T11:54:31Z</time></trkpt>
<trkpt lat="48.81452560" lon="1.96203494"><ele></ele><time>2014-6-30T11:54:34Z</time></trkpt>
<trkpt lat="48.81446075" lon="1.96201706"><ele></ele><time>2014-6-30T11:54:37Z</time></trkpt>
<trkpt lat="48.81439590" lon="1.96198297"><ele></ele><time>2014-6-30T11:54:40Z</time></trkpt>
<trkpt lat="48.81438065" lon="1.96196902"><ele></ele><time>2014-6-30T11:54:43Z</time></trkpt>
<trkpt lat="48.81404495" lon="1.96179295"><ele></ele><time>2014-6-30T11:54:46Z</time></trkpt>
<trkpt lat="48.81393051" lon="1.96174097"><ele></ele><time>2014-6-30T11:54:49Z</time></trkpt>
<trkpt lat="48.81383514" lon="1.96178806"><ele></ele><time>2014-6-30T11:54:52Z</time></trkpt>
<trkpt lat="48.81377411" lon="1.96183896"><ele></ele><time>2014-6-30T11:54:55Z</time></trkpt>
<trkpt lat="48.81369400" lon="1.96186197"><ele></ele><time>2014-6-30T11:54:58Z</time></trkpt>
<trkpt lat="48.81361771" lon="1.96185303"><ele></ele><time>2014-6-30T11:55:1Z</time></trkpt>
<trkpt lat="48.81359863" lon="1.96186399"><ele></ele><time>2014-6-30T11:55:4Z</time></trkpt>
<trkpt lat="48.81351089" lon="1.96196795"><ele></ele><time>2014-6-30T11:55:7Z</time></trkpt>
<trkpt lat="48.81350708" lon="1.96196902"><ele></ele><time>2014-6-30T11:55:10Z</time></trkpt>
<trkpt lat="48.81351471" lon="1.96198106"><ele></ele><time>2014-6-30T11:55:13Z</time></trkpt>
<trkpt lat="48.81351089" lon="1.96198905"><ele></ele><time>2014-6-30T11:55:16Z</time></trkpt>
<trkpt lat="48.81346893" lon="1.96208501"><ele></ele><time>2014-6-30T11:55:19Z</time></trkpt>
<trkpt lat="48.81354523" lon="1.96263003"><ele></ele><time>2014-6-30T11:55:22Z</time></trkpt>
<trkpt lat="48.81357574" lon="1.96294200"><ele></ele><time>2014-6-30T11:55:25Z</time></trkpt>
<trkpt lat="48.81357956" lon="1.96306503"><ele></ele><time>2014-6-30T11:55:28Z</time></trkpt>
<trkpt lat="48.81360626" lon="1.96341002"><ele></ele><time>2014-6-30T11:55:31Z</time></trkpt>
<trkpt lat="48.81362152" lon="1.96377301"><ele></ele><time>2014-6-30T11:55:34Z</time></trkpt>
<trkpt lat="48.81367111" lon="1.96433794"><ele></ele><time>2014-6-30T11:55:37Z</time></trkpt>
<trkpt lat="48.81372452" lon="1.96490896"><ele></ele><time>2014-6-30T11:55:40Z</time></trkpt>
<trkpt lat="48.81376266" lon="1.96546304"><ele></ele><time>2014-6-30T11:55:43Z</time></trkpt>
<trkpt lat="48.81377792" lon="1.96569002"><ele></ele><time>2014-6-30T11:55:46Z</time></trkpt>
<trkpt lat="48.81380844" lon="1.96578705"><ele></ele><time>2014-6-30T11:55:49Z</time></trkpt>
<trkpt lat="48.81394958" lon="1.96577597"><ele></ele><time>2014-6-30T11:55:52Z</time></trkpt>
<trkpt lat="48.81402206" lon="1.96582794"><ele></ele><time>2014-6-30T11:55:55Z</time></trkpt>
<trkpt lat="48.81435776" lon="1.96601999"><ele></ele><time>2014-6-30T11:55:58Z</time></trkpt>
<trkpt lat="48.81475830" lon="1.96611404"><ele></ele><time>2014-6-30T11:56:1Z</time></trkpt>
<trkpt lat="48.81483078" lon="1.96603096"><ele></ele><time>2014-6-30T11:56:4Z</time></trkpt>
<trkpt lat="48.81511688" lon="1.96533000"><ele></ele><time>2014-6-30T11:56:7Z</time></trkpt>
<trkpt lat="48.81528854" lon="1.96512496"><ele></ele><time>2014-6-30T11:56:10Z</time></trkpt>
<trkpt lat="48.81558228" lon="1.96453500"><ele></ele><time>2014-6-30T11:56:13Z</time></trkpt>
<trkpt lat="48.81570053" lon="1.96434200"><ele></ele><time>2014-6-30T11:56:16Z</time></trkpt>
<trkpt lat="48.81602859" lon="1.96421504"><ele></ele><time>2014-6-30T11:56:19Z</time></trkpt>
<trkpt lat="48.81644058" lon="1.96428704"><ele></ele><time>2014-6-30T11:56:22Z</time></trkpt>
<trkpt lat="48.81666946" lon="1.96434295"><ele></ele><time>2014-6-30T11:56:25Z</time></trkpt>
<trkpt lat="48.81673813" lon="1.96433401"><ele></ele><time>2014-6-30T11:56:28Z</time></trkpt>
<trkpt lat="48.81675720" lon="1.96434295"><ele></ele><time>2014-6-30T11:56:31Z</time></trkpt>
<trkpt lat="48.81676865" lon="1.96436203"><ele></ele><time>2014-6-30T11:56:34Z</time></trkpt>
<trkpt lat="48.81679153" lon="1.96479404"><ele></ele><time>2014-6-30T11:56:37Z</time></trkpt>
<trkpt lat="48.81680679" lon="1.96503103"><ele></ele><time>2014-6-30T11:56:40Z</time></trkpt>
<trkpt lat="48.81686020" lon="1.96560299"><ele></ele><time>2014-6-30T11:56:43Z</time></trkpt>
<trkpt lat="48.81688309" lon="1.96574795"><ele></ele><time>2014-6-30T11:56:46Z</time></trkpt>
<trkpt lat="48.81709290" lon="1.96592796"><ele></ele><time>2014-6-30T11:56:49Z</time></trkpt>
<trkpt lat="48.81759262" lon="1.96591401"><ele></ele><time>2014-6-30T11:56:52Z</time></trkpt>
<trkpt lat="48.81801224" lon="1.96590304"><ele></ele><time>2014-6-30T11:56:55Z</time></trkpt>
<trkpt lat="48.81835175" lon="1.96589506"><ele></ele><time>2014-6-30T11:56:58Z</time></trkpt>
<trkpt lat="48.81852722" lon="1.96559596"><ele></ele><time>2014-6-30T11:57:1Z</time></trkpt>
<trkpt lat="48.81850052" lon="1.96485806"><ele></ele><time>2014-6-30T11:57:4Z</time></trkpt>
<trkpt lat="48.81849670" lon="1.96427906"><ele></ele><time>2014-6-30T11:57:7Z</time></trkpt>
<trkpt lat="48.81848907" lon="1.96387601"><ele></ele><time>2014-6-30T11:57:10Z</time></trkpt>
<trkpt lat="48.81849289" lon="1.96329999"><ele></ele><time>2014-6-30T11:57:13Z</time></trkpt>
<trkpt lat="48.81848145" lon="1.96272004"><ele></ele><time>2014-6-30T11:57:16Z</time></trkpt>
<trkpt lat="48.81847000" lon="1.96247101"><ele></ele><time>2014-6-30T11:57:19Z</time></trkpt>
<trkpt lat="48.81851196" lon="1.96184897"><ele></ele><time>2014-6-30T11:57:22Z</time></trkpt>
<trkpt lat="48.81852722" lon="1.96177197"><ele></ele><time>2014-6-30T11:57:25Z</time></trkpt>
<trkpt lat="48.81864929" lon="1.96111596"><ele></ele><time>2014-6-30T11:57:28Z</time></trkpt>
<trkpt lat="48.81872940" lon="1.96057403"><ele></ele><time>2014-6-30T11:57:31Z</time></trkpt>
<trkpt lat="48.81881332" lon="1.96004403"><ele></ele><time>2014-6-30T11:57:34Z</time></trkpt>
<trkpt lat="48.81891251" lon="1.95947301"><ele></ele><time>2014-6-30T11:57:37Z</time></trkpt>
<trkpt lat="48.81901169" lon="1.95890903"><ele></ele><time>2014-6-30T11:57:40Z</time></trkpt>
<trkpt lat="48.81911087" lon="1.95834899"><ele></ele><time>2014-6-30T11:57:43Z</time></trkpt>
<trkpt lat="48.81912613" lon="1.95826495"><ele></ele><time>2014-6-30T11:57:46Z</time></trkpt>
<trkpt lat="48.81920242" lon="1.95802402"><ele></ele><time>2014-6-30T11:57:49Z</time></trkpt>
<trkpt lat="48.81934357" lon="1.95738006"><ele></ele><time>2014-6-30T11:57:52Z</time></trkpt>
<trkpt lat="48.81951523" lon="1.95710099"><ele></ele><time>2014-6-30T11:57:55Z</time></trkpt>
<trkpt lat="48.81972504" lon="1.95677996"><ele></ele><time>2014-6-30T11:57:58Z</time></trkpt>
<trkpt lat="48.81987381" lon="1.95616603"><ele></ele><time>2014-6-30T11:58:1Z</time></trkpt>
<trkpt lat="48.81999588" lon="1.95562506"><ele></ele><time>2014-6-30T11:58:4Z</time></trkpt>
<trkpt lat="48.82001495" lon="1.95546198"><ele></ele><time>2014-6-30T11:58:7Z</time></trkpt>
<trkpt lat="48.82020187" lon="1.95513105"><ele></ele><time>2014-6-30T11:58:10Z</time></trkpt>
<trkpt lat="48.82019806" lon="1.95513403"><ele></ele><time>2014-6-30T11:58:13Z</time></trkpt>
</trkseg></trk></gpx>